<?xml version="1.0" encoding="UTF-8" standalone="no" ?>
<gpx xmlns="http://www.topografix.com/GPX/1/1" xmlns:xsi="http://www.w3.org/2001/XMLSchema-instance" xsi:schemaLocation="http://www.topografix.com/GPX/1/1 http://www.topografix.com/GPX/1/1/gpx.xsd" version="1.1" creator="VisuGPX - https://www.visugpx.com">
  <metadata>
    <name>Arbizon</name>
    <desc><![CDATA[[url]https://picasaweb.google.com/christian65000/Arbizon#[/url]
[img]https://lh6.googleusercontent.com/-TtF6ASCKIJQ/Uq3PYL5QLoI/AAAAAAAANMA/wDriLkSdg5k/s576/2013.12.15%2520Arbizon%2520005.jpg[/img]]]></desc>
  </metadata>
  <trk>
    <name><![CDATA[Arbizon]]></name>
    <trkseg>
      <trkpt lat="42.85141" lon="0.27324">
        <ele>1218</ele>
        <time>2013-12-15T08:24:34Z</time>
      </trkpt>
      <trkpt lat="42.85141" lon="0.27327">
        <ele>1218</ele>
        <time>2013-12-15T08:24:35Z</time>
      </trkpt>
      <trkpt lat="42.8514" lon="0.27332">
        <ele>1223</ele>
        <time>2013-12-15T08:24:39Z</time>
      </trkpt>
      <trkpt lat="42.85139" lon="0.27333">
        <ele>1228</ele>
        <time>2013-12-15T08:24:40Z</time>
      </trkpt>
      <trkpt lat="42.85139" lon="0.27334">
        <ele>1233</ele>
        <time>2013-12-15T08:24:41Z</time>
      </trkpt>
      <trkpt lat="42.85139" lon="0.27334">
        <ele>1236</ele>
        <time>2013-12-15T08:24:42Z</time>
      </trkpt>
      <trkpt lat="42.85139" lon="0.27333">
        <ele>1240</ele>
        <time>2013-12-15T08:24:43Z</time>
      </trkpt>
      <trkpt lat="42.85139" lon="0.27333">
        <ele>1245</ele>
        <time>2013-12-15T08:24:44Z</time>
      </trkpt>
      <trkpt lat="42.85139" lon="0.27334">
        <ele>1248</ele>
        <time>2013-12-15T08:24:45Z</time>
      </trkpt>
      <trkpt lat="42.85139" lon="0.27334">
        <ele>1252</ele>
        <time>2013-12-15T08:24:46Z</time>
      </trkpt>
      <trkpt lat="42.85139" lon="0.27335">
        <ele>1256</ele>
        <time>2013-12-15T08:24:47Z</time>
      </trkpt>
      <trkpt lat="42.85139" lon="0.27335">
        <ele>1262</ele>
        <time>2013-12-15T08:24:49Z</time>
      </trkpt>
      <trkpt lat="42.85139" lon="0.27336">
        <ele>1265</ele>
        <time>2013-12-15T08:24:50Z</time>
      </trkpt>
      <trkpt lat="42.85138" lon="0.27336">
        <ele>1272</ele>
        <time>2013-12-15T08:24:52Z</time>
      </trkpt>
      <trkpt lat="42.85137" lon="0.27336">
        <ele>1277</ele>
        <time>2013-12-15T08:24:54Z</time>
      </trkpt>
      <trkpt lat="42.85138" lon="0.27336">
        <ele>1283</ele>
        <time>2013-12-15T08:24:56Z</time>
      </trkpt>
      <trkpt lat="42.85138" lon="0.27337">
        <ele>1287</ele>
        <time>2013-12-15T08:24:58Z</time>
      </trkpt>
      <trkpt lat="42.85137" lon="0.27339">
        <ele>1292</ele>
        <time>2013-12-15T08:25:00Z</time>
      </trkpt>
      <trkpt lat="42.85137" lon="0.2734">
        <ele>1297</ele>
        <time>2013-12-15T08:25:02Z</time>
      </trkpt>
      <trkpt lat="42.85137" lon="0.2734">
        <ele>1301</ele>
        <time>2013-12-15T08:25:04Z</time>
      </trkpt>
      <trkpt lat="42.85136" lon="0.2734">
        <ele>1306</ele>
        <time>2013-12-15T08:25:06Z</time>
      </trkpt>
      <trkpt lat="42.85136" lon="0.2734">
        <ele>1309</ele>
        <time>2013-12-15T08:25:08Z</time>
      </trkpt>
      <trkpt lat="42.85136" lon="0.2734">
        <ele>1314</ele>
        <time>2013-12-15T08:25:11Z</time>
      </trkpt>
      <trkpt lat="42.85136" lon="0.2734">
        <ele>1317</ele>
        <time>2013-12-15T08:25:13Z</time>
      </trkpt>
      <trkpt lat="42.85136" lon="0.27338">
        <ele>1322</ele>
        <time>2013-12-15T08:25:16Z</time>
      </trkpt>
      <trkpt lat="42.85137" lon="0.27338">
        <ele>1326</ele>
        <time>2013-12-15T08:25:19Z</time>
      </trkpt>
      <trkpt lat="42.85136" lon="0.27339">
        <ele>1330</ele>
        <time>2013-12-15T08:25:22Z</time>
      </trkpt>
      <trkpt lat="42.85136" lon="0.27339">
        <ele>1333</ele>
        <time>2013-12-15T08:25:25Z</time>
      </trkpt>
      <trkpt lat="42.85136" lon="0.27339">
        <ele>1337</ele>
        <time>2013-12-15T08:25:29Z</time>
      </trkpt>
      <trkpt lat="42.85137" lon="0.27339">
        <ele>1340</ele>
        <time>2013-12-15T08:25:32Z</time>
      </trkpt>
      <trkpt lat="42.85137" lon="0.27338">
        <ele>1344</ele>
        <time>2013-12-15T08:25:36Z</time>
      </trkpt>
      <trkpt lat="42.85137" lon="0.27339">
        <ele>1347</ele>
        <time>2013-12-15T08:25:41Z</time>
      </trkpt>
      <trkpt lat="42.85137" lon="0.2734">
        <ele>1348</ele>
        <time>2013-12-15T08:25:43Z</time>
      </trkpt>
      <trkpt lat="42.85137" lon="0.2734">
        <ele>1351</ele>
        <time>2013-12-15T08:25:47Z</time>
      </trkpt>
      <trkpt lat="42.85136" lon="0.27341">
        <ele>1354</ele>
        <time>2013-12-15T08:25:53Z</time>
      </trkpt>
      <trkpt lat="42.85137" lon="0.27339">
        <ele>1357</ele>
        <time>2013-12-15T08:26:00Z</time>
      </trkpt>
      <trkpt lat="42.85137" lon="0.27341">
        <ele>1360</ele>
        <time>2013-12-15T08:26:12Z</time>
      </trkpt>
      <trkpt lat="42.85137" lon="0.27343">
        <ele>1364</ele>
        <time>2013-12-15T08:26:23Z</time>
      </trkpt>
      <trkpt lat="42.85141" lon="0.27336">
        <ele>1366</ele>
        <time>2013-12-15T08:26:50Z</time>
      </trkpt>
      <trkpt lat="42.85146" lon="0.27338">
        <ele>1366</ele>
        <time>2013-12-15T08:27:29Z</time>
      </trkpt>
      <trkpt lat="42.8515" lon="0.27339">
        <ele>1368</ele>
        <time>2013-12-15T08:28:05Z</time>
      </trkpt>
      <trkpt lat="42.85151" lon="0.2734">
        <ele>1368</ele>
        <time>2013-12-15T08:28:43Z</time>
      </trkpt>
      <trkpt lat="42.85152" lon="0.27342">
        <ele>1368</ele>
        <time>2013-12-15T08:29:11Z</time>
      </trkpt>
      <trkpt lat="42.85144" lon="0.27336">
        <ele>1368</ele>
        <time>2013-12-15T08:29:38Z</time>
      </trkpt>
      <trkpt lat="42.85136" lon="0.27334">
        <ele>1368</ele>
        <time>2013-12-15T08:30:07Z</time>
      </trkpt>
      <trkpt lat="42.8514" lon="0.27335">
        <ele>1368</ele>
        <time>2013-12-15T08:30:48Z</time>
      </trkpt>
      <trkpt lat="42.85141" lon="0.27335">
        <ele>1368</ele>
        <time>2013-12-15T08:31:19Z</time>
      </trkpt>
      <trkpt lat="42.85143" lon="0.2734">
        <ele>1369</ele>
        <time>2013-12-15T08:31:50Z</time>
      </trkpt>
      <trkpt lat="42.85139" lon="0.2734">
        <ele>1369</ele>
        <time>2013-12-15T08:32:14Z</time>
      </trkpt>
      <trkpt lat="42.85138" lon="0.27339">
        <ele>1370</ele>
        <time>2013-12-15T08:32:20Z</time>
      </trkpt>
      <trkpt lat="42.8514" lon="0.27338">
        <ele>1370</ele>
        <time>2013-12-15T08:32:31Z</time>
      </trkpt>
      <trkpt lat="42.85139" lon="0.27338">
        <ele>1369</ele>
        <time>2013-12-15T08:32:45Z</time>
      </trkpt>
      <trkpt lat="42.85143" lon="0.27337">
        <ele>1369</ele>
        <time>2013-12-15T08:33:04Z</time>
      </trkpt>
      <trkpt lat="42.85138" lon="0.27336">
        <ele>1370</ele>
        <time>2013-12-15T08:33:22Z</time>
      </trkpt>
      <trkpt lat="42.85139" lon="0.27337">
        <ele>1370</ele>
        <time>2013-12-15T08:33:35Z</time>
      </trkpt>
      <trkpt lat="42.85139" lon="0.27338">
        <ele>1369</ele>
        <time>2013-12-15T08:33:50Z</time>
      </trkpt>
      <trkpt lat="42.85144" lon="0.27326">
        <ele>1371</ele>
        <time>2013-12-15T08:34:02Z</time>
      </trkpt>
      <trkpt lat="42.85151" lon="0.27321">
        <ele>1372</ele>
        <time>2013-12-15T08:34:13Z</time>
      </trkpt>
      <trkpt lat="42.85153" lon="0.27316">
        <ele>1373</ele>
        <time>2013-12-15T08:34:17Z</time>
      </trkpt>
      <trkpt lat="42.85154" lon="0.27312">
        <ele>1374</ele>
        <time>2013-12-15T08:34:21Z</time>
      </trkpt>
      <trkpt lat="42.85158" lon="0.27307">
        <ele>1375</ele>
        <time>2013-12-15T08:34:27Z</time>
      </trkpt>
      <trkpt lat="42.85153" lon="0.27301">
        <ele>1375</ele>
        <time>2013-12-15T08:34:38Z</time>
      </trkpt>
      <trkpt lat="42.85153" lon="0.273">
        <ele>1375</ele>
        <time>2013-12-15T08:34:40Z</time>
      </trkpt>
      <trkpt lat="42.85154" lon="0.27298">
        <ele>1375</ele>
        <time>2013-12-15T08:34:42Z</time>
      </trkpt>
      <trkpt lat="42.85152" lon="0.27292">
        <ele>1376</ele>
        <time>2013-12-15T08:34:55Z</time>
      </trkpt>
      <trkpt lat="42.85153" lon="0.27293">
        <ele>1376</ele>
        <time>2013-12-15T08:35:10Z</time>
      </trkpt>
      <trkpt lat="42.85153" lon="0.27293">
        <ele>1375</ele>
        <time>2013-12-15T08:35:23Z</time>
      </trkpt>
      <trkpt lat="42.85154" lon="0.27295">
        <ele>1376</ele>
        <time>2013-12-15T08:35:34Z</time>
      </trkpt>
      <trkpt lat="42.85154" lon="0.27294">
        <ele>1375</ele>
        <time>2013-12-15T08:35:48Z</time>
      </trkpt>
      <trkpt lat="42.85151" lon="0.27296">
        <ele>1376</ele>
        <time>2013-12-15T08:36:03Z</time>
      </trkpt>
      <trkpt lat="42.85155" lon="0.27293">
        <ele>1376</ele>
        <time>2013-12-15T08:36:22Z</time>
      </trkpt>
      <trkpt lat="42.85154" lon="0.2729">
        <ele>1376</ele>
        <time>2013-12-15T08:36:32Z</time>
      </trkpt>
      <trkpt lat="42.85156" lon="0.2728">
        <ele>1377</ele>
        <time>2013-12-15T08:36:43Z</time>
      </trkpt>
      <trkpt lat="42.85158" lon="0.27276">
        <ele>1378</ele>
        <time>2013-12-15T08:36:47Z</time>
      </trkpt>
      <trkpt lat="42.85162" lon="0.2727">
        <ele>1379</ele>
        <time>2013-12-15T08:36:52Z</time>
      </trkpt>
      <trkpt lat="42.85166" lon="0.27255">
        <ele>1381</ele>
        <time>2013-12-15T08:37:05Z</time>
      </trkpt>
      <trkpt lat="42.85167" lon="0.27254">
        <ele>1381</ele>
        <time>2013-12-15T08:37:06Z</time>
      </trkpt>
      <trkpt lat="42.85171" lon="0.27247">
        <ele>1381</ele>
        <time>2013-12-15T08:37:12Z</time>
      </trkpt>
      <trkpt lat="42.85178" lon="0.27233">
        <ele>1382</ele>
        <time>2013-12-15T08:37:25Z</time>
      </trkpt>
      <trkpt lat="42.85178" lon="0.27232">
        <ele>1382</ele>
        <time>2013-12-15T08:37:26Z</time>
      </trkpt>
      <trkpt lat="42.85179" lon="0.27228">
        <ele>1382</ele>
        <time>2013-12-15T08:37:30Z</time>
      </trkpt>
      <trkpt lat="42.8518" lon="0.27223">
        <ele>1383</ele>
        <time>2013-12-15T08:37:34Z</time>
      </trkpt>
      <trkpt lat="42.85182" lon="0.27217">
        <ele>1384</ele>
        <time>2013-12-15T08:37:39Z</time>
      </trkpt>
      <trkpt lat="42.85188" lon="0.27205">
        <ele>1385</ele>
        <time>2013-12-15T08:37:51Z</time>
      </trkpt>
      <trkpt lat="42.85191" lon="0.27202">
        <ele>1386</ele>
        <time>2013-12-15T08:37:54Z</time>
      </trkpt>
      <trkpt lat="42.85198" lon="0.27189">
        <ele>1388</ele>
        <time>2013-12-15T08:38:06Z</time>
      </trkpt>
      <trkpt lat="42.85205" lon="0.27179">
        <ele>1390</ele>
        <time>2013-12-15T08:38:18Z</time>
      </trkpt>
      <trkpt lat="42.85205" lon="0.27178">
        <ele>1390</ele>
        <time>2013-12-15T08:38:19Z</time>
      </trkpt>
      <trkpt lat="42.85214" lon="0.27166">
        <ele>1392</ele>
        <time>2013-12-15T08:38:32Z</time>
      </trkpt>
      <trkpt lat="42.85215" lon="0.27164">
        <ele>1392</ele>
        <time>2013-12-15T08:38:34Z</time>
      </trkpt>
      <trkpt lat="42.8522" lon="0.27155">
        <ele>1394</ele>
        <time>2013-12-15T08:38:45Z</time>
      </trkpt>
      <trkpt lat="42.85228" lon="0.27141">
        <ele>1395</ele>
        <time>2013-12-15T08:38:59Z</time>
      </trkpt>
      <trkpt lat="42.85229" lon="0.27139">
        <ele>1395</ele>
        <time>2013-12-15T08:39:01Z</time>
      </trkpt>
      <trkpt lat="42.85237" lon="0.27132">
        <ele>1396</ele>
        <time>2013-12-15T08:39:11Z</time>
      </trkpt>
      <trkpt lat="42.85246" lon="0.27127">
        <ele>1398</ele>
        <time>2013-12-15T08:39:23Z</time>
      </trkpt>
      <trkpt lat="42.8525" lon="0.27124">
        <ele>1399</ele>
        <time>2013-12-15T08:39:30Z</time>
      </trkpt>
      <trkpt lat="42.85259" lon="0.27115">
        <ele>1403</ele>
        <time>2013-12-15T08:39:45Z</time>
      </trkpt>
      <trkpt lat="42.85269" lon="0.27104">
        <ele>1406</ele>
        <time>2013-12-15T08:40:01Z</time>
      </trkpt>
      <trkpt lat="42.85277" lon="0.27095">
        <ele>1408</ele>
        <time>2013-12-15T08:40:14Z</time>
      </trkpt>
      <trkpt lat="42.85287" lon="0.27084">
        <ele>1411</ele>
        <time>2013-12-15T08:40:31Z</time>
      </trkpt>
      <trkpt lat="42.85295" lon="0.27076">
        <ele>1413</ele>
        <time>2013-12-15T08:40:45Z</time>
      </trkpt>
      <trkpt lat="42.85307" lon="0.27072">
        <ele>1415</ele>
        <time>2013-12-15T08:41:00Z</time>
      </trkpt>
      <trkpt lat="42.85316" lon="0.27067">
        <ele>1418</ele>
        <time>2013-12-15T08:41:14Z</time>
      </trkpt>
      <trkpt lat="42.85324" lon="0.27064">
        <ele>1420</ele>
        <time>2013-12-15T08:41:27Z</time>
      </trkpt>
      <trkpt lat="42.85329" lon="0.2706">
        <ele>1421</ele>
        <time>2013-12-15T08:41:34Z</time>
      </trkpt>
      <trkpt lat="42.85334" lon="0.27055">
        <ele>1423</ele>
        <time>2013-12-15T08:41:41Z</time>
      </trkpt>
      <trkpt lat="42.85338" lon="0.27051">
        <ele>1423</ele>
        <time>2013-12-15T08:41:46Z</time>
      </trkpt>
      <trkpt lat="42.85343" lon="0.27049">
        <ele>1424</ele>
        <time>2013-12-15T08:41:51Z</time>
      </trkpt>
      <trkpt lat="42.85353" lon="0.2704">
        <ele>1427</ele>
        <time>2013-12-15T08:42:05Z</time>
      </trkpt>
      <trkpt lat="42.85357" lon="0.27037">
        <ele>1427</ele>
        <time>2013-12-15T08:42:09Z</time>
      </trkpt>
      <trkpt lat="42.85369" lon="0.27029">
        <ele>1429</ele>
        <time>2013-12-15T08:42:23Z</time>
      </trkpt>
      <trkpt lat="42.8537" lon="0.27028">
        <ele>1429</ele>
        <time>2013-12-15T08:42:25Z</time>
      </trkpt>
      <trkpt lat="42.85374" lon="0.27023">
        <ele>1430</ele>
        <time>2013-12-15T08:42:33Z</time>
      </trkpt>
      <trkpt lat="42.85386" lon="0.27021">
        <ele>1433</ele>
        <time>2013-12-15T08:42:47Z</time>
      </trkpt>
      <trkpt lat="42.85392" lon="0.27019">
        <ele>1434</ele>
        <time>2013-12-15T08:42:56Z</time>
      </trkpt>
      <trkpt lat="42.85401" lon="0.2701">
        <ele>1438</ele>
        <time>2013-12-15T08:43:09Z</time>
      </trkpt>
      <trkpt lat="42.85412" lon="0.27004">
        <ele>1441</ele>
        <time>2013-12-15T08:43:24Z</time>
      </trkpt>
      <trkpt lat="42.85422" lon="0.26998">
        <ele>1443</ele>
        <time>2013-12-15T08:43:38Z</time>
      </trkpt>
      <trkpt lat="42.85426" lon="0.26995">
        <ele>1445</ele>
        <time>2013-12-15T08:43:45Z</time>
      </trkpt>
      <trkpt lat="42.85429" lon="0.26992">
        <ele>1446</ele>
        <time>2013-12-15T08:43:51Z</time>
      </trkpt>
      <trkpt lat="42.85437" lon="0.26983">
        <ele>1448</ele>
        <time>2013-12-15T08:44:04Z</time>
      </trkpt>
      <trkpt lat="42.85445" lon="0.26973">
        <ele>1451</ele>
        <time>2013-12-15T08:44:18Z</time>
      </trkpt>
      <trkpt lat="42.85447" lon="0.2697">
        <ele>1452</ele>
        <time>2013-12-15T08:44:23Z</time>
      </trkpt>
      <trkpt lat="42.85457" lon="0.26961">
        <ele>1455</ele>
        <time>2013-12-15T08:44:36Z</time>
      </trkpt>
      <trkpt lat="42.85463" lon="0.26955">
        <ele>1457</ele>
        <time>2013-12-15T08:44:50Z</time>
      </trkpt>
      <trkpt lat="42.85465" lon="0.26954">
        <ele>1457</ele>
        <time>2013-12-15T08:44:53Z</time>
      </trkpt>
      <trkpt lat="42.85476" lon="0.26951">
        <ele>1461</ele>
        <time>2013-12-15T08:45:07Z</time>
      </trkpt>
      <trkpt lat="42.85486" lon="0.26948">
        <ele>1464</ele>
        <time>2013-12-15T08:45:19Z</time>
      </trkpt>
      <trkpt lat="42.85499" lon="0.26941">
        <ele>1466</ele>
        <time>2013-12-15T08:45:31Z</time>
      </trkpt>
      <trkpt lat="42.85507" lon="0.26937">
        <ele>1469</ele>
        <time>2013-12-15T08:45:45Z</time>
      </trkpt>
      <trkpt lat="42.85518" lon="0.26934">
        <ele>1472</ele>
        <time>2013-12-15T08:45:59Z</time>
      </trkpt>
      <trkpt lat="42.85527" lon="0.26931">
        <ele>1474</ele>
        <time>2013-12-15T08:46:12Z</time>
      </trkpt>
      <trkpt lat="42.85531" lon="0.26928">
        <ele>1476</ele>
        <time>2013-12-15T08:46:20Z</time>
      </trkpt>
      <trkpt lat="42.85542" lon="0.26923">
        <ele>1480</ele>
        <time>2013-12-15T08:46:38Z</time>
      </trkpt>
      <trkpt lat="42.85551" lon="0.26916">
        <ele>1482</ele>
        <time>2013-12-15T08:46:52Z</time>
      </trkpt>
      <trkpt lat="42.85551" lon="0.26915">
        <ele>1482</ele>
        <time>2013-12-15T08:46:53Z</time>
      </trkpt>
      <trkpt lat="42.85558" lon="0.26898">
        <ele>1484</ele>
        <time>2013-12-15T08:47:09Z</time>
      </trkpt>
      <trkpt lat="42.85564" lon="0.26885">
        <ele>1487</ele>
        <time>2013-12-15T08:47:23Z</time>
      </trkpt>
      <trkpt lat="42.85568" lon="0.26872">
        <ele>1489</ele>
        <time>2013-12-15T08:47:37Z</time>
      </trkpt>
      <trkpt lat="42.85574" lon="0.26861">
        <ele>1492</ele>
        <time>2013-12-15T08:47:51Z</time>
      </trkpt>
      <trkpt lat="42.85579" lon="0.26847">
        <ele>1495</ele>
        <time>2013-12-15T08:48:05Z</time>
      </trkpt>
      <trkpt lat="42.85584" lon="0.26835">
        <ele>1497</ele>
        <time>2013-12-15T08:48:19Z</time>
      </trkpt>
      <trkpt lat="42.85589" lon="0.26824">
        <ele>1499</ele>
        <time>2013-12-15T08:48:32Z</time>
      </trkpt>
      <trkpt lat="42.85595" lon="0.26815">
        <ele>1502</ele>
        <time>2013-12-15T08:48:47Z</time>
      </trkpt>
      <trkpt lat="42.85601" lon="0.26804">
        <ele>1506</ele>
        <time>2013-12-15T08:49:02Z</time>
      </trkpt>
      <trkpt lat="42.8561" lon="0.26797">
        <ele>1508</ele>
        <time>2013-12-15T08:49:15Z</time>
      </trkpt>
      <trkpt lat="42.85616" lon="0.26788">
        <ele>1511</ele>
        <time>2013-12-15T08:49:28Z</time>
      </trkpt>
      <trkpt lat="42.85622" lon="0.26775">
        <ele>1514</ele>
        <time>2013-12-15T08:49:43Z</time>
      </trkpt>
      <trkpt lat="42.85628" lon="0.26769">
        <ele>1516</ele>
        <time>2013-12-15T08:49:54Z</time>
      </trkpt>
      <trkpt lat="42.85629" lon="0.26768">
        <ele>1517</ele>
        <time>2013-12-15T08:49:57Z</time>
      </trkpt>
      <trkpt lat="42.85632" lon="0.26758">
        <ele>1519</ele>
        <time>2013-12-15T08:50:09Z</time>
      </trkpt>
      <trkpt lat="42.8564" lon="0.26751">
        <ele>1521</ele>
        <time>2013-12-15T08:50:21Z</time>
      </trkpt>
      <trkpt lat="42.85648" lon="0.26741">
        <ele>1524</ele>
        <time>2013-12-15T08:50:36Z</time>
      </trkpt>
      <trkpt lat="42.85654" lon="0.26731">
        <ele>1525</ele>
        <time>2013-12-15T08:50:51Z</time>
      </trkpt>
      <trkpt lat="42.85664" lon="0.26726">
        <ele>1528</ele>
        <time>2013-12-15T08:51:04Z</time>
      </trkpt>
      <trkpt lat="42.85669" lon="0.2672">
        <ele>1530</ele>
        <time>2013-12-15T08:51:17Z</time>
      </trkpt>
      <trkpt lat="42.85678" lon="0.2672">
        <ele>1533</ele>
        <time>2013-12-15T08:51:28Z</time>
      </trkpt>
      <trkpt lat="42.85685" lon="0.26717">
        <ele>1535</ele>
        <time>2013-12-15T08:51:40Z</time>
      </trkpt>
      <trkpt lat="42.85693" lon="0.26713">
        <ele>1537</ele>
        <time>2013-12-15T08:51:55Z</time>
      </trkpt>
      <trkpt lat="42.85698" lon="0.26705">
        <ele>1539</ele>
        <time>2013-12-15T08:52:10Z</time>
      </trkpt>
      <trkpt lat="42.85699" lon="0.26695">
        <ele>1541</ele>
        <time>2013-12-15T08:52:24Z</time>
      </trkpt>
      <trkpt lat="42.85698" lon="0.2669">
        <ele>1542</ele>
        <time>2013-12-15T08:52:30Z</time>
      </trkpt>
      <trkpt lat="42.85704" lon="0.2668">
        <ele>1544</ele>
        <time>2013-12-15T08:52:44Z</time>
      </trkpt>
      <trkpt lat="42.85715" lon="0.26672">
        <ele>1548</ele>
        <time>2013-12-15T08:53:00Z</time>
      </trkpt>
      <trkpt lat="42.8572" lon="0.26664">
        <ele>1550</ele>
        <time>2013-12-15T08:53:13Z</time>
      </trkpt>
      <trkpt lat="42.85721" lon="0.26663">
        <ele>1550</ele>
        <time>2013-12-15T08:53:15Z</time>
      </trkpt>
      <trkpt lat="42.85732" lon="0.26654">
        <ele>1552</ele>
        <time>2013-12-15T08:53:30Z</time>
      </trkpt>
      <trkpt lat="42.85735" lon="0.26651">
        <ele>1552</ele>
        <time>2013-12-15T08:53:34Z</time>
      </trkpt>
      <trkpt lat="42.8574" lon="0.26639">
        <ele>1553</ele>
        <time>2013-12-15T08:53:45Z</time>
      </trkpt>
      <trkpt lat="42.85745" lon="0.26625">
        <ele>1556</ele>
        <time>2013-12-15T08:53:59Z</time>
      </trkpt>
      <trkpt lat="42.85747" lon="0.26619">
        <ele>1557</ele>
        <time>2013-12-15T08:54:11Z</time>
      </trkpt>
      <trkpt lat="42.85749" lon="0.26608">
        <ele>1558</ele>
        <time>2013-12-15T08:54:24Z</time>
      </trkpt>
      <trkpt lat="42.85754" lon="0.26597">
        <ele>1562</ele>
        <time>2013-12-15T08:54:37Z</time>
      </trkpt>
      <trkpt lat="42.85755" lon="0.26589">
        <ele>1564</ele>
        <time>2013-12-15T08:54:50Z</time>
      </trkpt>
      <trkpt lat="42.85758" lon="0.26577">
        <ele>1567</ele>
        <time>2013-12-15T08:55:04Z</time>
      </trkpt>
      <trkpt lat="42.85763" lon="0.26574">
        <ele>1569</ele>
        <time>2013-12-15T08:55:17Z</time>
      </trkpt>
      <trkpt lat="42.85765" lon="0.26565">
        <ele>1572</ele>
        <time>2013-12-15T08:55:28Z</time>
      </trkpt>
      <trkpt lat="42.8577" lon="0.26553">
        <ele>1574</ele>
        <time>2013-12-15T08:55:42Z</time>
      </trkpt>
      <trkpt lat="42.85773" lon="0.26546">
        <ele>1576</ele>
        <time>2013-12-15T08:55:54Z</time>
      </trkpt>
      <trkpt lat="42.85775" lon="0.26542">
        <ele>1576</ele>
        <time>2013-12-15T08:56:06Z</time>
      </trkpt>
      <trkpt lat="42.85776" lon="0.26532">
        <ele>1579</ele>
        <time>2013-12-15T08:56:19Z</time>
      </trkpt>
      <trkpt lat="42.8578" lon="0.26524">
        <ele>1582</ele>
        <time>2013-12-15T08:56:33Z</time>
      </trkpt>
      <trkpt lat="42.8578" lon="0.26523">
        <ele>1583</ele>
        <time>2013-12-15T08:56:34Z</time>
      </trkpt>
      <trkpt lat="42.85782" lon="0.2652">
        <ele>1583</ele>
        <time>2013-12-15T08:56:46Z</time>
      </trkpt>
      <trkpt lat="42.85786" lon="0.26512">
        <ele>1585</ele>
        <time>2013-12-15T08:56:57Z</time>
      </trkpt>
      <trkpt lat="42.85786" lon="0.26502">
        <ele>1588</ele>
        <time>2013-12-15T08:57:09Z</time>
      </trkpt>
      <trkpt lat="42.85789" lon="0.26495">
        <ele>1590</ele>
        <time>2013-12-15T08:57:23Z</time>
      </trkpt>
      <trkpt lat="42.85796" lon="0.26478">
        <ele>1593</ele>
        <time>2013-12-15T08:57:37Z</time>
      </trkpt>
      <trkpt lat="42.85799" lon="0.26467">
        <ele>1595</ele>
        <time>2013-12-15T08:57:50Z</time>
      </trkpt>
      <trkpt lat="42.858" lon="0.26465">
        <ele>1595</ele>
        <time>2013-12-15T08:57:52Z</time>
      </trkpt>
      <trkpt lat="42.85801" lon="0.26457">
        <ele>1597</ele>
        <time>2013-12-15T08:58:02Z</time>
      </trkpt>
      <trkpt lat="42.85804" lon="0.26444">
        <ele>1599</ele>
        <time>2013-12-15T08:58:17Z</time>
      </trkpt>
      <trkpt lat="42.85808" lon="0.2643">
        <ele>1602</ele>
        <time>2013-12-15T08:58:31Z</time>
      </trkpt>
      <trkpt lat="42.85812" lon="0.2642">
        <ele>1605</ele>
        <time>2013-12-15T08:58:43Z</time>
      </trkpt>
      <trkpt lat="42.85817" lon="0.2641">
        <ele>1608</ele>
        <time>2013-12-15T08:58:59Z</time>
      </trkpt>
      <trkpt lat="42.85822" lon="0.26404">
        <ele>1611</ele>
        <time>2013-12-15T08:59:14Z</time>
      </trkpt>
      <trkpt lat="42.85826" lon="0.26394">
        <ele>1613</ele>
        <time>2013-12-15T08:59:23Z</time>
      </trkpt>
      <trkpt lat="42.85831" lon="0.26386">
        <ele>1615</ele>
        <time>2013-12-15T08:59:35Z</time>
      </trkpt>
      <trkpt lat="42.85835" lon="0.26383">
        <ele>1617</ele>
        <time>2013-12-15T08:59:47Z</time>
      </trkpt>
      <trkpt lat="42.8584" lon="0.26373">
        <ele>1619</ele>
        <time>2013-12-15T09:00:00Z</time>
      </trkpt>
      <trkpt lat="42.85844" lon="0.26368">
        <ele>1622</ele>
        <time>2013-12-15T09:00:14Z</time>
      </trkpt>
      <trkpt lat="42.85851" lon="0.2636">
        <ele>1625</ele>
        <time>2013-12-15T09:00:31Z</time>
      </trkpt>
      <trkpt lat="42.85856" lon="0.26353">
        <ele>1628</ele>
        <time>2013-12-15T09:00:44Z</time>
      </trkpt>
      <trkpt lat="42.85862" lon="0.26352">
        <ele>1630</ele>
        <time>2013-12-15T09:00:58Z</time>
      </trkpt>
      <trkpt lat="42.85866" lon="0.2635">
        <ele>1633</ele>
        <time>2013-12-15T09:01:10Z</time>
      </trkpt>
      <trkpt lat="42.85875" lon="0.26344">
        <ele>1635</ele>
        <time>2013-12-15T09:01:24Z</time>
      </trkpt>
      <trkpt lat="42.85878" lon="0.26334">
        <ele>1637</ele>
        <time>2013-12-15T09:01:38Z</time>
      </trkpt>
      <trkpt lat="42.85885" lon="0.26325">
        <ele>1638</ele>
        <time>2013-12-15T09:01:52Z</time>
      </trkpt>
      <trkpt lat="42.85894" lon="0.26318">
        <ele>1641</ele>
        <time>2013-12-15T09:02:06Z</time>
      </trkpt>
      <trkpt lat="42.859" lon="0.2631">
        <ele>1643</ele>
        <time>2013-12-15T09:02:19Z</time>
      </trkpt>
      <trkpt lat="42.85907" lon="0.26305">
        <ele>1646</ele>
        <time>2013-12-15T09:02:32Z</time>
      </trkpt>
      <trkpt lat="42.85911" lon="0.26302">
        <ele>1646</ele>
        <time>2013-12-15T09:02:40Z</time>
      </trkpt>
      <trkpt lat="42.85921" lon="0.263">
        <ele>1649</ele>
        <time>2013-12-15T09:02:54Z</time>
      </trkpt>
      <trkpt lat="42.85931" lon="0.26295">
        <ele>1651</ele>
        <time>2013-12-15T09:03:08Z</time>
      </trkpt>
      <trkpt lat="42.8594" lon="0.26291">
        <ele>1652</ele>
        <time>2013-12-15T09:03:20Z</time>
      </trkpt>
      <trkpt lat="42.85952" lon="0.26286">
        <ele>1655</ele>
        <time>2013-12-15T09:03:36Z</time>
      </trkpt>
      <trkpt lat="42.8596" lon="0.26284">
        <ele>1656</ele>
        <time>2013-12-15T09:03:50Z</time>
      </trkpt>
      <trkpt lat="42.85971" lon="0.2628">
        <ele>1658</ele>
        <time>2013-12-15T09:04:06Z</time>
      </trkpt>
      <trkpt lat="42.85979" lon="0.26276">
        <ele>1661</ele>
        <time>2013-12-15T09:04:20Z</time>
      </trkpt>
      <trkpt lat="42.85987" lon="0.26271">
        <ele>1663</ele>
        <time>2013-12-15T09:04:32Z</time>
      </trkpt>
      <trkpt lat="42.85996" lon="0.26266">
        <ele>1665</ele>
        <time>2013-12-15T09:04:45Z</time>
      </trkpt>
      <trkpt lat="42.85998" lon="0.26263">
        <ele>1667</ele>
        <time>2013-12-15T09:04:51Z</time>
      </trkpt>
      <trkpt lat="42.86008" lon="0.26259">
        <ele>1668</ele>
        <time>2013-12-15T09:05:05Z</time>
      </trkpt>
      <trkpt lat="42.86016" lon="0.26253">
        <ele>1670</ele>
        <time>2013-12-15T09:05:20Z</time>
      </trkpt>
      <trkpt lat="42.86023" lon="0.26248">
        <ele>1673</ele>
        <time>2013-12-15T09:05:34Z</time>
      </trkpt>
      <trkpt lat="42.86032" lon="0.2624">
        <ele>1676</ele>
        <time>2013-12-15T09:05:48Z</time>
      </trkpt>
      <trkpt lat="42.86042" lon="0.26232">
        <ele>1677</ele>
        <time>2013-12-15T09:06:03Z</time>
      </trkpt>
      <trkpt lat="42.86049" lon="0.26227">
        <ele>1681</ele>
        <time>2013-12-15T09:06:16Z</time>
      </trkpt>
      <trkpt lat="42.86058" lon="0.2622">
        <ele>1682</ele>
        <time>2013-12-15T09:06:29Z</time>
      </trkpt>
      <trkpt lat="42.86068" lon="0.26215">
        <ele>1684</ele>
        <time>2013-12-15T09:06:43Z</time>
      </trkpt>
      <trkpt lat="42.86077" lon="0.2621">
        <ele>1687</ele>
        <time>2013-12-15T09:06:57Z</time>
      </trkpt>
      <trkpt lat="42.86086" lon="0.26203">
        <ele>1689</ele>
        <time>2013-12-15T09:07:12Z</time>
      </trkpt>
      <trkpt lat="42.86094" lon="0.26199">
        <ele>1691</ele>
        <time>2013-12-15T09:07:25Z</time>
      </trkpt>
      <trkpt lat="42.86104" lon="0.26197">
        <ele>1694</ele>
        <time>2013-12-15T09:07:42Z</time>
      </trkpt>
      <trkpt lat="42.86114" lon="0.26192">
        <ele>1695</ele>
        <time>2013-12-15T09:07:57Z</time>
      </trkpt>
      <trkpt lat="42.86123" lon="0.26188">
        <ele>1698</ele>
        <time>2013-12-15T09:08:11Z</time>
      </trkpt>
      <trkpt lat="42.8613" lon="0.26187">
        <ele>1701</ele>
        <time>2013-12-15T09:08:24Z</time>
      </trkpt>
      <trkpt lat="42.86139" lon="0.26184">
        <ele>1702</ele>
        <time>2013-12-15T09:08:38Z</time>
      </trkpt>
      <trkpt lat="42.86142" lon="0.26183">
        <ele>1704</ele>
        <time>2013-12-15T09:08:42Z</time>
      </trkpt>
      <trkpt lat="42.8615" lon="0.26182">
        <ele>1706</ele>
        <time>2013-12-15T09:08:56Z</time>
      </trkpt>
      <trkpt lat="42.86159" lon="0.2618">
        <ele>1709</ele>
        <time>2013-12-15T09:09:11Z</time>
      </trkpt>
      <trkpt lat="42.86167" lon="0.26178">
        <ele>1711</ele>
        <time>2013-12-15T09:09:23Z</time>
      </trkpt>
      <trkpt lat="42.86173" lon="0.26181">
        <ele>1714</ele>
        <time>2013-12-15T09:09:38Z</time>
      </trkpt>
      <trkpt lat="42.86184" lon="0.26178">
        <ele>1717</ele>
        <time>2013-12-15T09:09:55Z</time>
      </trkpt>
      <trkpt lat="42.8619" lon="0.26179">
        <ele>1718</ele>
        <time>2013-12-15T09:10:06Z</time>
      </trkpt>
      <trkpt lat="42.86195" lon="0.26179">
        <ele>1721</ele>
        <time>2013-12-15T09:10:20Z</time>
      </trkpt>
      <trkpt lat="42.86204" lon="0.26178">
        <ele>1724</ele>
        <time>2013-12-15T09:10:36Z</time>
      </trkpt>
      <trkpt lat="42.86213" lon="0.26182">
        <ele>1728</ele>
        <time>2013-12-15T09:10:51Z</time>
      </trkpt>
      <trkpt lat="42.86222" lon="0.26184">
        <ele>1730</ele>
        <time>2013-12-15T09:11:08Z</time>
      </trkpt>
      <trkpt lat="42.86229" lon="0.26187">
        <ele>1732</ele>
        <time>2013-12-15T09:11:21Z</time>
      </trkpt>
      <trkpt lat="42.86237" lon="0.26188">
        <ele>1734</ele>
        <time>2013-12-15T09:11:34Z</time>
      </trkpt>
      <trkpt lat="42.86243" lon="0.26188">
        <ele>1737</ele>
        <time>2013-12-15T09:11:47Z</time>
      </trkpt>
      <trkpt lat="42.86249" lon="0.26188">
        <ele>1739</ele>
        <time>2013-12-15T09:12:00Z</time>
      </trkpt>
      <trkpt lat="42.8625" lon="0.2619">
        <ele>1739</ele>
        <time>2013-12-15T09:12:02Z</time>
      </trkpt>
      <trkpt lat="42.8625" lon="0.26202">
        <ele>1742</ele>
        <time>2013-12-15T09:12:16Z</time>
      </trkpt>
      <trkpt lat="42.86251" lon="0.26214">
        <ele>1744</ele>
        <time>2013-12-15T09:12:31Z</time>
      </trkpt>
      <trkpt lat="42.86251" lon="0.26215">
        <ele>1745</ele>
        <time>2013-12-15T09:12:33Z</time>
      </trkpt>
      <trkpt lat="42.86252" lon="0.26227">
        <ele>1747</ele>
        <time>2013-12-15T09:12:51Z</time>
      </trkpt>
      <trkpt lat="42.86253" lon="0.26238">
        <ele>1751</ele>
        <time>2013-12-15T09:13:03Z</time>
      </trkpt>
      <trkpt lat="42.86253" lon="0.26249">
        <ele>1753</ele>
        <time>2013-12-15T09:13:19Z</time>
      </trkpt>
      <trkpt lat="42.86264" lon="0.26252">
        <ele>1756</ele>
        <time>2013-12-15T09:13:36Z</time>
      </trkpt>
      <trkpt lat="42.8627" lon="0.26253">
        <ele>1758</ele>
        <time>2013-12-15T09:13:48Z</time>
      </trkpt>
      <trkpt lat="42.86278" lon="0.26257">
        <ele>1760</ele>
        <time>2013-12-15T09:14:04Z</time>
      </trkpt>
      <trkpt lat="42.86286" lon="0.26258">
        <ele>1763</ele>
        <time>2013-12-15T09:14:18Z</time>
      </trkpt>
      <trkpt lat="42.86293" lon="0.26258">
        <ele>1766</ele>
        <time>2013-12-15T09:14:31Z</time>
      </trkpt>
      <trkpt lat="42.86301" lon="0.26258">
        <ele>1768</ele>
        <time>2013-12-15T09:14:44Z</time>
      </trkpt>
      <trkpt lat="42.86307" lon="0.26259">
        <ele>1770</ele>
        <time>2013-12-15T09:14:56Z</time>
      </trkpt>
      <trkpt lat="42.86318" lon="0.2626">
        <ele>1772</ele>
        <time>2013-12-15T09:15:13Z</time>
      </trkpt>
      <trkpt lat="42.86324" lon="0.26259">
        <ele>1775</ele>
        <time>2013-12-15T09:15:26Z</time>
      </trkpt>
      <trkpt lat="42.8633" lon="0.26261">
        <ele>1777</ele>
        <time>2013-12-15T09:15:40Z</time>
      </trkpt>
      <trkpt lat="42.86335" lon="0.26269">
        <ele>1780</ele>
        <time>2013-12-15T09:15:52Z</time>
      </trkpt>
      <trkpt lat="42.86337" lon="0.2628">
        <ele>1782</ele>
        <time>2013-12-15T09:16:06Z</time>
      </trkpt>
      <trkpt lat="42.86339" lon="0.26292">
        <ele>1785</ele>
        <time>2013-12-15T09:16:22Z</time>
      </trkpt>
      <trkpt lat="42.86344" lon="0.263">
        <ele>1788</ele>
        <time>2013-12-15T09:16:37Z</time>
      </trkpt>
      <trkpt lat="42.86348" lon="0.26307">
        <ele>1790</ele>
        <time>2013-12-15T09:16:51Z</time>
      </trkpt>
      <trkpt lat="42.86357" lon="0.26317">
        <ele>1793</ele>
        <time>2013-12-15T09:17:10Z</time>
      </trkpt>
      <trkpt lat="42.86358" lon="0.2633">
        <ele>1795</ele>
        <time>2013-12-15T09:17:23Z</time>
      </trkpt>
      <trkpt lat="42.86361" lon="0.26338">
        <ele>1798</ele>
        <time>2013-12-15T09:17:35Z</time>
      </trkpt>
      <trkpt lat="42.86365" lon="0.26348">
        <ele>1799</ele>
        <time>2013-12-15T09:17:47Z</time>
      </trkpt>
      <trkpt lat="42.86366" lon="0.26357">
        <ele>1801</ele>
        <time>2013-12-15T09:18:01Z</time>
      </trkpt>
      <trkpt lat="42.86369" lon="0.26357">
        <ele>1804</ele>
        <time>2013-12-15T09:18:14Z</time>
      </trkpt>
      <trkpt lat="42.86375" lon="0.26357">
        <ele>1806</ele>
        <time>2013-12-15T09:18:28Z</time>
      </trkpt>
      <trkpt lat="42.86383" lon="0.26357">
        <ele>1810</ele>
        <time>2013-12-15T09:18:43Z</time>
      </trkpt>
      <trkpt lat="42.86387" lon="0.26361">
        <ele>1811</ele>
        <time>2013-12-15T09:18:52Z</time>
      </trkpt>
      <trkpt lat="42.86396" lon="0.2636">
        <ele>1813</ele>
        <time>2013-12-15T09:19:05Z</time>
      </trkpt>
      <trkpt lat="42.86402" lon="0.26361">
        <ele>1816</ele>
        <time>2013-12-15T09:19:18Z</time>
      </trkpt>
      <trkpt lat="42.86409" lon="0.26364">
        <ele>1818</ele>
        <time>2013-12-15T09:19:32Z</time>
      </trkpt>
      <trkpt lat="42.86408" lon="0.26368">
        <ele>1819</ele>
        <time>2013-12-15T09:19:43Z</time>
      </trkpt>
      <trkpt lat="42.86408" lon="0.26378">
        <ele>1821</ele>
        <time>2013-12-15T09:19:55Z</time>
      </trkpt>
      <trkpt lat="42.86406" lon="0.26388">
        <ele>1824</ele>
        <time>2013-12-15T09:20:10Z</time>
      </trkpt>
      <trkpt lat="42.86402" lon="0.26394">
        <ele>1826</ele>
        <time>2013-12-15T09:20:23Z</time>
      </trkpt>
      <trkpt lat="42.86405" lon="0.26396">
        <ele>1827</ele>
        <time>2013-12-15T09:20:34Z</time>
      </trkpt>
      <trkpt lat="42.86414" lon="0.26394">
        <ele>1828</ele>
        <time>2013-12-15T09:20:48Z</time>
      </trkpt>
      <trkpt lat="42.86423" lon="0.26392">
        <ele>1830</ele>
        <time>2013-12-15T09:21:00Z</time>
      </trkpt>
      <trkpt lat="42.86431" lon="0.26389">
        <ele>1832</ele>
        <time>2013-12-15T09:21:15Z</time>
      </trkpt>
      <trkpt lat="42.86432" lon="0.26391">
        <ele>1834</ele>
        <time>2013-12-15T09:21:27Z</time>
      </trkpt>
      <trkpt lat="42.86428" lon="0.26398">
        <ele>1836</ele>
        <time>2013-12-15T09:21:40Z</time>
      </trkpt>
      <trkpt lat="42.86425" lon="0.26403">
        <ele>1836</ele>
        <time>2013-12-15T09:21:50Z</time>
      </trkpt>
      <trkpt lat="42.8643" lon="0.26403">
        <ele>1838</ele>
        <time>2013-12-15T09:22:01Z</time>
      </trkpt>
      <trkpt lat="42.86442" lon="0.26402">
        <ele>1840</ele>
        <time>2013-12-15T09:22:17Z</time>
      </trkpt>
      <trkpt lat="42.8645" lon="0.264">
        <ele>1842</ele>
        <time>2013-12-15T09:22:33Z</time>
      </trkpt>
      <trkpt lat="42.86458" lon="0.26401">
        <ele>1844</ele>
        <time>2013-12-15T09:22:46Z</time>
      </trkpt>
      <trkpt lat="42.86468" lon="0.264">
        <ele>1847</ele>
        <time>2013-12-15T09:23:02Z</time>
      </trkpt>
      <trkpt lat="42.86475" lon="0.26397">
        <ele>1849</ele>
        <time>2013-12-15T09:23:17Z</time>
      </trkpt>
      <trkpt lat="42.86482" lon="0.26397">
        <ele>1851</ele>
        <time>2013-12-15T09:23:31Z</time>
      </trkpt>
      <trkpt lat="42.86481" lon="0.26401">
        <ele>1853</ele>
        <time>2013-12-15T09:23:44Z</time>
      </trkpt>
      <trkpt lat="42.86479" lon="0.26409">
        <ele>1855</ele>
        <time>2013-12-15T09:23:57Z</time>
      </trkpt>
      <trkpt lat="42.8648" lon="0.26409">
        <ele>1855</ele>
        <time>2013-12-15T09:24:08Z</time>
      </trkpt>
      <trkpt lat="42.86491" lon="0.2641">
        <ele>1859</ele>
        <time>2013-12-15T09:24:25Z</time>
      </trkpt>
      <trkpt lat="42.86498" lon="0.26412">
        <ele>1861</ele>
        <time>2013-12-15T09:24:38Z</time>
      </trkpt>
      <trkpt lat="42.86505" lon="0.26411">
        <ele>1864</ele>
        <time>2013-12-15T09:24:55Z</time>
      </trkpt>
      <trkpt lat="42.86515" lon="0.26413">
        <ele>1867</ele>
        <time>2013-12-15T09:25:10Z</time>
      </trkpt>
      <trkpt lat="42.86523" lon="0.26415">
        <ele>1870</ele>
        <time>2013-12-15T09:25:27Z</time>
      </trkpt>
      <trkpt lat="42.8653" lon="0.26417">
        <ele>1872</ele>
        <time>2013-12-15T09:25:42Z</time>
      </trkpt>
      <trkpt lat="42.86539" lon="0.26416">
        <ele>1874</ele>
        <time>2013-12-15T09:25:56Z</time>
      </trkpt>
      <trkpt lat="42.86551" lon="0.26411">
        <ele>1876</ele>
        <time>2013-12-15T09:26:12Z</time>
      </trkpt>
      <trkpt lat="42.86558" lon="0.26401">
        <ele>1879</ele>
        <time>2013-12-15T09:26:26Z</time>
      </trkpt>
      <trkpt lat="42.86564" lon="0.26394">
        <ele>1881</ele>
        <time>2013-12-15T09:26:41Z</time>
      </trkpt>
      <trkpt lat="42.86572" lon="0.26392">
        <ele>1885</ele>
        <time>2013-12-15T09:26:56Z</time>
      </trkpt>
      <trkpt lat="42.86582" lon="0.26389">
        <ele>1887</ele>
        <time>2013-12-15T09:27:13Z</time>
      </trkpt>
      <trkpt lat="42.86589" lon="0.26383">
        <ele>1888</ele>
        <time>2013-12-15T09:27:27Z</time>
      </trkpt>
      <trkpt lat="42.86594" lon="0.26372">
        <ele>1891</ele>
        <time>2013-12-15T09:27:43Z</time>
      </trkpt>
      <trkpt lat="42.86599" lon="0.26365">
        <ele>1892</ele>
        <time>2013-12-15T09:27:55Z</time>
      </trkpt>
      <trkpt lat="42.86605" lon="0.2636">
        <ele>1895</ele>
        <time>2013-12-15T09:28:11Z</time>
      </trkpt>
      <trkpt lat="42.86612" lon="0.26354">
        <ele>1898</ele>
        <time>2013-12-15T09:28:25Z</time>
      </trkpt>
      <trkpt lat="42.86616" lon="0.26344">
        <ele>1901</ele>
        <time>2013-12-15T09:28:40Z</time>
      </trkpt>
      <trkpt lat="42.86623" lon="0.26336">
        <ele>1903</ele>
        <time>2013-12-15T09:28:56Z</time>
      </trkpt>
      <trkpt lat="42.86628" lon="0.26332">
        <ele>1905</ele>
        <time>2013-12-15T09:29:10Z</time>
      </trkpt>
      <trkpt lat="42.86634" lon="0.26331">
        <ele>1909</ele>
        <time>2013-12-15T09:29:23Z</time>
      </trkpt>
      <trkpt lat="42.8664" lon="0.26332">
        <ele>1910</ele>
        <time>2013-12-15T09:29:37Z</time>
      </trkpt>
      <trkpt lat="42.86646" lon="0.26332">
        <ele>1913</ele>
        <time>2013-12-15T09:29:51Z</time>
      </trkpt>
      <trkpt lat="42.86652" lon="0.2633">
        <ele>1915</ele>
        <time>2013-12-15T09:30:04Z</time>
      </trkpt>
      <trkpt lat="42.86651" lon="0.26325">
        <ele>1917</ele>
        <time>2013-12-15T09:30:16Z</time>
      </trkpt>
      <trkpt lat="42.86657" lon="0.26324">
        <ele>1920</ele>
        <time>2013-12-15T09:30:30Z</time>
      </trkpt>
      <trkpt lat="42.86659" lon="0.26324">
        <ele>1920</ele>
        <time>2013-12-15T09:30:41Z</time>
      </trkpt>
      <trkpt lat="42.86661" lon="0.26313">
        <ele>1923</ele>
        <time>2013-12-15T09:30:55Z</time>
      </trkpt>
      <trkpt lat="42.86662" lon="0.26307">
        <ele>1926</ele>
        <time>2013-12-15T09:31:06Z</time>
      </trkpt>
      <trkpt lat="42.86669" lon="0.26305">
        <ele>1928</ele>
        <time>2013-12-15T09:31:19Z</time>
      </trkpt>
      <trkpt lat="42.86673" lon="0.26302">
        <ele>1930</ele>
        <time>2013-12-15T09:31:32Z</time>
      </trkpt>
      <trkpt lat="42.86674" lon="0.26293">
        <ele>1932</ele>
        <time>2013-12-15T09:31:46Z</time>
      </trkpt>
      <trkpt lat="42.86673" lon="0.26281">
        <ele>1935</ele>
        <time>2013-12-15T09:32:01Z</time>
      </trkpt>
      <trkpt lat="42.86671" lon="0.26271">
        <ele>1937</ele>
        <time>2013-12-15T09:32:15Z</time>
      </trkpt>
      <trkpt lat="42.86671" lon="0.26259">
        <ele>1940</ele>
        <time>2013-12-15T09:32:31Z</time>
      </trkpt>
      <trkpt lat="42.86674" lon="0.26253">
        <ele>1942</ele>
        <time>2013-12-15T09:32:43Z</time>
      </trkpt>
      <trkpt lat="42.86684" lon="0.26255">
        <ele>1945</ele>
        <time>2013-12-15T09:33:01Z</time>
      </trkpt>
      <trkpt lat="42.86694" lon="0.26255">
        <ele>1947</ele>
        <time>2013-12-15T09:33:18Z</time>
      </trkpt>
      <trkpt lat="42.86705" lon="0.26255">
        <ele>1950</ele>
        <time>2013-12-15T09:33:34Z</time>
      </trkpt>
      <trkpt lat="42.86713" lon="0.26256">
        <ele>1952</ele>
        <time>2013-12-15T09:33:47Z</time>
      </trkpt>
      <trkpt lat="42.86719" lon="0.26259">
        <ele>1955</ele>
        <time>2013-12-15T09:34:01Z</time>
      </trkpt>
      <trkpt lat="42.86728" lon="0.26259">
        <ele>1956</ele>
        <time>2013-12-15T09:34:14Z</time>
      </trkpt>
      <trkpt lat="42.86733" lon="0.26255">
        <ele>1959</ele>
        <time>2013-12-15T09:34:29Z</time>
      </trkpt>
      <trkpt lat="42.86745" lon="0.2625">
        <ele>1963</ele>
        <time>2013-12-15T09:34:47Z</time>
      </trkpt>
      <trkpt lat="42.86751" lon="0.26247">
        <ele>1964</ele>
        <time>2013-12-15T09:34:59Z</time>
      </trkpt>
      <trkpt lat="42.86758" lon="0.26243">
        <ele>1966</ele>
        <time>2013-12-15T09:35:13Z</time>
      </trkpt>
      <trkpt lat="42.86766" lon="0.26241">
        <ele>1968</ele>
        <time>2013-12-15T09:35:29Z</time>
      </trkpt>
      <trkpt lat="42.86774" lon="0.26239">
        <ele>1971</ele>
        <time>2013-12-15T09:35:42Z</time>
      </trkpt>
      <trkpt lat="42.8678" lon="0.26232">
        <ele>1973</ele>
        <time>2013-12-15T09:35:57Z</time>
      </trkpt>
      <trkpt lat="42.86785" lon="0.26227">
        <ele>1976</ele>
        <time>2013-12-15T09:36:10Z</time>
      </trkpt>
      <trkpt lat="42.86791" lon="0.26219">
        <ele>1979</ele>
        <time>2013-12-15T09:36:24Z</time>
      </trkpt>
      <trkpt lat="42.86798" lon="0.26212">
        <ele>1981</ele>
        <time>2013-12-15T09:36:37Z</time>
      </trkpt>
      <trkpt lat="42.86801" lon="0.2621">
        <ele>1982</ele>
        <time>2013-12-15T09:36:50Z</time>
      </trkpt>
      <trkpt lat="42.86807" lon="0.26203">
        <ele>1983</ele>
        <time>2013-12-15T09:37:06Z</time>
      </trkpt>
      <trkpt lat="42.86811" lon="0.26197">
        <ele>1987</ele>
        <time>2013-12-15T09:37:19Z</time>
      </trkpt>
      <trkpt lat="42.86812" lon="0.26187">
        <ele>1989</ele>
        <time>2013-12-15T09:37:33Z</time>
      </trkpt>
      <trkpt lat="42.86819" lon="0.26182">
        <ele>1991</ele>
        <time>2013-12-15T09:37:48Z</time>
      </trkpt>
      <trkpt lat="42.86827" lon="0.26175">
        <ele>1995</ele>
        <time>2013-12-15T09:38:05Z</time>
      </trkpt>
      <trkpt lat="42.86831" lon="0.26166">
        <ele>1997</ele>
        <time>2013-12-15T09:38:18Z</time>
      </trkpt>
      <trkpt lat="42.86835" lon="0.2616">
        <ele>1999</ele>
        <time>2013-12-15T09:38:31Z</time>
      </trkpt>
      <trkpt lat="42.8684" lon="0.26157">
        <ele>2001</ele>
        <time>2013-12-15T09:38:43Z</time>
      </trkpt>
      <trkpt lat="42.86844" lon="0.26149">
        <ele>2003</ele>
        <time>2013-12-15T09:38:56Z</time>
      </trkpt>
      <trkpt lat="42.8685" lon="0.2614">
        <ele>2005</ele>
        <time>2013-12-15T09:39:10Z</time>
      </trkpt>
      <trkpt lat="42.86853" lon="0.26134">
        <ele>2008</ele>
        <time>2013-12-15T09:39:24Z</time>
      </trkpt>
      <trkpt lat="42.86862" lon="0.26126">
        <ele>2010</ele>
        <time>2013-12-15T09:39:38Z</time>
      </trkpt>
      <trkpt lat="42.86868" lon="0.26121">
        <ele>2012</ele>
        <time>2013-12-15T09:39:53Z</time>
      </trkpt>
      <trkpt lat="42.86874" lon="0.26114">
        <ele>2015</ele>
        <time>2013-12-15T09:40:08Z</time>
      </trkpt>
      <trkpt lat="42.86883" lon="0.26104">
        <ele>2017</ele>
        <time>2013-12-15T09:40:26Z</time>
      </trkpt>
      <trkpt lat="42.86887" lon="0.26102">
        <ele>2020</ele>
        <time>2013-12-15T09:40:38Z</time>
      </trkpt>
      <trkpt lat="42.8689" lon="0.261">
        <ele>2023</ele>
        <time>2013-12-15T09:40:51Z</time>
      </trkpt>
      <trkpt lat="42.86895" lon="0.26096">
        <ele>2025</ele>
        <time>2013-12-15T09:41:06Z</time>
      </trkpt>
      <trkpt lat="42.86895" lon="0.26096">
        <ele>2025</ele>
        <time>2013-12-15T09:41:32Z</time>
      </trkpt>
      <trkpt lat="42.86899" lon="0.26091">
        <ele>2026</ele>
        <time>2013-12-15T09:41:56Z</time>
      </trkpt>
      <trkpt lat="42.86905" lon="0.26086">
        <ele>2028</ele>
        <time>2013-12-15T09:42:07Z</time>
      </trkpt>
      <trkpt lat="42.86907" lon="0.26081">
        <ele>2030</ele>
        <time>2013-12-15T09:42:20Z</time>
      </trkpt>
      <trkpt lat="42.86914" lon="0.26077">
        <ele>2033</ele>
        <time>2013-12-15T09:42:33Z</time>
      </trkpt>
      <trkpt lat="42.8692" lon="0.2607">
        <ele>2035</ele>
        <time>2013-12-15T09:42:47Z</time>
      </trkpt>
      <trkpt lat="42.86928" lon="0.26064">
        <ele>2038</ele>
        <time>2013-12-15T09:43:02Z</time>
      </trkpt>
      <trkpt lat="42.86935" lon="0.26065">
        <ele>2040</ele>
        <time>2013-12-15T09:43:15Z</time>
      </trkpt>
      <trkpt lat="42.86941" lon="0.26063">
        <ele>2042</ele>
        <time>2013-12-15T09:43:31Z</time>
      </trkpt>
      <trkpt lat="42.86944" lon="0.26052">
        <ele>2045</ele>
        <time>2013-12-15T09:43:45Z</time>
      </trkpt>
      <trkpt lat="42.86949" lon="0.2605">
        <ele>2047</ele>
        <time>2013-12-15T09:43:57Z</time>
      </trkpt>
      <trkpt lat="42.86953" lon="0.26047">
        <ele>2049</ele>
        <time>2013-12-15T09:44:07Z</time>
      </trkpt>
      <trkpt lat="42.86953" lon="0.26042">
        <ele>2051</ele>
        <time>2013-12-15T09:44:16Z</time>
      </trkpt>
      <trkpt lat="42.86953" lon="0.26034">
        <ele>2053</ele>
        <time>2013-12-15T09:44:31Z</time>
      </trkpt>
      <trkpt lat="42.86955" lon="0.26022">
        <ele>2056</ele>
        <time>2013-12-15T09:44:46Z</time>
      </trkpt>
      <trkpt lat="42.86959" lon="0.26013">
        <ele>2059</ele>
        <time>2013-12-15T09:45:00Z</time>
      </trkpt>
      <trkpt lat="42.86965" lon="0.26001">
        <ele>2061</ele>
        <time>2013-12-15T09:45:18Z</time>
      </trkpt>
      <trkpt lat="42.86972" lon="0.25993">
        <ele>2064</ele>
        <time>2013-12-15T09:45:33Z</time>
      </trkpt>
      <trkpt lat="42.86977" lon="0.25992">
        <ele>2065</ele>
        <time>2013-12-15T09:45:44Z</time>
      </trkpt>
      <trkpt lat="42.86984" lon="0.25994">
        <ele>2068</ele>
        <time>2013-12-15T09:45:59Z</time>
      </trkpt>
      <trkpt lat="42.86987" lon="0.25993">
        <ele>2069</ele>
        <time>2013-12-15T09:46:11Z</time>
      </trkpt>
      <trkpt lat="42.8699" lon="0.25983">
        <ele>2073</ele>
        <time>2013-12-15T09:46:27Z</time>
      </trkpt>
      <trkpt lat="42.86995" lon="0.25973">
        <ele>2075</ele>
        <time>2013-12-15T09:46:43Z</time>
      </trkpt>
      <trkpt lat="42.87002" lon="0.25974">
        <ele>2077</ele>
        <time>2013-12-15T09:46:57Z</time>
      </trkpt>
      <trkpt lat="42.87009" lon="0.25975">
        <ele>2079</ele>
        <time>2013-12-15T09:47:09Z</time>
      </trkpt>
      <trkpt lat="42.87017" lon="0.25975">
        <ele>2081</ele>
        <time>2013-12-15T09:47:23Z</time>
      </trkpt>
      <trkpt lat="42.87021" lon="0.25977">
        <ele>2082</ele>
        <time>2013-12-15T09:47:35Z</time>
      </trkpt>
      <trkpt lat="42.87026" lon="0.25978">
        <ele>2084</ele>
        <time>2013-12-15T09:47:41Z</time>
      </trkpt>
      <trkpt lat="42.87031" lon="0.2598">
        <ele>2086</ele>
        <time>2013-12-15T09:47:56Z</time>
      </trkpt>
      <trkpt lat="42.87033" lon="0.25982">
        <ele>2088</ele>
        <time>2013-12-15T09:48:08Z</time>
      </trkpt>
      <trkpt lat="42.87038" lon="0.25981">
        <ele>2091</ele>
        <time>2013-12-15T09:48:24Z</time>
      </trkpt>
      <trkpt lat="42.87042" lon="0.25979">
        <ele>2092</ele>
        <time>2013-12-15T09:48:39Z</time>
      </trkpt>
      <trkpt lat="42.87046" lon="0.25977">
        <ele>2095</ele>
        <time>2013-12-15T09:48:52Z</time>
      </trkpt>
      <trkpt lat="42.87051" lon="0.25976">
        <ele>2097</ele>
        <time>2013-12-15T09:49:06Z</time>
      </trkpt>
      <trkpt lat="42.87054" lon="0.25976">
        <ele>2099</ele>
        <time>2013-12-15T09:49:20Z</time>
      </trkpt>
      <trkpt lat="42.87059" lon="0.25974">
        <ele>2101</ele>
        <time>2013-12-15T09:49:32Z</time>
      </trkpt>
      <trkpt lat="42.87062" lon="0.25963">
        <ele>2103</ele>
        <time>2013-12-15T09:49:46Z</time>
      </trkpt>
      <trkpt lat="42.87068" lon="0.25957">
        <ele>2106</ele>
        <time>2013-12-15T09:50:02Z</time>
      </trkpt>
      <trkpt lat="42.87073" lon="0.25952">
        <ele>2108</ele>
        <time>2013-12-15T09:50:17Z</time>
      </trkpt>
      <trkpt lat="42.87077" lon="0.25945">
        <ele>2111</ele>
        <time>2013-12-15T09:50:32Z</time>
      </trkpt>
      <trkpt lat="42.87081" lon="0.25941">
        <ele>2114</ele>
        <time>2013-12-15T09:50:48Z</time>
      </trkpt>
      <trkpt lat="42.87088" lon="0.25943">
        <ele>2116</ele>
        <time>2013-12-15T09:51:02Z</time>
      </trkpt>
      <trkpt lat="42.87098" lon="0.25947">
        <ele>2118</ele>
        <time>2013-12-15T09:51:19Z</time>
      </trkpt>
      <trkpt lat="42.87103" lon="0.25952">
        <ele>2120</ele>
        <time>2013-12-15T09:51:34Z</time>
      </trkpt>
      <trkpt lat="42.87107" lon="0.25957">
        <ele>2122</ele>
        <time>2013-12-15T09:51:47Z</time>
      </trkpt>
      <trkpt lat="42.8711" lon="0.25963">
        <ele>2125</ele>
        <time>2013-12-15T09:52:03Z</time>
      </trkpt>
      <trkpt lat="42.87116" lon="0.25967">
        <ele>2128</ele>
        <time>2013-12-15T09:52:19Z</time>
      </trkpt>
      <trkpt lat="42.87121" lon="0.25974">
        <ele>2131</ele>
        <time>2013-12-15T09:52:36Z</time>
      </trkpt>
      <trkpt lat="42.87123" lon="0.25986">
        <ele>2133</ele>
        <time>2013-12-15T09:52:53Z</time>
      </trkpt>
      <trkpt lat="42.87124" lon="0.25995">
        <ele>2136</ele>
        <time>2013-12-15T09:53:06Z</time>
      </trkpt>
      <trkpt lat="42.87127" lon="0.25996">
        <ele>2139</ele>
        <time>2013-12-15T09:53:20Z</time>
      </trkpt>
      <trkpt lat="42.87134" lon="0.25994">
        <ele>2141</ele>
        <time>2013-12-15T09:53:33Z</time>
      </trkpt>
      <trkpt lat="42.87142" lon="0.25994">
        <ele>2143</ele>
        <time>2013-12-15T09:53:51Z</time>
      </trkpt>
      <trkpt lat="42.87144" lon="0.25991">
        <ele>2144</ele>
        <time>2013-12-15T09:54:11Z</time>
      </trkpt>
      <trkpt lat="42.87145" lon="0.25991">
        <ele>2144</ele>
        <time>2013-12-15T09:54:28Z</time>
      </trkpt>
      <trkpt lat="42.87144" lon="0.25993">
        <ele>2143</ele>
        <time>2013-12-15T09:54:41Z</time>
      </trkpt>
      <trkpt lat="42.87145" lon="0.25993">
        <ele>2143</ele>
        <time>2013-12-15T09:55:03Z</time>
      </trkpt>
      <trkpt lat="42.87148" lon="0.25989">
        <ele>2144</ele>
        <time>2013-12-15T09:55:34Z</time>
      </trkpt>
      <trkpt lat="42.87147" lon="0.25986">
        <ele>2143</ele>
        <time>2013-12-15T09:56:07Z</time>
      </trkpt>
      <trkpt lat="42.87149" lon="0.25989">
        <ele>2143</ele>
        <time>2013-12-15T09:56:32Z</time>
      </trkpt>
      <trkpt lat="42.8715" lon="0.25986">
        <ele>2144</ele>
        <time>2013-12-15T09:56:56Z</time>
      </trkpt>
      <trkpt lat="42.87147" lon="0.25992">
        <ele>2144</ele>
        <time>2013-12-15T09:57:34Z</time>
      </trkpt>
      <trkpt lat="42.87144" lon="0.25987">
        <ele>2144</ele>
        <time>2013-12-15T09:58:05Z</time>
      </trkpt>
      <trkpt lat="42.87144" lon="0.25989">
        <ele>2144</ele>
        <time>2013-12-15T09:58:30Z</time>
      </trkpt>
      <trkpt lat="42.87144" lon="0.25991">
        <ele>2144</ele>
        <time>2013-12-15T09:58:59Z</time>
      </trkpt>
      <trkpt lat="42.87145" lon="0.25996">
        <ele>2144</ele>
        <time>2013-12-15T09:59:21Z</time>
      </trkpt>
      <trkpt lat="42.87145" lon="0.25997">
        <ele>2144</ele>
        <time>2013-12-15T09:59:39Z</time>
      </trkpt>
      <trkpt lat="42.87147" lon="0.25994">
        <ele>2145</ele>
        <time>2013-12-15T10:00:00Z</time>
      </trkpt>
      <trkpt lat="42.87148" lon="0.25994">
        <ele>2144</ele>
        <time>2013-12-15T10:00:31Z</time>
      </trkpt>
      <trkpt lat="42.8715" lon="0.25993">
        <ele>2145</ele>
        <time>2013-12-15T10:00:44Z</time>
      </trkpt>
      <trkpt lat="42.87152" lon="0.25996">
        <ele>2145</ele>
        <time>2013-12-15T10:00:59Z</time>
      </trkpt>
      <trkpt lat="42.87152" lon="0.25993">
        <ele>2146</ele>
        <time>2013-12-15T10:01:17Z</time>
      </trkpt>
      <trkpt lat="42.87151" lon="0.25996">
        <ele>2146</ele>
        <time>2013-12-15T10:01:25Z</time>
      </trkpt>
      <trkpt lat="42.8715" lon="0.26001">
        <ele>2147</ele>
        <time>2013-12-15T10:01:37Z</time>
      </trkpt>
      <trkpt lat="42.87149" lon="0.26003">
        <ele>2149</ele>
        <time>2013-12-15T10:01:51Z</time>
      </trkpt>
      <trkpt lat="42.87152" lon="0.26008">
        <ele>2151</ele>
        <time>2013-12-15T10:02:04Z</time>
      </trkpt>
      <trkpt lat="42.87153" lon="0.26011">
        <ele>2153</ele>
        <time>2013-12-15T10:02:17Z</time>
      </trkpt>
      <trkpt lat="42.87153" lon="0.26018">
        <ele>2155</ele>
        <time>2013-12-15T10:02:31Z</time>
      </trkpt>
      <trkpt lat="42.87155" lon="0.2602">
        <ele>2157</ele>
        <time>2013-12-15T10:02:45Z</time>
      </trkpt>
      <trkpt lat="42.87157" lon="0.26022">
        <ele>2159</ele>
        <time>2013-12-15T10:02:59Z</time>
      </trkpt>
      <trkpt lat="42.87159" lon="0.26027">
        <ele>2161</ele>
        <time>2013-12-15T10:03:16Z</time>
      </trkpt>
      <trkpt lat="42.87156" lon="0.2603">
        <ele>2164</ele>
        <time>2013-12-15T10:03:31Z</time>
      </trkpt>
      <trkpt lat="42.87152" lon="0.26037">
        <ele>2165</ele>
        <time>2013-12-15T10:03:46Z</time>
      </trkpt>
      <trkpt lat="42.87153" lon="0.26043">
        <ele>2168</ele>
        <time>2013-12-15T10:04:03Z</time>
      </trkpt>
      <trkpt lat="42.87155" lon="0.26045">
        <ele>2169</ele>
        <time>2013-12-15T10:04:18Z</time>
      </trkpt>
      <trkpt lat="42.87154" lon="0.26045">
        <ele>2171</ele>
        <time>2013-12-15T10:04:22Z</time>
      </trkpt>
      <trkpt lat="42.87148" lon="0.26048">
        <ele>2173</ele>
        <time>2013-12-15T10:04:36Z</time>
      </trkpt>
      <trkpt lat="42.87148" lon="0.26053">
        <ele>2175</ele>
        <time>2013-12-15T10:04:49Z</time>
      </trkpt>
      <trkpt lat="42.8715" lon="0.26056">
        <ele>2177</ele>
        <time>2013-12-15T10:05:01Z</time>
      </trkpt>
      <trkpt lat="42.87149" lon="0.26059">
        <ele>2178</ele>
        <time>2013-12-15T10:05:15Z</time>
      </trkpt>
      <trkpt lat="42.87151" lon="0.2606">
        <ele>2180</ele>
        <time>2013-12-15T10:05:30Z</time>
      </trkpt>
      <trkpt lat="42.87151" lon="0.26063">
        <ele>2182</ele>
        <time>2013-12-15T10:05:42Z</time>
      </trkpt>
      <trkpt lat="42.87152" lon="0.26063">
        <ele>2184</ele>
        <time>2013-12-15T10:05:54Z</time>
      </trkpt>
      <trkpt lat="42.87152" lon="0.26067">
        <ele>2185</ele>
        <time>2013-12-15T10:06:08Z</time>
      </trkpt>
      <trkpt lat="42.87152" lon="0.26067">
        <ele>2187</ele>
        <time>2013-12-15T10:06:19Z</time>
      </trkpt>
      <trkpt lat="42.87154" lon="0.26069">
        <ele>2188</ele>
        <time>2013-12-15T10:06:33Z</time>
      </trkpt>
      <trkpt lat="42.87153" lon="0.26072">
        <ele>2190</ele>
        <time>2013-12-15T10:06:47Z</time>
      </trkpt>
      <trkpt lat="42.87154" lon="0.26075">
        <ele>2192</ele>
        <time>2013-12-15T10:07:01Z</time>
      </trkpt>
      <trkpt lat="42.87155" lon="0.26079">
        <ele>2195</ele>
        <time>2013-12-15T10:07:16Z</time>
      </trkpt>
      <trkpt lat="42.87156" lon="0.26081">
        <ele>2197</ele>
        <time>2013-12-15T10:07:30Z</time>
      </trkpt>
      <trkpt lat="42.87154" lon="0.26086">
        <ele>2201</ele>
        <time>2013-12-15T10:07:46Z</time>
      </trkpt>
      <trkpt lat="42.87154" lon="0.2609">
        <ele>2203</ele>
        <time>2013-12-15T10:08:00Z</time>
      </trkpt>
      <trkpt lat="42.87159" lon="0.26091">
        <ele>2204</ele>
        <time>2013-12-15T10:08:13Z</time>
      </trkpt>
      <trkpt lat="42.87157" lon="0.26102">
        <ele>2206</ele>
        <time>2013-12-15T10:08:29Z</time>
      </trkpt>
      <trkpt lat="42.87153" lon="0.26106">
        <ele>2209</ele>
        <time>2013-12-15T10:08:45Z</time>
      </trkpt>
      <trkpt lat="42.87148" lon="0.26112">
        <ele>2210</ele>
        <time>2013-12-15T10:09:01Z</time>
      </trkpt>
      <trkpt lat="42.87146" lon="0.26121">
        <ele>2211</ele>
        <time>2013-12-15T10:09:16Z</time>
      </trkpt>
      <trkpt lat="42.87145" lon="0.26128">
        <ele>2214</ele>
        <time>2013-12-15T10:09:30Z</time>
      </trkpt>
      <trkpt lat="42.87146" lon="0.26136">
        <ele>2216</ele>
        <time>2013-12-15T10:09:46Z</time>
      </trkpt>
      <trkpt lat="42.87146" lon="0.26142">
        <ele>2218</ele>
        <time>2013-12-15T10:09:59Z</time>
      </trkpt>
      <trkpt lat="42.87147" lon="0.26147">
        <ele>2220</ele>
        <time>2013-12-15T10:10:13Z</time>
      </trkpt>
      <trkpt lat="42.87146" lon="0.26156">
        <ele>2223</ele>
        <time>2013-12-15T10:10:29Z</time>
      </trkpt>
      <trkpt lat="42.87147" lon="0.26163">
        <ele>2226</ele>
        <time>2013-12-15T10:10:45Z</time>
      </trkpt>
      <trkpt lat="42.87147" lon="0.26169">
        <ele>2228</ele>
        <time>2013-12-15T10:11:00Z</time>
      </trkpt>
      <trkpt lat="42.87146" lon="0.26174">
        <ele>2230</ele>
        <time>2013-12-15T10:11:15Z</time>
      </trkpt>
      <trkpt lat="42.87146" lon="0.26176">
        <ele>2232</ele>
        <time>2013-12-15T10:11:30Z</time>
      </trkpt>
      <trkpt lat="42.87145" lon="0.26179">
        <ele>2234</ele>
        <time>2013-12-15T10:11:46Z</time>
      </trkpt>
      <trkpt lat="42.87146" lon="0.2618">
        <ele>2234</ele>
        <time>2013-12-15T10:12:00Z</time>
      </trkpt>
      <trkpt lat="42.87146" lon="0.26185">
        <ele>2236</ele>
        <time>2013-12-15T10:12:14Z</time>
      </trkpt>
      <trkpt lat="42.87146" lon="0.26187">
        <ele>2236</ele>
        <time>2013-12-15T10:12:28Z</time>
      </trkpt>
      <trkpt lat="42.87145" lon="0.2619">
        <ele>2239</ele>
        <time>2013-12-15T10:12:41Z</time>
      </trkpt>
      <trkpt lat="42.87144" lon="0.26196">
        <ele>2240</ele>
        <time>2013-12-15T10:12:56Z</time>
      </trkpt>
      <trkpt lat="42.87143" lon="0.26201">
        <ele>2243</ele>
        <time>2013-12-15T10:13:10Z</time>
      </trkpt>
      <trkpt lat="42.87141" lon="0.2621">
        <ele>2245</ele>
        <time>2013-12-15T10:13:25Z</time>
      </trkpt>
      <trkpt lat="42.87138" lon="0.26219">
        <ele>2247</ele>
        <time>2013-12-15T10:13:40Z</time>
      </trkpt>
      <trkpt lat="42.87139" lon="0.26222">
        <ele>2248</ele>
        <time>2013-12-15T10:13:55Z</time>
      </trkpt>
      <trkpt lat="42.87137" lon="0.26223">
        <ele>2249</ele>
        <time>2013-12-15T10:14:12Z</time>
      </trkpt>
      <trkpt lat="42.87138" lon="0.26223">
        <ele>2248</ele>
        <time>2013-12-15T10:14:28Z</time>
      </trkpt>
      <trkpt lat="42.87138" lon="0.26223">
        <ele>2248</ele>
        <time>2013-12-15T10:14:56Z</time>
      </trkpt>
      <trkpt lat="42.87139" lon="0.26223">
        <ele>2249</ele>
        <time>2013-12-15T10:15:25Z</time>
      </trkpt>
      <trkpt lat="42.87139" lon="0.26225">
        <ele>2249</ele>
        <time>2013-12-15T10:15:57Z</time>
      </trkpt>
      <trkpt lat="42.8714" lon="0.26225">
        <ele>2249</ele>
        <time>2013-12-15T10:16:21Z</time>
      </trkpt>
      <trkpt lat="42.87139" lon="0.26224">
        <ele>2249</ele>
        <time>2013-12-15T10:16:41Z</time>
      </trkpt>
      <trkpt lat="42.8714" lon="0.26224">
        <ele>2249</ele>
        <time>2013-12-15T10:17:09Z</time>
      </trkpt>
      <trkpt lat="42.87139" lon="0.26225">
        <ele>2249</ele>
        <time>2013-12-15T10:17:23Z</time>
      </trkpt>
      <trkpt lat="42.87137" lon="0.26223">
        <ele>2249</ele>
        <time>2013-12-15T10:17:55Z</time>
      </trkpt>
      <trkpt lat="42.87138" lon="0.26224">
        <ele>2249</ele>
        <time>2013-12-15T10:18:23Z</time>
      </trkpt>
      <trkpt lat="42.8714" lon="0.26224">
        <ele>2249</ele>
        <time>2013-12-15T10:18:46Z</time>
      </trkpt>
      <trkpt lat="42.87139" lon="0.26224">
        <ele>2249</ele>
        <time>2013-12-15T10:19:19Z</time>
      </trkpt>
      <trkpt lat="42.87139" lon="0.26223">
        <ele>2250</ele>
        <time>2013-12-15T10:19:39Z</time>
      </trkpt>
      <trkpt lat="42.87139" lon="0.26223">
        <ele>2250</ele>
        <time>2013-12-15T10:20:03Z</time>
      </trkpt>
      <trkpt lat="42.87139" lon="0.26223">
        <ele>2250</ele>
        <time>2013-12-15T10:20:23Z</time>
      </trkpt>
      <trkpt lat="42.87139" lon="0.26224">
        <ele>2251</ele>
        <time>2013-12-15T10:20:37Z</time>
      </trkpt>
      <trkpt lat="42.87139" lon="0.26224">
        <ele>2251</ele>
        <time>2013-12-15T10:20:52Z</time>
      </trkpt>
      <trkpt lat="42.87141" lon="0.26222">
        <ele>2251</ele>
        <time>2013-12-15T10:21:06Z</time>
      </trkpt>
      <trkpt lat="42.87142" lon="0.2622">
        <ele>2251</ele>
        <time>2013-12-15T10:21:23Z</time>
      </trkpt>
      <trkpt lat="42.87142" lon="0.26221">
        <ele>2252</ele>
        <time>2013-12-15T10:21:40Z</time>
      </trkpt>
      <trkpt lat="42.87143" lon="0.2622">
        <ele>2252</ele>
        <time>2013-12-15T10:21:59Z</time>
      </trkpt>
      <trkpt lat="42.87152" lon="0.26215">
        <ele>2253</ele>
        <time>2013-12-15T10:22:15Z</time>
      </trkpt>
      <trkpt lat="42.87154" lon="0.26214">
        <ele>2254</ele>
        <time>2013-12-15T10:22:17Z</time>
      </trkpt>
      <trkpt lat="42.87161" lon="0.26211">
        <ele>2257</ele>
        <time>2013-12-15T10:22:32Z</time>
      </trkpt>
      <trkpt lat="42.87167" lon="0.26208">
        <ele>2260</ele>
        <time>2013-12-15T10:22:45Z</time>
      </trkpt>
      <trkpt lat="42.87169" lon="0.26214">
        <ele>2261</ele>
        <time>2013-12-15T10:22:58Z</time>
      </trkpt>
      <trkpt lat="42.87169" lon="0.26222">
        <ele>2264</ele>
        <time>2013-12-15T10:23:10Z</time>
      </trkpt>
      <trkpt lat="42.87169" lon="0.26229">
        <ele>2266</ele>
        <time>2013-12-15T10:23:23Z</time>
      </trkpt>
      <trkpt lat="42.87168" lon="0.26238">
        <ele>2268</ele>
        <time>2013-12-15T10:23:37Z</time>
      </trkpt>
      <trkpt lat="42.87167" lon="0.26245">
        <ele>2271</ele>
        <time>2013-12-15T10:23:49Z</time>
      </trkpt>
      <trkpt lat="42.87165" lon="0.26255">
        <ele>2272</ele>
        <time>2013-12-15T10:24:03Z</time>
      </trkpt>
      <trkpt lat="42.87171" lon="0.26256">
        <ele>2275</ele>
        <time>2013-12-15T10:24:17Z</time>
      </trkpt>
      <trkpt lat="42.87178" lon="0.26258">
        <ele>2278</ele>
        <time>2013-12-15T10:24:33Z</time>
      </trkpt>
      <trkpt lat="42.87184" lon="0.26259">
        <ele>2280</ele>
        <time>2013-12-15T10:24:48Z</time>
      </trkpt>
      <trkpt lat="42.87191" lon="0.2626">
        <ele>2283</ele>
        <time>2013-12-15T10:25:04Z</time>
      </trkpt>
      <trkpt lat="42.87192" lon="0.26268">
        <ele>2285</ele>
        <time>2013-12-15T10:25:17Z</time>
      </trkpt>
      <trkpt lat="42.87195" lon="0.26277">
        <ele>2288</ele>
        <time>2013-12-15T10:25:30Z</time>
      </trkpt>
      <trkpt lat="42.87199" lon="0.26286">
        <ele>2289</ele>
        <time>2013-12-15T10:25:43Z</time>
      </trkpt>
      <trkpt lat="42.87203" lon="0.26292">
        <ele>2291</ele>
        <time>2013-12-15T10:25:56Z</time>
      </trkpt>
      <trkpt lat="42.87209" lon="0.26302">
        <ele>2294</ele>
        <time>2013-12-15T10:26:10Z</time>
      </trkpt>
      <trkpt lat="42.87213" lon="0.26312">
        <ele>2296</ele>
        <time>2013-12-15T10:26:24Z</time>
      </trkpt>
      <trkpt lat="42.87218" lon="0.26323">
        <ele>2297</ele>
        <time>2013-12-15T10:26:38Z</time>
      </trkpt>
      <trkpt lat="42.87219" lon="0.26328">
        <ele>2297</ele>
        <time>2013-12-15T10:26:43Z</time>
      </trkpt>
      <trkpt lat="42.87222" lon="0.2634">
        <ele>2300</ele>
        <time>2013-12-15T10:26:57Z</time>
      </trkpt>
      <trkpt lat="42.87222" lon="0.26352">
        <ele>2302</ele>
        <time>2013-12-15T10:27:15Z</time>
      </trkpt>
      <trkpt lat="42.8722" lon="0.26366">
        <ele>2304</ele>
        <time>2013-12-15T10:27:34Z</time>
      </trkpt>
      <trkpt lat="42.8722" lon="0.26381">
        <ele>2307</ele>
        <time>2013-12-15T10:27:49Z</time>
      </trkpt>
      <trkpt lat="42.87223" lon="0.26385">
        <ele>2308</ele>
        <time>2013-12-15T10:28:02Z</time>
      </trkpt>
      <trkpt lat="42.8722" lon="0.26386">
        <ele>2308</ele>
        <time>2013-12-15T10:28:32Z</time>
      </trkpt>
      <trkpt lat="42.87219" lon="0.2639">
        <ele>2309</ele>
        <time>2013-12-15T10:28:36Z</time>
      </trkpt>
      <trkpt lat="42.8722" lon="0.26404">
        <ele>2312</ele>
        <time>2013-12-15T10:28:51Z</time>
      </trkpt>
      <trkpt lat="42.87224" lon="0.26406">
        <ele>2314</ele>
        <time>2013-12-15T10:29:01Z</time>
      </trkpt>
      <trkpt lat="42.8723" lon="0.26406">
        <ele>2315</ele>
        <time>2013-12-15T10:29:14Z</time>
      </trkpt>
      <trkpt lat="42.87229" lon="0.26415">
        <ele>2317</ele>
        <time>2013-12-15T10:29:27Z</time>
      </trkpt>
      <trkpt lat="42.87227" lon="0.26424">
        <ele>2319</ele>
        <time>2013-12-15T10:29:40Z</time>
      </trkpt>
      <trkpt lat="42.87228" lon="0.26433">
        <ele>2322</ele>
        <time>2013-12-15T10:29:55Z</time>
      </trkpt>
      <trkpt lat="42.87228" lon="0.26444">
        <ele>2324</ele>
        <time>2013-12-15T10:30:10Z</time>
      </trkpt>
      <trkpt lat="42.8723" lon="0.26448">
        <ele>2325</ele>
        <time>2013-12-15T10:30:20Z</time>
      </trkpt>
      <trkpt lat="42.87235" lon="0.26447">
        <ele>2326</ele>
        <time>2013-12-15T10:30:34Z</time>
      </trkpt>
      <trkpt lat="42.87241" lon="0.26443">
        <ele>2328</ele>
        <time>2013-12-15T10:30:48Z</time>
      </trkpt>
      <trkpt lat="42.87246" lon="0.26443">
        <ele>2331</ele>
        <time>2013-12-15T10:31:03Z</time>
      </trkpt>
      <trkpt lat="42.87246" lon="0.26449">
        <ele>2332</ele>
        <time>2013-12-15T10:31:15Z</time>
      </trkpt>
      <trkpt lat="42.87246" lon="0.26456">
        <ele>2335</ele>
        <time>2013-12-15T10:31:32Z</time>
      </trkpt>
      <trkpt lat="42.87246" lon="0.26463">
        <ele>2336</ele>
        <time>2013-12-15T10:31:42Z</time>
      </trkpt>
      <trkpt lat="42.87255" lon="0.2646">
        <ele>2339</ele>
        <time>2013-12-15T10:31:59Z</time>
      </trkpt>
      <trkpt lat="42.87261" lon="0.26457">
        <ele>2340</ele>
        <time>2013-12-15T10:32:19Z</time>
      </trkpt>
      <trkpt lat="42.87262" lon="0.26464">
        <ele>2343</ele>
        <time>2013-12-15T10:32:33Z</time>
      </trkpt>
      <trkpt lat="42.87261" lon="0.26471">
        <ele>2344</ele>
        <time>2013-12-15T10:32:47Z</time>
      </trkpt>
      <trkpt lat="42.8726" lon="0.26479">
        <ele>2346</ele>
        <time>2013-12-15T10:33:01Z</time>
      </trkpt>
      <trkpt lat="42.87259" lon="0.26487">
        <ele>2349</ele>
        <time>2013-12-15T10:33:14Z</time>
      </trkpt>
      <trkpt lat="42.87259" lon="0.26491">
        <ele>2350</ele>
        <time>2013-12-15T10:33:26Z</time>
      </trkpt>
      <trkpt lat="42.87266" lon="0.26489">
        <ele>2351</ele>
        <time>2013-12-15T10:33:38Z</time>
      </trkpt>
      <trkpt lat="42.87273" lon="0.26485">
        <ele>2354</ele>
        <time>2013-12-15T10:33:55Z</time>
      </trkpt>
      <trkpt lat="42.87282" lon="0.26483">
        <ele>2355</ele>
        <time>2013-12-15T10:34:08Z</time>
      </trkpt>
      <trkpt lat="42.87287" lon="0.26476">
        <ele>2359</ele>
        <time>2013-12-15T10:34:26Z</time>
      </trkpt>
      <trkpt lat="42.87292" lon="0.2647">
        <ele>2360</ele>
        <time>2013-12-15T10:34:41Z</time>
      </trkpt>
      <trkpt lat="42.87291" lon="0.26471">
        <ele>2361</ele>
        <time>2013-12-15T10:34:55Z</time>
      </trkpt>
      <trkpt lat="42.87291" lon="0.2648">
        <ele>2364</ele>
        <time>2013-12-15T10:35:09Z</time>
      </trkpt>
      <trkpt lat="42.87293" lon="0.26489">
        <ele>2365</ele>
        <time>2013-12-15T10:35:24Z</time>
      </trkpt>
      <trkpt lat="42.87296" lon="0.26501">
        <ele>2367</ele>
        <time>2013-12-15T10:35:40Z</time>
      </trkpt>
      <trkpt lat="42.87296" lon="0.26512">
        <ele>2369</ele>
        <time>2013-12-15T10:35:54Z</time>
      </trkpt>
      <trkpt lat="42.87295" lon="0.26521">
        <ele>2371</ele>
        <time>2013-12-15T10:36:08Z</time>
      </trkpt>
      <trkpt lat="42.87294" lon="0.26532">
        <ele>2373</ele>
        <time>2013-12-15T10:36:19Z</time>
      </trkpt>
      <trkpt lat="42.87292" lon="0.26539">
        <ele>2375</ele>
        <time>2013-12-15T10:36:34Z</time>
      </trkpt>
      <trkpt lat="42.8729" lon="0.26547">
        <ele>2377</ele>
        <time>2013-12-15T10:36:46Z</time>
      </trkpt>
      <trkpt lat="42.87288" lon="0.26557">
        <ele>2378</ele>
        <time>2013-12-15T10:37:00Z</time>
      </trkpt>
      <trkpt lat="42.87285" lon="0.2656">
        <ele>2379</ele>
        <time>2013-12-15T10:37:11Z</time>
      </trkpt>
      <trkpt lat="42.87281" lon="0.26559">
        <ele>2381</ele>
        <time>2013-12-15T10:37:26Z</time>
      </trkpt>
      <trkpt lat="42.87281" lon="0.26558">
        <ele>2381</ele>
        <time>2013-12-15T10:37:39Z</time>
      </trkpt>
      <trkpt lat="42.87287" lon="0.2656">
        <ele>2382</ele>
        <time>2013-12-15T10:37:51Z</time>
      </trkpt>
      <trkpt lat="42.87293" lon="0.26556">
        <ele>2385</ele>
        <time>2013-12-15T10:38:07Z</time>
      </trkpt>
      <trkpt lat="42.873" lon="0.26554">
        <ele>2388</ele>
        <time>2013-12-15T10:38:21Z</time>
      </trkpt>
      <trkpt lat="42.87303" lon="0.26554">
        <ele>2389</ele>
        <time>2013-12-15T10:38:34Z</time>
      </trkpt>
      <trkpt lat="42.87306" lon="0.26554">
        <ele>2390</ele>
        <time>2013-12-15T10:38:48Z</time>
      </trkpt>
      <trkpt lat="42.87306" lon="0.26555">
        <ele>2391</ele>
        <time>2013-12-15T10:39:00Z</time>
      </trkpt>
      <trkpt lat="42.87304" lon="0.26563">
        <ele>2394</ele>
        <time>2013-12-15T10:39:15Z</time>
      </trkpt>
      <trkpt lat="42.87303" lon="0.26574">
        <ele>2396</ele>
        <time>2013-12-15T10:39:32Z</time>
      </trkpt>
      <trkpt lat="42.87302" lon="0.26582">
        <ele>2398</ele>
        <time>2013-12-15T10:39:44Z</time>
      </trkpt>
      <trkpt lat="42.87301" lon="0.26585">
        <ele>2399</ele>
        <time>2013-12-15T10:39:57Z</time>
      </trkpt>
      <trkpt lat="42.87303" lon="0.26587">
        <ele>2399</ele>
        <time>2013-12-15T10:40:11Z</time>
      </trkpt>
      <trkpt lat="42.87308" lon="0.26587">
        <ele>2401</ele>
        <time>2013-12-15T10:40:25Z</time>
      </trkpt>
      <trkpt lat="42.87309" lon="0.26585">
        <ele>2403</ele>
        <time>2013-12-15T10:40:39Z</time>
      </trkpt>
      <trkpt lat="42.8731" lon="0.2659">
        <ele>2404</ele>
        <time>2013-12-15T10:40:50Z</time>
      </trkpt>
      <trkpt lat="42.87309" lon="0.266">
        <ele>2406</ele>
        <time>2013-12-15T10:41:04Z</time>
      </trkpt>
      <trkpt lat="42.87307" lon="0.26607">
        <ele>2409</ele>
        <time>2013-12-15T10:41:21Z</time>
      </trkpt>
      <trkpt lat="42.87302" lon="0.26608">
        <ele>2410</ele>
        <time>2013-12-15T10:41:37Z</time>
      </trkpt>
      <trkpt lat="42.87303" lon="0.2661">
        <ele>2411</ele>
        <time>2013-12-15T10:41:50Z</time>
      </trkpt>
      <trkpt lat="42.87313" lon="0.26611">
        <ele>2413</ele>
        <time>2013-12-15T10:42:07Z</time>
      </trkpt>
      <trkpt lat="42.87322" lon="0.26611">
        <ele>2415</ele>
        <time>2013-12-15T10:42:23Z</time>
      </trkpt>
      <trkpt lat="42.87327" lon="0.26603">
        <ele>2417</ele>
        <time>2013-12-15T10:42:37Z</time>
      </trkpt>
      <trkpt lat="42.87333" lon="0.26597">
        <ele>2419</ele>
        <time>2013-12-15T10:42:51Z</time>
      </trkpt>
      <trkpt lat="42.87339" lon="0.26594">
        <ele>2422</ele>
        <time>2013-12-15T10:43:07Z</time>
      </trkpt>
      <trkpt lat="42.87346" lon="0.2659">
        <ele>2424</ele>
        <time>2013-12-15T10:43:24Z</time>
      </trkpt>
      <trkpt lat="42.87345" lon="0.26591">
        <ele>2424</ele>
        <time>2013-12-15T10:43:39Z</time>
      </trkpt>
      <trkpt lat="42.87345" lon="0.26599">
        <ele>2426</ele>
        <time>2013-12-15T10:43:52Z</time>
      </trkpt>
      <trkpt lat="42.87345" lon="0.26611">
        <ele>2429</ele>
        <time>2013-12-15T10:44:11Z</time>
      </trkpt>
      <trkpt lat="42.87345" lon="0.26619">
        <ele>2431</ele>
        <time>2013-12-15T10:44:23Z</time>
      </trkpt>
      <trkpt lat="42.87347" lon="0.26623">
        <ele>2432</ele>
        <time>2013-12-15T10:44:37Z</time>
      </trkpt>
      <trkpt lat="42.87353" lon="0.26623">
        <ele>2433</ele>
        <time>2013-12-15T10:44:53Z</time>
      </trkpt>
      <trkpt lat="42.87354" lon="0.26618">
        <ele>2434</ele>
        <time>2013-12-15T10:45:11Z</time>
      </trkpt>
      <trkpt lat="42.87353" lon="0.26627">
        <ele>2437</ele>
        <time>2013-12-15T10:45:29Z</time>
      </trkpt>
      <trkpt lat="42.87352" lon="0.2663">
        <ele>2438</ele>
        <time>2013-12-15T10:45:35Z</time>
      </trkpt>
      <trkpt lat="42.87356" lon="0.26629">
        <ele>2439</ele>
        <time>2013-12-15T10:45:49Z</time>
      </trkpt>
      <trkpt lat="42.87363" lon="0.26625">
        <ele>2441</ele>
        <time>2013-12-15T10:46:07Z</time>
      </trkpt>
      <trkpt lat="42.8737" lon="0.26616">
        <ele>2444</ele>
        <time>2013-12-15T10:46:26Z</time>
      </trkpt>
      <trkpt lat="42.87375" lon="0.26611">
        <ele>2446</ele>
        <time>2013-12-15T10:46:41Z</time>
      </trkpt>
      <trkpt lat="42.87375" lon="0.26614">
        <ele>2447</ele>
        <time>2013-12-15T10:46:54Z</time>
      </trkpt>
      <trkpt lat="42.87373" lon="0.26623">
        <ele>2449</ele>
        <time>2013-12-15T10:47:11Z</time>
      </trkpt>
      <trkpt lat="42.87375" lon="0.26633">
        <ele>2451</ele>
        <time>2013-12-15T10:47:23Z</time>
      </trkpt>
      <trkpt lat="42.87375" lon="0.26641">
        <ele>2453</ele>
        <time>2013-12-15T10:47:38Z</time>
      </trkpt>
      <trkpt lat="42.87376" lon="0.26643">
        <ele>2454</ele>
        <time>2013-12-15T10:47:49Z</time>
      </trkpt>
      <trkpt lat="42.87383" lon="0.2664">
        <ele>2455</ele>
        <time>2013-12-15T10:48:04Z</time>
      </trkpt>
      <trkpt lat="42.87392" lon="0.26629">
        <ele>2457</ele>
        <time>2013-12-15T10:48:21Z</time>
      </trkpt>
      <trkpt lat="42.874" lon="0.26618">
        <ele>2460</ele>
        <time>2013-12-15T10:48:41Z</time>
      </trkpt>
      <trkpt lat="42.87406" lon="0.26607">
        <ele>2463</ele>
        <time>2013-12-15T10:49:00Z</time>
      </trkpt>
      <trkpt lat="42.87411" lon="0.26592">
        <ele>2464</ele>
        <time>2013-12-15T10:49:18Z</time>
      </trkpt>
      <trkpt lat="42.87415" lon="0.26579">
        <ele>2467</ele>
        <time>2013-12-15T10:49:37Z</time>
      </trkpt>
      <trkpt lat="42.87416" lon="0.26573">
        <ele>2468</ele>
        <time>2013-12-15T10:49:52Z</time>
      </trkpt>
      <trkpt lat="42.87416" lon="0.26573">
        <ele>2470</ele>
        <time>2013-12-15T10:50:10Z</time>
      </trkpt>
      <trkpt lat="42.87416" lon="0.26574">
        <ele>2469</ele>
        <time>2013-12-15T10:50:11Z</time>
      </trkpt>
      <trkpt lat="42.87418" lon="0.26584">
        <ele>2471</ele>
        <time>2013-12-15T10:50:28Z</time>
      </trkpt>
      <trkpt lat="42.87421" lon="0.26591">
        <ele>2474</ele>
        <time>2013-12-15T10:50:40Z</time>
      </trkpt>
      <trkpt lat="42.87423" lon="0.26601">
        <ele>2475</ele>
        <time>2013-12-15T10:50:56Z</time>
      </trkpt>
      <trkpt lat="42.87425" lon="0.26601">
        <ele>2475</ele>
        <time>2013-12-15T10:51:12Z</time>
      </trkpt>
      <trkpt lat="42.87424" lon="0.26601">
        <ele>2476</ele>
        <time>2013-12-15T10:51:32Z</time>
      </trkpt>
      <trkpt lat="42.87423" lon="0.266">
        <ele>2476</ele>
        <time>2013-12-15T10:51:53Z</time>
      </trkpt>
      <trkpt lat="42.87426" lon="0.26592">
        <ele>2476</ele>
        <time>2013-12-15T10:52:09Z</time>
      </trkpt>
      <trkpt lat="42.8743" lon="0.26579">
        <ele>2479</ele>
        <time>2013-12-15T10:52:26Z</time>
      </trkpt>
      <trkpt lat="42.87431" lon="0.26565">
        <ele>2482</ele>
        <time>2013-12-15T10:52:43Z</time>
      </trkpt>
      <trkpt lat="42.87433" lon="0.26557">
        <ele>2484</ele>
        <time>2013-12-15T10:53:00Z</time>
      </trkpt>
      <trkpt lat="42.87436" lon="0.26548">
        <ele>2485</ele>
        <time>2013-12-15T10:53:18Z</time>
      </trkpt>
      <trkpt lat="42.87439" lon="0.26536">
        <ele>2488</ele>
        <time>2013-12-15T10:53:37Z</time>
      </trkpt>
      <trkpt lat="42.87442" lon="0.26526">
        <ele>2491</ele>
        <time>2013-12-15T10:53:54Z</time>
      </trkpt>
      <trkpt lat="42.87445" lon="0.26515">
        <ele>2493</ele>
        <time>2013-12-15T10:54:09Z</time>
      </trkpt>
      <trkpt lat="42.87448" lon="0.26506">
        <ele>2496</ele>
        <time>2013-12-15T10:54:24Z</time>
      </trkpt>
      <trkpt lat="42.87451" lon="0.26493">
        <ele>2499</ele>
        <time>2013-12-15T10:54:42Z</time>
      </trkpt>
      <trkpt lat="42.87454" lon="0.26484">
        <ele>2501</ele>
        <time>2013-12-15T10:54:57Z</time>
      </trkpt>
      <trkpt lat="42.87457" lon="0.26475">
        <ele>2503</ele>
        <time>2013-12-15T10:55:14Z</time>
      </trkpt>
      <trkpt lat="42.87461" lon="0.26464">
        <ele>2506</ele>
        <time>2013-12-15T10:55:30Z</time>
      </trkpt>
      <trkpt lat="42.87465" lon="0.26457">
        <ele>2508</ele>
        <time>2013-12-15T10:55:45Z</time>
      </trkpt>
      <trkpt lat="42.8747" lon="0.26451">
        <ele>2512</ele>
        <time>2013-12-15T10:56:02Z</time>
      </trkpt>
      <trkpt lat="42.87474" lon="0.26443">
        <ele>2513</ele>
        <time>2013-12-15T10:56:18Z</time>
      </trkpt>
      <trkpt lat="42.87475" lon="0.26437">
        <ele>2515</ele>
        <time>2013-12-15T10:56:37Z</time>
      </trkpt>
      <trkpt lat="42.87477" lon="0.26437">
        <ele>2516</ele>
        <time>2013-12-15T10:56:52Z</time>
      </trkpt>
      <trkpt lat="42.8748" lon="0.26448">
        <ele>2518</ele>
        <time>2013-12-15T10:57:06Z</time>
      </trkpt>
      <trkpt lat="42.87483" lon="0.26459">
        <ele>2521</ele>
        <time>2013-12-15T10:57:26Z</time>
      </trkpt>
      <trkpt lat="42.87485" lon="0.26468">
        <ele>2523</ele>
        <time>2013-12-15T10:57:40Z</time>
      </trkpt>
      <trkpt lat="42.87488" lon="0.26476">
        <ele>2525</ele>
        <time>2013-12-15T10:57:51Z</time>
      </trkpt>
      <trkpt lat="42.87489" lon="0.26484">
        <ele>2526</ele>
        <time>2013-12-15T10:58:02Z</time>
      </trkpt>
      <trkpt lat="42.87491" lon="0.26493">
        <ele>2527</ele>
        <time>2013-12-15T10:58:16Z</time>
      </trkpt>
      <trkpt lat="42.87493" lon="0.26503">
        <ele>2530</ele>
        <time>2013-12-15T10:58:29Z</time>
      </trkpt>
      <trkpt lat="42.87495" lon="0.2651">
        <ele>2532</ele>
        <time>2013-12-15T10:58:41Z</time>
      </trkpt>
      <trkpt lat="42.87497" lon="0.26519">
        <ele>2534</ele>
        <time>2013-12-15T10:58:54Z</time>
      </trkpt>
      <trkpt lat="42.87498" lon="0.26529">
        <ele>2536</ele>
        <time>2013-12-15T10:59:07Z</time>
      </trkpt>
      <trkpt lat="42.875" lon="0.26539">
        <ele>2538</ele>
        <time>2013-12-15T10:59:20Z</time>
      </trkpt>
      <trkpt lat="42.87501" lon="0.26552">
        <ele>2540</ele>
        <time>2013-12-15T10:59:35Z</time>
      </trkpt>
      <trkpt lat="42.87501" lon="0.26559">
        <ele>2541</ele>
        <time>2013-12-15T10:59:47Z</time>
      </trkpt>
      <trkpt lat="42.87503" lon="0.26572">
        <ele>2544</ele>
        <time>2013-12-15T11:00:03Z</time>
      </trkpt>
      <trkpt lat="42.87504" lon="0.26583">
        <ele>2546</ele>
        <time>2013-12-15T11:00:17Z</time>
      </trkpt>
      <trkpt lat="42.87506" lon="0.2659">
        <ele>2547</ele>
        <time>2013-12-15T11:00:28Z</time>
      </trkpt>
      <trkpt lat="42.87507" lon="0.26601">
        <ele>2550</ele>
        <time>2013-12-15T11:00:42Z</time>
      </trkpt>
      <trkpt lat="42.87507" lon="0.26601">
        <ele>2550</ele>
        <time>2013-12-15T11:00:43Z</time>
      </trkpt>
      <trkpt lat="42.87507" lon="0.26608">
        <ele>2551</ele>
        <time>2013-12-15T11:00:55Z</time>
      </trkpt>
      <trkpt lat="42.87508" lon="0.26617">
        <ele>2553</ele>
        <time>2013-12-15T11:01:13Z</time>
      </trkpt>
      <trkpt lat="42.87508" lon="0.26618">
        <ele>2553</ele>
        <time>2013-12-15T11:01:36Z</time>
      </trkpt>
      <trkpt lat="42.87512" lon="0.26613">
        <ele>2554</ele>
        <time>2013-12-15T11:01:57Z</time>
      </trkpt>
      <trkpt lat="42.87517" lon="0.26605">
        <ele>2557</ele>
        <time>2013-12-15T11:02:16Z</time>
      </trkpt>
      <trkpt lat="42.87518" lon="0.26599">
        <ele>2559</ele>
        <time>2013-12-15T11:02:34Z</time>
      </trkpt>
      <trkpt lat="42.87519" lon="0.26597">
        <ele>2559</ele>
        <time>2013-12-15T11:02:52Z</time>
      </trkpt>
      <trkpt lat="42.87518" lon="0.26608">
        <ele>2561</ele>
        <time>2013-12-15T11:03:05Z</time>
      </trkpt>
      <trkpt lat="42.8752" lon="0.26618">
        <ele>2563</ele>
        <time>2013-12-15T11:03:18Z</time>
      </trkpt>
      <trkpt lat="42.8752" lon="0.26629">
        <ele>2564</ele>
        <time>2013-12-15T11:03:30Z</time>
      </trkpt>
      <trkpt lat="42.87521" lon="0.26634">
        <ele>2566</ele>
        <time>2013-12-15T11:03:42Z</time>
      </trkpt>
      <trkpt lat="42.8752" lon="0.26643">
        <ele>2569</ele>
        <time>2013-12-15T11:03:56Z</time>
      </trkpt>
      <trkpt lat="42.87521" lon="0.26646">
        <ele>2570</ele>
        <time>2013-12-15T11:04:10Z</time>
      </trkpt>
      <trkpt lat="42.87522" lon="0.26648">
        <ele>2571</ele>
        <time>2013-12-15T11:04:33Z</time>
      </trkpt>
      <trkpt lat="42.87524" lon="0.26643">
        <ele>2572</ele>
        <time>2013-12-15T11:04:46Z</time>
      </trkpt>
      <trkpt lat="42.87527" lon="0.26641">
        <ele>2573</ele>
        <time>2013-12-15T11:04:58Z</time>
      </trkpt>
      <trkpt lat="42.87526" lon="0.26639">
        <ele>2573</ele>
        <time>2013-12-15T11:05:12Z</time>
      </trkpt>
      <trkpt lat="42.87526" lon="0.26645">
        <ele>2575</ele>
        <time>2013-12-15T11:05:26Z</time>
      </trkpt>
      <trkpt lat="42.87527" lon="0.26652">
        <ele>2577</ele>
        <time>2013-12-15T11:05:39Z</time>
      </trkpt>
      <trkpt lat="42.87527" lon="0.26664">
        <ele>2580</ele>
        <time>2013-12-15T11:05:56Z</time>
      </trkpt>
      <trkpt lat="42.87529" lon="0.26668">
        <ele>2581</ele>
        <time>2013-12-15T11:06:12Z</time>
      </trkpt>
      <trkpt lat="42.87529" lon="0.26668">
        <ele>2581</ele>
        <time>2013-12-15T11:06:27Z</time>
      </trkpt>
      <trkpt lat="42.87531" lon="0.26663">
        <ele>2582</ele>
        <time>2013-12-15T11:06:39Z</time>
      </trkpt>
      <trkpt lat="42.87532" lon="0.26663">
        <ele>2583</ele>
        <time>2013-12-15T11:06:56Z</time>
      </trkpt>
      <trkpt lat="42.87532" lon="0.26669">
        <ele>2584</ele>
        <time>2013-12-15T11:07:15Z</time>
      </trkpt>
      <trkpt lat="42.87532" lon="0.26679">
        <ele>2586</ele>
        <time>2013-12-15T11:07:27Z</time>
      </trkpt>
      <trkpt lat="42.87532" lon="0.26686">
        <ele>2587</ele>
        <time>2013-12-15T11:07:39Z</time>
      </trkpt>
      <trkpt lat="42.87532" lon="0.2669">
        <ele>2588</ele>
        <time>2013-12-15T11:07:52Z</time>
      </trkpt>
      <trkpt lat="42.87532" lon="0.26689">
        <ele>2588</ele>
        <time>2013-12-15T11:08:06Z</time>
      </trkpt>
      <trkpt lat="42.87535" lon="0.26688">
        <ele>2588</ele>
        <time>2013-12-15T11:08:21Z</time>
      </trkpt>
      <trkpt lat="42.87535" lon="0.26692">
        <ele>2591</ele>
        <time>2013-12-15T11:08:34Z</time>
      </trkpt>
      <trkpt lat="42.87535" lon="0.267">
        <ele>2592</ele>
        <time>2013-12-15T11:08:46Z</time>
      </trkpt>
      <trkpt lat="42.87536" lon="0.26706">
        <ele>2595</ele>
        <time>2013-12-15T11:09:01Z</time>
      </trkpt>
      <trkpt lat="42.87536" lon="0.26714">
        <ele>2597</ele>
        <time>2013-12-15T11:09:12Z</time>
      </trkpt>
      <trkpt lat="42.87539" lon="0.26723">
        <ele>2599</ele>
        <time>2013-12-15T11:09:25Z</time>
      </trkpt>
      <trkpt lat="42.87538" lon="0.26724">
        <ele>2600</ele>
        <time>2013-12-15T11:09:37Z</time>
      </trkpt>
      <trkpt lat="42.87537" lon="0.26725">
        <ele>2600</ele>
        <time>2013-12-15T11:09:52Z</time>
      </trkpt>
      <trkpt lat="42.87538" lon="0.26721">
        <ele>2600</ele>
        <time>2013-12-15T11:10:09Z</time>
      </trkpt>
      <trkpt lat="42.87543" lon="0.26715">
        <ele>2603</ele>
        <time>2013-12-15T11:10:23Z</time>
      </trkpt>
      <trkpt lat="42.87545" lon="0.2671">
        <ele>2605</ele>
        <time>2013-12-15T11:10:36Z</time>
      </trkpt>
      <trkpt lat="42.87546" lon="0.26709">
        <ele>2604</ele>
        <time>2013-12-15T11:10:52Z</time>
      </trkpt>
      <trkpt lat="42.87548" lon="0.26711">
        <ele>2606</ele>
        <time>2013-12-15T11:11:12Z</time>
      </trkpt>
      <trkpt lat="42.87549" lon="0.26718">
        <ele>2608</ele>
        <time>2013-12-15T11:11:24Z</time>
      </trkpt>
      <trkpt lat="42.8755" lon="0.26725">
        <ele>2611</ele>
        <time>2013-12-15T11:11:38Z</time>
      </trkpt>
      <trkpt lat="42.8755" lon="0.26725">
        <ele>2611</ele>
        <time>2013-12-15T11:11:53Z</time>
      </trkpt>
      <trkpt lat="42.87553" lon="0.26721">
        <ele>2613</ele>
        <time>2013-12-15T11:12:07Z</time>
      </trkpt>
      <trkpt lat="42.87553" lon="0.2672">
        <ele>2613</ele>
        <time>2013-12-15T11:12:20Z</time>
      </trkpt>
      <trkpt lat="42.87552" lon="0.26719">
        <ele>2612</ele>
        <time>2013-12-15T11:12:43Z</time>
      </trkpt>
      <trkpt lat="42.87554" lon="0.26725">
        <ele>2614</ele>
        <time>2013-12-15T11:12:57Z</time>
      </trkpt>
      <trkpt lat="42.87554" lon="0.26724">
        <ele>2614</ele>
        <time>2013-12-15T11:13:12Z</time>
      </trkpt>
      <trkpt lat="42.87556" lon="0.26717">
        <ele>2616</ele>
        <time>2013-12-15T11:13:25Z</time>
      </trkpt>
      <trkpt lat="42.87559" lon="0.26713">
        <ele>2618</ele>
        <time>2013-12-15T11:13:35Z</time>
      </trkpt>
      <trkpt lat="42.8756" lon="0.26709">
        <ele>2619</ele>
        <time>2013-12-15T11:13:47Z</time>
      </trkpt>
      <trkpt lat="42.87561" lon="0.26708">
        <ele>2620</ele>
        <time>2013-12-15T11:14:03Z</time>
      </trkpt>
      <trkpt lat="42.87563" lon="0.26709">
        <ele>2620</ele>
        <time>2013-12-15T11:14:27Z</time>
      </trkpt>
      <trkpt lat="42.87565" lon="0.26713">
        <ele>2623</ele>
        <time>2013-12-15T11:14:39Z</time>
      </trkpt>
      <trkpt lat="42.87567" lon="0.2672">
        <ele>2625</ele>
        <time>2013-12-15T11:14:51Z</time>
      </trkpt>
      <trkpt lat="42.87567" lon="0.26728">
        <ele>2625</ele>
        <time>2013-12-15T11:15:03Z</time>
      </trkpt>
      <trkpt lat="42.87566" lon="0.26727">
        <ele>2626</ele>
        <time>2013-12-15T11:15:17Z</time>
      </trkpt>
      <trkpt lat="42.87568" lon="0.26724">
        <ele>2626</ele>
        <time>2013-12-15T11:15:29Z</time>
      </trkpt>
      <trkpt lat="42.87568" lon="0.26723">
        <ele>2627</ele>
        <time>2013-12-15T11:15:44Z</time>
      </trkpt>
      <trkpt lat="42.87569" lon="0.26731">
        <ele>2628</ele>
        <time>2013-12-15T11:15:56Z</time>
      </trkpt>
      <trkpt lat="42.8757" lon="0.2674">
        <ele>2630</ele>
        <time>2013-12-15T11:16:09Z</time>
      </trkpt>
      <trkpt lat="42.8757" lon="0.26748">
        <ele>2634</ele>
        <time>2013-12-15T11:16:22Z</time>
      </trkpt>
      <trkpt lat="42.8757" lon="0.26748">
        <ele>2634</ele>
        <time>2013-12-15T11:16:34Z</time>
      </trkpt>
      <trkpt lat="42.87575" lon="0.26743">
        <ele>2635</ele>
        <time>2013-12-15T11:16:47Z</time>
      </trkpt>
      <trkpt lat="42.87578" lon="0.26738">
        <ele>2637</ele>
        <time>2013-12-15T11:16:59Z</time>
      </trkpt>
      <trkpt lat="42.87582" lon="0.2673">
        <ele>2640</ele>
        <time>2013-12-15T11:17:14Z</time>
      </trkpt>
      <trkpt lat="42.87584" lon="0.26729">
        <ele>2641</ele>
        <time>2013-12-15T11:17:26Z</time>
      </trkpt>
      <trkpt lat="42.87584" lon="0.26727">
        <ele>2641</ele>
        <time>2013-12-15T11:17:38Z</time>
      </trkpt>
      <trkpt lat="42.87586" lon="0.26727">
        <ele>2642</ele>
        <time>2013-12-15T11:17:52Z</time>
      </trkpt>
      <trkpt lat="42.87588" lon="0.2673">
        <ele>2642</ele>
        <time>2013-12-15T11:18:12Z</time>
      </trkpt>
      <trkpt lat="42.87588" lon="0.2674">
        <ele>2645</ele>
        <time>2013-12-15T11:18:27Z</time>
      </trkpt>
      <trkpt lat="42.87588" lon="0.26752">
        <ele>2647</ele>
        <time>2013-12-15T11:18:41Z</time>
      </trkpt>
      <trkpt lat="42.87586" lon="0.26769">
        <ele>2650</ele>
        <time>2013-12-15T11:19:04Z</time>
      </trkpt>
      <trkpt lat="42.87587" lon="0.26777">
        <ele>2651</ele>
        <time>2013-12-15T11:19:19Z</time>
      </trkpt>
      <trkpt lat="42.87591" lon="0.26784">
        <ele>2654</ele>
        <time>2013-12-15T11:19:32Z</time>
      </trkpt>
      <trkpt lat="42.87592" lon="0.26785">
        <ele>2655</ele>
        <time>2013-12-15T11:19:36Z</time>
      </trkpt>
      <trkpt lat="42.87594" lon="0.2679">
        <ele>2656</ele>
        <time>2013-12-15T11:19:47Z</time>
      </trkpt>
      <trkpt lat="42.87592" lon="0.26795">
        <ele>2658</ele>
        <time>2013-12-15T11:20:03Z</time>
      </trkpt>
      <trkpt lat="42.87591" lon="0.26804">
        <ele>2660</ele>
        <time>2013-12-15T11:20:22Z</time>
      </trkpt>
      <trkpt lat="42.8759" lon="0.26811">
        <ele>2663</ele>
        <time>2013-12-15T11:20:41Z</time>
      </trkpt>
      <trkpt lat="42.87587" lon="0.26818">
        <ele>2665</ele>
        <time>2013-12-15T11:20:54Z</time>
      </trkpt>
      <trkpt lat="42.87586" lon="0.26826">
        <ele>2666</ele>
        <time>2013-12-15T11:21:07Z</time>
      </trkpt>
      <trkpt lat="42.87585" lon="0.26835">
        <ele>2668</ele>
        <time>2013-12-15T11:21:22Z</time>
      </trkpt>
      <trkpt lat="42.87585" lon="0.26837">
        <ele>2669</ele>
        <time>2013-12-15T11:21:26Z</time>
      </trkpt>
      <trkpt lat="42.87585" lon="0.26846">
        <ele>2670</ele>
        <time>2013-12-15T11:21:40Z</time>
      </trkpt>
      <trkpt lat="42.87585" lon="0.26855">
        <ele>2673</ele>
        <time>2013-12-15T11:21:55Z</time>
      </trkpt>
      <trkpt lat="42.87584" lon="0.26865">
        <ele>2675</ele>
        <time>2013-12-15T11:22:10Z</time>
      </trkpt>
      <trkpt lat="42.87582" lon="0.26876">
        <ele>2676</ele>
        <time>2013-12-15T11:22:24Z</time>
      </trkpt>
      <trkpt lat="42.87579" lon="0.26884">
        <ele>2677</ele>
        <time>2013-12-15T11:22:38Z</time>
      </trkpt>
      <trkpt lat="42.87578" lon="0.26893">
        <ele>2680</ele>
        <time>2013-12-15T11:22:53Z</time>
      </trkpt>
      <trkpt lat="42.87575" lon="0.26902">
        <ele>2682</ele>
        <time>2013-12-15T11:23:08Z</time>
      </trkpt>
      <trkpt lat="42.87572" lon="0.26911">
        <ele>2684</ele>
        <time>2013-12-15T11:23:23Z</time>
      </trkpt>
      <trkpt lat="42.8757" lon="0.26923">
        <ele>2687</ele>
        <time>2013-12-15T11:23:41Z</time>
      </trkpt>
      <trkpt lat="42.87568" lon="0.26929">
        <ele>2688</ele>
        <time>2013-12-15T11:23:54Z</time>
      </trkpt>
      <trkpt lat="42.87565" lon="0.26937">
        <ele>2690</ele>
        <time>2013-12-15T11:24:07Z</time>
      </trkpt>
      <trkpt lat="42.87561" lon="0.26945">
        <ele>2691</ele>
        <time>2013-12-15T11:24:23Z</time>
      </trkpt>
      <trkpt lat="42.87557" lon="0.2695">
        <ele>2693</ele>
        <time>2013-12-15T11:24:37Z</time>
      </trkpt>
      <trkpt lat="42.87552" lon="0.26956">
        <ele>2695</ele>
        <time>2013-12-15T11:24:50Z</time>
      </trkpt>
      <trkpt lat="42.87549" lon="0.26962">
        <ele>2697</ele>
        <time>2013-12-15T11:25:01Z</time>
      </trkpt>
      <trkpt lat="42.87547" lon="0.26967">
        <ele>2698</ele>
        <time>2013-12-15T11:25:13Z</time>
      </trkpt>
      <trkpt lat="42.87545" lon="0.26975">
        <ele>2700</ele>
        <time>2013-12-15T11:25:28Z</time>
      </trkpt>
      <trkpt lat="42.87542" lon="0.26985">
        <ele>2702</ele>
        <time>2013-12-15T11:25:43Z</time>
      </trkpt>
      <trkpt lat="42.87539" lon="0.26993">
        <ele>2703</ele>
        <time>2013-12-15T11:25:57Z</time>
      </trkpt>
      <trkpt lat="42.87536" lon="0.27">
        <ele>2705</ele>
        <time>2013-12-15T11:26:10Z</time>
      </trkpt>
      <trkpt lat="42.87533" lon="0.27006">
        <ele>2707</ele>
        <time>2013-12-15T11:26:23Z</time>
      </trkpt>
      <trkpt lat="42.8753" lon="0.27013">
        <ele>2709</ele>
        <time>2013-12-15T11:26:36Z</time>
      </trkpt>
      <trkpt lat="42.87528" lon="0.2702">
        <ele>2710</ele>
        <time>2013-12-15T11:26:49Z</time>
      </trkpt>
      <trkpt lat="42.87526" lon="0.27026">
        <ele>2712</ele>
        <time>2013-12-15T11:27:00Z</time>
      </trkpt>
      <trkpt lat="42.87523" lon="0.27034">
        <ele>2713</ele>
        <time>2013-12-15T11:27:13Z</time>
      </trkpt>
      <trkpt lat="42.8752" lon="0.27043">
        <ele>2715</ele>
        <time>2013-12-15T11:27:29Z</time>
      </trkpt>
      <trkpt lat="42.87517" lon="0.27047">
        <ele>2716</ele>
        <time>2013-12-15T11:27:45Z</time>
      </trkpt>
      <trkpt lat="42.87517" lon="0.27047">
        <ele>2715</ele>
        <time>2013-12-15T11:27:57Z</time>
      </trkpt>
      <trkpt lat="42.87518" lon="0.27045">
        <ele>2717</ele>
        <time>2013-12-15T11:28:28Z</time>
      </trkpt>
      <trkpt lat="42.87526" lon="0.27041">
        <ele>2719</ele>
        <time>2013-12-15T11:28:45Z</time>
      </trkpt>
      <trkpt lat="42.87533" lon="0.27037">
        <ele>2721</ele>
        <time>2013-12-15T11:29:00Z</time>
      </trkpt>
      <trkpt lat="42.87539" lon="0.27033">
        <ele>2723</ele>
        <time>2013-12-15T11:29:16Z</time>
      </trkpt>
      <trkpt lat="42.87547" lon="0.27029">
        <ele>2725</ele>
        <time>2013-12-15T11:29:31Z</time>
      </trkpt>
      <trkpt lat="42.87553" lon="0.27026">
        <ele>2727</ele>
        <time>2013-12-15T11:29:47Z</time>
      </trkpt>
      <trkpt lat="42.87556" lon="0.27024">
        <ele>2728</ele>
        <time>2013-12-15T11:30:01Z</time>
      </trkpt>
      <trkpt lat="42.8756" lon="0.27022">
        <ele>2729</ele>
        <time>2013-12-15T11:30:15Z</time>
      </trkpt>
      <trkpt lat="42.87564" lon="0.27021">
        <ele>2730</ele>
        <time>2013-12-15T11:30:31Z</time>
      </trkpt>
      <trkpt lat="42.87565" lon="0.27023">
        <ele>2730</ele>
        <time>2013-12-15T11:30:55Z</time>
      </trkpt>
      <trkpt lat="42.87564" lon="0.27025">
        <ele>2730</ele>
        <time>2013-12-15T11:31:16Z</time>
      </trkpt>
      <trkpt lat="42.87561" lon="0.27034">
        <ele>2732</ele>
        <time>2013-12-15T11:31:32Z</time>
      </trkpt>
      <trkpt lat="42.87559" lon="0.27039">
        <ele>2734</ele>
        <time>2013-12-15T11:31:46Z</time>
      </trkpt>
      <trkpt lat="42.87561" lon="0.27038">
        <ele>2734</ele>
        <time>2013-12-15T11:31:57Z</time>
      </trkpt>
      <trkpt lat="42.87565" lon="0.27036">
        <ele>2736</ele>
        <time>2013-12-15T11:32:12Z</time>
      </trkpt>
      <trkpt lat="42.87569" lon="0.27035">
        <ele>2737</ele>
        <time>2013-12-15T11:32:28Z</time>
      </trkpt>
      <trkpt lat="42.87567" lon="0.27041">
        <ele>2738</ele>
        <time>2013-12-15T11:32:41Z</time>
      </trkpt>
      <trkpt lat="42.87564" lon="0.27048">
        <ele>2740</ele>
        <time>2013-12-15T11:32:53Z</time>
      </trkpt>
      <trkpt lat="42.87561" lon="0.27059">
        <ele>2742</ele>
        <time>2013-12-15T11:33:10Z</time>
      </trkpt>
      <trkpt lat="42.87557" lon="0.27068">
        <ele>2744</ele>
        <time>2013-12-15T11:33:27Z</time>
      </trkpt>
      <trkpt lat="42.87554" lon="0.27076">
        <ele>2747</ele>
        <time>2013-12-15T11:33:42Z</time>
      </trkpt>
      <trkpt lat="42.87552" lon="0.27085">
        <ele>2748</ele>
        <time>2013-12-15T11:33:56Z</time>
      </trkpt>
      <trkpt lat="42.87549" lon="0.27092">
        <ele>2750</ele>
        <time>2013-12-15T11:34:11Z</time>
      </trkpt>
      <trkpt lat="42.87545" lon="0.27101">
        <ele>2752</ele>
        <time>2013-12-15T11:34:25Z</time>
      </trkpt>
      <trkpt lat="42.87542" lon="0.27109">
        <ele>2754</ele>
        <time>2013-12-15T11:34:40Z</time>
      </trkpt>
      <trkpt lat="42.87539" lon="0.27118">
        <ele>2757</ele>
        <time>2013-12-15T11:34:53Z</time>
      </trkpt>
      <trkpt lat="42.87534" lon="0.27127">
        <ele>2759</ele>
        <time>2013-12-15T11:35:12Z</time>
      </trkpt>
      <trkpt lat="42.8753" lon="0.27135">
        <ele>2761</ele>
        <time>2013-12-15T11:35:26Z</time>
      </trkpt>
      <trkpt lat="42.87525" lon="0.27145">
        <ele>2762</ele>
        <time>2013-12-15T11:35:40Z</time>
      </trkpt>
      <trkpt lat="42.87521" lon="0.2715">
        <ele>2765</ele>
        <time>2013-12-15T11:35:52Z</time>
      </trkpt>
      <trkpt lat="42.87518" lon="0.27155">
        <ele>2766</ele>
        <time>2013-12-15T11:36:06Z</time>
      </trkpt>
      <trkpt lat="42.87516" lon="0.27155">
        <ele>2766</ele>
        <time>2013-12-15T11:36:23Z</time>
      </trkpt>
      <trkpt lat="42.87521" lon="0.27154">
        <ele>2767</ele>
        <time>2013-12-15T11:36:44Z</time>
      </trkpt>
      <trkpt lat="42.87529" lon="0.27151">
        <ele>2769</ele>
        <time>2013-12-15T11:37:02Z</time>
      </trkpt>
      <trkpt lat="42.87537" lon="0.2715">
        <ele>2772</ele>
        <time>2013-12-15T11:37:20Z</time>
      </trkpt>
      <trkpt lat="42.87546" lon="0.27146">
        <ele>2774</ele>
        <time>2013-12-15T11:37:39Z</time>
      </trkpt>
      <trkpt lat="42.87554" lon="0.27145">
        <ele>2777</ele>
        <time>2013-12-15T11:37:56Z</time>
      </trkpt>
      <trkpt lat="42.87563" lon="0.27143">
        <ele>2779</ele>
        <time>2013-12-15T11:38:15Z</time>
      </trkpt>
      <trkpt lat="42.8757" lon="0.27141">
        <ele>2781</ele>
        <time>2013-12-15T11:38:30Z</time>
      </trkpt>
      <trkpt lat="42.87573" lon="0.2714">
        <ele>2782</ele>
        <time>2013-12-15T11:38:45Z</time>
      </trkpt>
      <trkpt lat="42.87573" lon="0.27143">
        <ele>2783</ele>
        <time>2013-12-15T11:38:56Z</time>
      </trkpt>
      <trkpt lat="42.87571" lon="0.2715">
        <ele>2785</ele>
        <time>2013-12-15T11:39:09Z</time>
      </trkpt>
      <trkpt lat="42.87568" lon="0.27157">
        <ele>2787</ele>
        <time>2013-12-15T11:39:25Z</time>
      </trkpt>
      <trkpt lat="42.87564" lon="0.27162">
        <ele>2787</ele>
        <time>2013-12-15T11:39:38Z</time>
      </trkpt>
      <trkpt lat="42.8756" lon="0.27168">
        <ele>2789</ele>
        <time>2013-12-15T11:39:55Z</time>
      </trkpt>
      <trkpt lat="42.87557" lon="0.27169">
        <ele>2789</ele>
        <time>2013-12-15T11:40:11Z</time>
      </trkpt>
      <trkpt lat="42.87561" lon="0.27168">
        <ele>2790</ele>
        <time>2013-12-15T11:40:24Z</time>
      </trkpt>
      <trkpt lat="42.87568" lon="0.27167">
        <ele>2792</ele>
        <time>2013-12-15T11:40:39Z</time>
      </trkpt>
      <trkpt lat="42.87575" lon="0.27165">
        <ele>2794</ele>
        <time>2013-12-15T11:40:56Z</time>
      </trkpt>
      <trkpt lat="42.87583" lon="0.27163">
        <ele>2797</ele>
        <time>2013-12-15T11:41:13Z</time>
      </trkpt>
      <trkpt lat="42.87588" lon="0.27168">
        <ele>2799</ele>
        <time>2013-12-15T11:41:27Z</time>
      </trkpt>
      <trkpt lat="42.87589" lon="0.27177">
        <ele>2802</ele>
        <time>2013-12-15T11:41:40Z</time>
      </trkpt>
      <trkpt lat="42.87586" lon="0.27186">
        <ele>2804</ele>
        <time>2013-12-15T11:41:54Z</time>
      </trkpt>
      <trkpt lat="42.87584" lon="0.27191">
        <ele>2806</ele>
        <time>2013-12-15T11:42:08Z</time>
      </trkpt>
      <trkpt lat="42.87582" lon="0.27197">
        <ele>2809</ele>
        <time>2013-12-15T11:42:26Z</time>
      </trkpt>
      <trkpt lat="42.8758" lon="0.27204">
        <ele>2810</ele>
        <time>2013-12-15T11:42:38Z</time>
      </trkpt>
      <trkpt lat="42.87577" lon="0.2721">
        <ele>2812</ele>
        <time>2013-12-15T11:42:52Z</time>
      </trkpt>
      <trkpt lat="42.87575" lon="0.27217">
        <ele>2813</ele>
        <time>2013-12-15T11:43:05Z</time>
      </trkpt>
      <trkpt lat="42.87572" lon="0.27225">
        <ele>2815</ele>
        <time>2013-12-15T11:43:19Z</time>
      </trkpt>
      <trkpt lat="42.87569" lon="0.27227">
        <ele>2816</ele>
        <time>2013-12-15T11:43:36Z</time>
      </trkpt>
      <trkpt lat="42.87573" lon="0.27226">
        <ele>2818</ele>
        <time>2013-12-15T11:43:57Z</time>
      </trkpt>
      <trkpt lat="42.8758" lon="0.27224">
        <ele>2820</ele>
        <time>2013-12-15T11:44:13Z</time>
      </trkpt>
      <trkpt lat="42.87589" lon="0.27223">
        <ele>2822</ele>
        <time>2013-12-15T11:44:31Z</time>
      </trkpt>
      <trkpt lat="42.8759" lon="0.27224">
        <ele>2824</ele>
        <time>2013-12-15T11:44:43Z</time>
      </trkpt>
      <trkpt lat="42.87589" lon="0.27229">
        <ele>2824</ele>
        <time>2013-12-15T11:44:54Z</time>
      </trkpt>
      <trkpt lat="42.87587" lon="0.27237">
        <ele>2826</ele>
        <time>2013-12-15T11:45:07Z</time>
      </trkpt>
      <trkpt lat="42.87585" lon="0.27242">
        <ele>2829</ele>
        <time>2013-12-15T11:45:23Z</time>
      </trkpt>
      <trkpt lat="42.87587" lon="0.27241">
        <ele>2829</ele>
        <time>2013-12-15T11:45:34Z</time>
      </trkpt>
      <trkpt lat="42.87591" lon="0.27241">
        <ele>2831</ele>
        <time>2013-12-15T11:45:45Z</time>
      </trkpt>
      <trkpt lat="42.87594" lon="0.27243">
        <ele>2832</ele>
        <time>2013-12-15T11:45:59Z</time>
      </trkpt>
      <trkpt lat="42.87594" lon="0.27244">
        <ele>2832</ele>
        <time>2013-12-15T11:46:15Z</time>
      </trkpt>
      <trkpt lat="42.87593" lon="0.27249">
        <ele>2834</ele>
        <time>2013-12-15T11:46:29Z</time>
      </trkpt>
      <trkpt lat="42.87592" lon="0.2725">
        <ele>2834</ele>
        <time>2013-12-15T11:46:40Z</time>
      </trkpt>
      <trkpt lat="42.87592" lon="0.27249">
        <ele>2835</ele>
        <time>2013-12-15T11:46:52Z</time>
      </trkpt>
      <trkpt lat="42.87593" lon="0.2725">
        <ele>2833</ele>
        <time>2013-12-15T11:47:11Z</time>
      </trkpt>
      <trkpt lat="42.87593" lon="0.27253">
        <ele>2833</ele>
        <time>2013-12-15T11:47:39Z</time>
      </trkpt>
      <trkpt lat="42.87592" lon="0.27252">
        <ele>2833</ele>
        <time>2013-12-15T11:48:07Z</time>
      </trkpt>
      <trkpt lat="42.87593" lon="0.27253">
        <ele>2832</ele>
        <time>2013-12-15T11:48:50Z</time>
      </trkpt>
      <trkpt lat="42.87593" lon="0.27251">
        <ele>2832</ele>
        <time>2013-12-15T11:49:29Z</time>
      </trkpt>
      <trkpt lat="42.87593" lon="0.27251">
        <ele>2833</ele>
        <time>2013-12-15T11:50:03Z</time>
      </trkpt>
      <trkpt lat="42.87594" lon="0.27251">
        <ele>2833</ele>
        <time>2013-12-15T11:50:18Z</time>
      </trkpt>
      <trkpt lat="42.87593" lon="0.27252">
        <ele>2832</ele>
        <time>2013-12-15T11:51:02Z</time>
      </trkpt>
      <trkpt lat="42.87594" lon="0.27252">
        <ele>2832</ele>
        <time>2013-12-15T11:51:29Z</time>
      </trkpt>
      <trkpt lat="42.87593" lon="0.27251">
        <ele>2832</ele>
        <time>2013-12-15T11:52:05Z</time>
      </trkpt>
      <trkpt lat="42.87593" lon="0.27253">
        <ele>2832</ele>
        <time>2013-12-15T11:52:48Z</time>
      </trkpt>
      <trkpt lat="42.87593" lon="0.27253">
        <ele>2832</ele>
        <time>2013-12-15T11:53:29Z</time>
      </trkpt>
      <trkpt lat="42.87593" lon="0.27252">
        <ele>2832</ele>
        <time>2013-12-15T11:54:14Z</time>
      </trkpt>
      <trkpt lat="42.87593" lon="0.27251">
        <ele>2832</ele>
        <time>2013-12-15T11:54:57Z</time>
      </trkpt>
      <trkpt lat="42.87593" lon="0.27251">
        <ele>2832</ele>
        <time>2013-12-15T11:55:44Z</time>
      </trkpt>
      <trkpt lat="42.87594" lon="0.27253">
        <ele>2832</ele>
        <time>2013-12-15T11:56:26Z</time>
      </trkpt>
      <trkpt lat="42.87593" lon="0.2725">
        <ele>2832</ele>
        <time>2013-12-15T11:56:59Z</time>
      </trkpt>
      <trkpt lat="42.87592" lon="0.27252">
        <ele>2832</ele>
        <time>2013-12-15T11:57:35Z</time>
      </trkpt>
      <trkpt lat="42.87591" lon="0.27252">
        <ele>2832</ele>
        <time>2013-12-15T11:58:06Z</time>
      </trkpt>
      <trkpt lat="42.87591" lon="0.27252">
        <ele>2832</ele>
        <time>2013-12-15T11:58:39Z</time>
      </trkpt>
      <trkpt lat="42.87591" lon="0.2725">
        <ele>2832</ele>
        <time>2013-12-15T11:59:19Z</time>
      </trkpt>
      <trkpt lat="42.8759" lon="0.2725">
        <ele>2832</ele>
        <time>2013-12-15T12:00:00Z</time>
      </trkpt>
      <trkpt lat="42.8759" lon="0.2725">
        <ele>2832</ele>
        <time>2013-12-15T12:00:31Z</time>
      </trkpt>
      <trkpt lat="42.87591" lon="0.27252">
        <ele>2832</ele>
        <time>2013-12-15T12:01:00Z</time>
      </trkpt>
      <trkpt lat="42.87592" lon="0.27249">
        <ele>2832</ele>
        <time>2013-12-15T12:01:27Z</time>
      </trkpt>
      <trkpt lat="42.87593" lon="0.27251">
        <ele>2832</ele>
        <time>2013-12-15T12:01:58Z</time>
      </trkpt>
      <trkpt lat="42.87593" lon="0.27251">
        <ele>2832</ele>
        <time>2013-12-15T12:02:23Z</time>
      </trkpt>
      <trkpt lat="42.87593" lon="0.27252">
        <ele>2833</ele>
        <time>2013-12-15T12:02:55Z</time>
      </trkpt>
      <trkpt lat="42.87593" lon="0.27253">
        <ele>2832</ele>
        <time>2013-12-15T12:03:28Z</time>
      </trkpt>
      <trkpt lat="42.87593" lon="0.27251">
        <ele>2832</ele>
        <time>2013-12-15T12:03:56Z</time>
      </trkpt>
      <trkpt lat="42.87592" lon="0.27251">
        <ele>2832</ele>
        <time>2013-12-15T12:04:33Z</time>
      </trkpt>
      <trkpt lat="42.87592" lon="0.27249">
        <ele>2833</ele>
        <time>2013-12-15T12:04:58Z</time>
      </trkpt>
      <trkpt lat="42.87592" lon="0.27249">
        <ele>2832</ele>
        <time>2013-12-15T12:05:38Z</time>
      </trkpt>
      <trkpt lat="42.87591" lon="0.27247">
        <ele>2833</ele>
        <time>2013-12-15T12:05:57Z</time>
      </trkpt>
      <trkpt lat="42.87591" lon="0.27248">
        <ele>2833</ele>
        <time>2013-12-15T12:06:20Z</time>
      </trkpt>
      <trkpt lat="42.87593" lon="0.2725">
        <ele>2833</ele>
        <time>2013-12-15T12:06:38Z</time>
      </trkpt>
      <trkpt lat="42.87594" lon="0.27252">
        <ele>2833</ele>
        <time>2013-12-15T12:07:00Z</time>
      </trkpt>
      <trkpt lat="42.87593" lon="0.27251">
        <ele>2834</ele>
        <time>2013-12-15T12:07:20Z</time>
      </trkpt>
      <trkpt lat="42.87594" lon="0.27251">
        <ele>2833</ele>
        <time>2013-12-15T12:07:43Z</time>
      </trkpt>
      <trkpt lat="42.87593" lon="0.2725">
        <ele>2833</ele>
        <time>2013-12-15T12:07:56Z</time>
      </trkpt>
      <trkpt lat="42.87594" lon="0.2725">
        <ele>2833</ele>
        <time>2013-12-15T12:08:14Z</time>
      </trkpt>
      <trkpt lat="42.87595" lon="0.27251">
        <ele>2833</ele>
        <time>2013-12-15T12:08:36Z</time>
      </trkpt>
      <trkpt lat="42.87595" lon="0.27253">
        <ele>2833</ele>
        <time>2013-12-15T12:09:01Z</time>
      </trkpt>
      <trkpt lat="42.87593" lon="0.27248">
        <ele>2832</ele>
        <time>2013-12-15T12:09:17Z</time>
      </trkpt>
      <trkpt lat="42.87592" lon="0.27247">
        <ele>2832</ele>
        <time>2013-12-15T12:09:21Z</time>
      </trkpt>
      <trkpt lat="42.87589" lon="0.27245">
        <ele>2830</ele>
        <time>2013-12-15T12:09:25Z</time>
      </trkpt>
      <trkpt lat="42.87586" lon="0.2724">
        <ele>2827</ele>
        <time>2013-12-15T12:09:36Z</time>
      </trkpt>
      <trkpt lat="42.87586" lon="0.27239">
        <ele>2826</ele>
        <time>2013-12-15T12:09:51Z</time>
      </trkpt>
      <trkpt lat="42.87584" lon="0.27233">
        <ele>2825</ele>
        <time>2013-12-15T12:09:54Z</time>
      </trkpt>
      <trkpt lat="42.87582" lon="0.27233">
        <ele>2823</ele>
        <time>2013-12-15T12:09:55Z</time>
      </trkpt>
      <trkpt lat="42.8758" lon="0.27234">
        <ele>2822</ele>
        <time>2013-12-15T12:09:56Z</time>
      </trkpt>
      <trkpt lat="42.87578" lon="0.27232">
        <ele>2823</ele>
        <time>2013-12-15T12:09:57Z</time>
      </trkpt>
      <trkpt lat="42.87577" lon="0.27229">
        <ele>2820</ele>
        <time>2013-12-15T12:09:58Z</time>
      </trkpt>
      <trkpt lat="42.87578" lon="0.27227">
        <ele>2819</ele>
        <time>2013-12-15T12:09:59Z</time>
      </trkpt>
      <trkpt lat="42.87579" lon="0.27225">
        <ele>2818</ele>
        <time>2013-12-15T12:10:00Z</time>
      </trkpt>
      <trkpt lat="42.87579" lon="0.27222">
        <ele>2817</ele>
        <time>2013-12-15T12:10:01Z</time>
      </trkpt>
      <trkpt lat="42.87578" lon="0.27219">
        <ele>2817</ele>
        <time>2013-12-15T12:10:02Z</time>
      </trkpt>
      <trkpt lat="42.87576" lon="0.27217">
        <ele>2816</ele>
        <time>2013-12-15T12:10:03Z</time>
      </trkpt>
      <trkpt lat="42.87575" lon="0.27217">
        <ele>2815</ele>
        <time>2013-12-15T12:10:04Z</time>
      </trkpt>
      <trkpt lat="42.87573" lon="0.27217">
        <ele>2814</ele>
        <time>2013-12-15T12:10:05Z</time>
      </trkpt>
      <trkpt lat="42.87571" lon="0.27216">
        <ele>2814</ele>
        <time>2013-12-15T12:10:06Z</time>
      </trkpt>
      <trkpt lat="42.8757" lon="0.27213">
        <ele>2812</ele>
        <time>2013-12-15T12:10:07Z</time>
      </trkpt>
      <trkpt lat="42.8757" lon="0.27211">
        <ele>2811</ele>
        <time>2013-12-15T12:10:08Z</time>
      </trkpt>
      <trkpt lat="42.87571" lon="0.27209">
        <ele>2810</ele>
        <time>2013-12-15T12:10:09Z</time>
      </trkpt>
      <trkpt lat="42.87573" lon="0.27204">
        <ele>2809</ele>
        <time>2013-12-15T12:10:11Z</time>
      </trkpt>
      <trkpt lat="42.87569" lon="0.27194">
        <ele>2805</ele>
        <time>2013-12-15T12:10:15Z</time>
      </trkpt>
      <trkpt lat="42.87569" lon="0.27188">
        <ele>2803</ele>
        <time>2013-12-15T12:10:17Z</time>
      </trkpt>
      <trkpt lat="42.87564" lon="0.27182">
        <ele>2800</ele>
        <time>2013-12-15T12:10:19Z</time>
      </trkpt>
      <trkpt lat="42.87565" lon="0.27179">
        <ele>2798</ele>
        <time>2013-12-15T12:10:20Z</time>
      </trkpt>
      <trkpt lat="42.8756" lon="0.27169">
        <ele>2794</ele>
        <time>2013-12-15T12:10:26Z</time>
      </trkpt>
      <trkpt lat="42.87558" lon="0.2717">
        <ele>2793</ele>
        <time>2013-12-15T12:10:27Z</time>
      </trkpt>
      <trkpt lat="42.87543" lon="0.27177">
        <ele>2790</ele>
        <time>2013-12-15T12:10:33Z</time>
      </trkpt>
      <trkpt lat="42.87528" lon="0.27196">
        <ele>2787</ele>
        <time>2013-12-15T12:10:46Z</time>
      </trkpt>
      <trkpt lat="42.87529" lon="0.27195">
        <ele>2787</ele>
        <time>2013-12-15T12:11:13Z</time>
      </trkpt>
      <trkpt lat="42.87527" lon="0.27193">
        <ele>2787</ele>
        <time>2013-12-15T12:11:19Z</time>
      </trkpt>
      <trkpt lat="42.87526" lon="0.2719">
        <ele>2785</ele>
        <time>2013-12-15T12:11:20Z</time>
      </trkpt>
      <trkpt lat="42.87527" lon="0.27187">
        <ele>2785</ele>
        <time>2013-12-15T12:11:21Z</time>
      </trkpt>
      <trkpt lat="42.87531" lon="0.27178">
        <ele>2783</ele>
        <time>2013-12-15T12:11:24Z</time>
      </trkpt>
      <trkpt lat="42.87535" lon="0.2717">
        <ele>2782</ele>
        <time>2013-12-15T12:11:27Z</time>
      </trkpt>
      <trkpt lat="42.87531" lon="0.27162">
        <ele>2777</ele>
        <time>2013-12-15T12:11:31Z</time>
      </trkpt>
      <trkpt lat="42.87531" lon="0.27156">
        <ele>2775</ele>
        <time>2013-12-15T12:11:33Z</time>
      </trkpt>
      <trkpt lat="42.87533" lon="0.27148">
        <ele>2772</ele>
        <time>2013-12-15T12:11:36Z</time>
      </trkpt>
      <trkpt lat="42.87529" lon="0.2714">
        <ele>2768</ele>
        <time>2013-12-15T12:11:39Z</time>
      </trkpt>
      <trkpt lat="42.87526" lon="0.27133">
        <ele>2764</ele>
        <time>2013-12-15T12:11:42Z</time>
      </trkpt>
      <trkpt lat="42.87529" lon="0.27128">
        <ele>2762</ele>
        <time>2013-12-15T12:11:44Z</time>
      </trkpt>
      <trkpt lat="42.87532" lon="0.27123">
        <ele>2761</ele>
        <time>2013-12-15T12:11:46Z</time>
      </trkpt>
      <trkpt lat="42.87529" lon="0.27118">
        <ele>2758</ele>
        <time>2013-12-15T12:11:48Z</time>
      </trkpt>
      <trkpt lat="42.87525" lon="0.27117">
        <ele>2755</ele>
        <time>2013-12-15T12:11:50Z</time>
      </trkpt>
      <trkpt lat="42.87523" lon="0.27113">
        <ele>2753</ele>
        <time>2013-12-15T12:11:52Z</time>
      </trkpt>
      <trkpt lat="42.87524" lon="0.2711">
        <ele>2751</ele>
        <time>2013-12-15T12:11:53Z</time>
      </trkpt>
      <trkpt lat="42.87525" lon="0.27109">
        <ele>2750</ele>
        <time>2013-12-15T12:11:54Z</time>
      </trkpt>
      <trkpt lat="42.87525" lon="0.27108">
        <ele>2750</ele>
        <time>2013-12-15T12:11:55Z</time>
      </trkpt>
      <trkpt lat="42.87527" lon="0.27109">
        <ele>2750</ele>
        <time>2013-12-15T12:12:03Z</time>
      </trkpt>
      <trkpt lat="42.87527" lon="0.27108">
        <ele>2749</ele>
        <time>2013-12-15T12:12:04Z</time>
      </trkpt>
      <trkpt lat="42.87528" lon="0.27105">
        <ele>2749</ele>
        <time>2013-12-15T12:12:05Z</time>
      </trkpt>
      <trkpt lat="42.87526" lon="0.27102">
        <ele>2749</ele>
        <time>2013-12-15T12:12:06Z</time>
      </trkpt>
      <trkpt lat="42.87524" lon="0.27101">
        <ele>2747</ele>
        <time>2013-12-15T12:12:07Z</time>
      </trkpt>
      <trkpt lat="42.87517" lon="0.27103">
        <ele>2744</ele>
        <time>2013-12-15T12:12:11Z</time>
      </trkpt>
      <trkpt lat="42.87511" lon="0.27102">
        <ele>2742</ele>
        <time>2013-12-15T12:12:16Z</time>
      </trkpt>
      <trkpt lat="42.8751" lon="0.271">
        <ele>2739</ele>
        <time>2013-12-15T12:12:17Z</time>
      </trkpt>
      <trkpt lat="42.8751" lon="0.27092">
        <ele>2737</ele>
        <time>2013-12-15T12:12:21Z</time>
      </trkpt>
      <trkpt lat="42.87508" lon="0.2709">
        <ele>2737</ele>
        <time>2013-12-15T12:12:22Z</time>
      </trkpt>
      <trkpt lat="42.87507" lon="0.27089">
        <ele>2733</ele>
        <time>2013-12-15T12:12:24Z</time>
      </trkpt>
      <trkpt lat="42.87507" lon="0.27088">
        <ele>2733</ele>
        <time>2013-12-15T12:12:26Z</time>
      </trkpt>
      <trkpt lat="42.87507" lon="0.27086">
        <ele>2732</ele>
        <time>2013-12-15T12:12:27Z</time>
      </trkpt>
      <trkpt lat="42.87506" lon="0.27084">
        <ele>2730</ele>
        <time>2013-12-15T12:12:28Z</time>
      </trkpt>
      <trkpt lat="42.87507" lon="0.27082">
        <ele>2729</ele>
        <time>2013-12-15T12:12:29Z</time>
      </trkpt>
      <trkpt lat="42.87508" lon="0.27074">
        <ele>2726</ele>
        <time>2013-12-15T12:12:36Z</time>
      </trkpt>
      <trkpt lat="42.87505" lon="0.27072">
        <ele>2724</ele>
        <time>2013-12-15T12:12:39Z</time>
      </trkpt>
      <trkpt lat="42.87505" lon="0.27073">
        <ele>2723</ele>
        <time>2013-12-15T12:12:40Z</time>
      </trkpt>
      <trkpt lat="42.87503" lon="0.27069">
        <ele>2719</ele>
        <time>2013-12-15T12:12:44Z</time>
      </trkpt>
      <trkpt lat="42.87504" lon="0.2707">
        <ele>2718</ele>
        <time>2013-12-15T12:12:46Z</time>
      </trkpt>
      <trkpt lat="42.87506" lon="0.27057">
        <ele>2717</ele>
        <time>2013-12-15T12:13:13Z</time>
      </trkpt>
      <trkpt lat="42.87508" lon="0.27049">
        <ele>2716</ele>
        <time>2013-12-15T12:13:18Z</time>
      </trkpt>
      <trkpt lat="42.87511" lon="0.27038">
        <ele>2714</ele>
        <time>2013-12-15T12:13:22Z</time>
      </trkpt>
      <trkpt lat="42.87516" lon="0.27026">
        <ele>2712</ele>
        <time>2013-12-15T12:13:25Z</time>
      </trkpt>
      <trkpt lat="42.87525" lon="0.27009">
        <ele>2709</ele>
        <time>2013-12-15T12:13:29Z</time>
      </trkpt>
      <trkpt lat="42.87535" lon="0.26985">
        <ele>2705</ele>
        <time>2013-12-15T12:13:34Z</time>
      </trkpt>
      <trkpt lat="42.87539" lon="0.26975">
        <ele>2704</ele>
        <time>2013-12-15T12:13:36Z</time>
      </trkpt>
      <trkpt lat="42.87544" lon="0.2696">
        <ele>2700</ele>
        <time>2013-12-15T12:13:39Z</time>
      </trkpt>
      <trkpt lat="42.87553" lon="0.26944">
        <ele>2696</ele>
        <time>2013-12-15T12:13:43Z</time>
      </trkpt>
      <trkpt lat="42.8756" lon="0.26932">
        <ele>2693</ele>
        <time>2013-12-15T12:13:47Z</time>
      </trkpt>
      <trkpt lat="42.87565" lon="0.26915">
        <ele>2689</ele>
        <time>2013-12-15T12:13:51Z</time>
      </trkpt>
      <trkpt lat="42.87571" lon="0.26897">
        <ele>2685</ele>
        <time>2013-12-15T12:13:55Z</time>
      </trkpt>
      <trkpt lat="42.87577" lon="0.26876">
        <ele>2681</ele>
        <time>2013-12-15T12:14:00Z</time>
      </trkpt>
      <trkpt lat="42.8758" lon="0.26859">
        <ele>2678</ele>
        <time>2013-12-15T12:14:04Z</time>
      </trkpt>
      <trkpt lat="42.87582" lon="0.26842">
        <ele>2675</ele>
        <time>2013-12-15T12:14:08Z</time>
      </trkpt>
      <trkpt lat="42.87582" lon="0.26827">
        <ele>2671</ele>
        <time>2013-12-15T12:14:12Z</time>
      </trkpt>
      <trkpt lat="42.87582" lon="0.26816">
        <ele>2667</ele>
        <time>2013-12-15T12:14:15Z</time>
      </trkpt>
      <trkpt lat="42.87582" lon="0.26802">
        <ele>2664</ele>
        <time>2013-12-15T12:14:19Z</time>
      </trkpt>
      <trkpt lat="42.87583" lon="0.2679">
        <ele>2660</ele>
        <time>2013-12-15T12:14:22Z</time>
      </trkpt>
      <trkpt lat="42.87585" lon="0.26784">
        <ele>2658</ele>
        <time>2013-12-15T12:14:27Z</time>
      </trkpt>
      <trkpt lat="42.87585" lon="0.26772">
        <ele>2655</ele>
        <time>2013-12-15T12:14:30Z</time>
      </trkpt>
      <trkpt lat="42.87586" lon="0.26759">
        <ele>2652</ele>
        <time>2013-12-15T12:14:33Z</time>
      </trkpt>
      <trkpt lat="42.87586" lon="0.26755">
        <ele>2652</ele>
        <time>2013-12-15T12:14:34Z</time>
      </trkpt>
      <trkpt lat="42.87586" lon="0.26733">
        <ele>2649</ele>
        <time>2013-12-15T12:14:39Z</time>
      </trkpt>
      <trkpt lat="42.87584" lon="0.26712">
        <ele>2645</ele>
        <time>2013-12-15T12:14:44Z</time>
      </trkpt>
      <trkpt lat="42.87584" lon="0.26705">
        <ele>2643</ele>
        <time>2013-12-15T12:14:47Z</time>
      </trkpt>
      <trkpt lat="42.87582" lon="0.26704">
        <ele>2643</ele>
        <time>2013-12-15T12:14:55Z</time>
      </trkpt>
      <trkpt lat="42.87581" lon="0.26703">
        <ele>2642</ele>
        <time>2013-12-15T12:14:56Z</time>
      </trkpt>
      <trkpt lat="42.87579" lon="0.26701">
        <ele>2641</ele>
        <time>2013-12-15T12:14:57Z</time>
      </trkpt>
      <trkpt lat="42.87576" lon="0.26704">
        <ele>2639</ele>
        <time>2013-12-15T12:14:59Z</time>
      </trkpt>
      <trkpt lat="42.87575" lon="0.2671">
        <ele>2637</ele>
        <time>2013-12-15T12:15:02Z</time>
      </trkpt>
      <trkpt lat="42.87569" lon="0.26706">
        <ele>2633</ele>
        <time>2013-12-15T12:15:06Z</time>
      </trkpt>
      <trkpt lat="42.87566" lon="0.2671">
        <ele>2631</ele>
        <time>2013-12-15T12:15:08Z</time>
      </trkpt>
      <trkpt lat="42.87561" lon="0.26729">
        <ele>2626</ele>
        <time>2013-12-15T12:15:13Z</time>
      </trkpt>
      <trkpt lat="42.87555" lon="0.26726">
        <ele>2622</ele>
        <time>2013-12-15T12:15:16Z</time>
      </trkpt>
      <trkpt lat="42.87554" lon="0.26724">
        <ele>2622</ele>
        <time>2013-12-15T12:15:17Z</time>
      </trkpt>
      <trkpt lat="42.87549" lon="0.26725">
        <ele>2619</ele>
        <time>2013-12-15T12:15:19Z</time>
      </trkpt>
      <trkpt lat="42.87548" lon="0.26724">
        <ele>2616</ele>
        <time>2013-12-15T12:15:20Z</time>
      </trkpt>
      <trkpt lat="42.8754" lon="0.26721">
        <ele>2611</ele>
        <time>2013-12-15T12:15:24Z</time>
      </trkpt>
      <trkpt lat="42.8754" lon="0.26723">
        <ele>2610</ele>
        <time>2013-12-15T12:15:25Z</time>
      </trkpt>
      <trkpt lat="42.87533" lon="0.2672">
        <ele>2606</ele>
        <time>2013-12-15T12:15:29Z</time>
      </trkpt>
      <trkpt lat="42.8753" lon="0.26726">
        <ele>2601</ele>
        <time>2013-12-15T12:15:31Z</time>
      </trkpt>
      <trkpt lat="42.87524" lon="0.26742">
        <ele>2599</ele>
        <time>2013-12-15T12:15:36Z</time>
      </trkpt>
      <trkpt lat="42.87523" lon="0.26753">
        <ele>2596</ele>
        <time>2013-12-15T12:15:39Z</time>
      </trkpt>
      <trkpt lat="42.87522" lon="0.26755">
        <ele>2596</ele>
        <time>2013-12-15T12:15:40Z</time>
      </trkpt>
      <trkpt lat="42.87515" lon="0.26766">
        <ele>2594</ele>
        <time>2013-12-15T12:15:44Z</time>
      </trkpt>
      <trkpt lat="42.87512" lon="0.2676">
        <ele>2588</ele>
        <time>2013-12-15T12:15:47Z</time>
      </trkpt>
      <trkpt lat="42.875" lon="0.26766">
        <ele>2585</ele>
        <time>2013-12-15T12:15:51Z</time>
      </trkpt>
      <trkpt lat="42.87495" lon="0.26773">
        <ele>2583</ele>
        <time>2013-12-15T12:15:53Z</time>
      </trkpt>
      <trkpt lat="42.8748" lon="0.26796">
        <ele>2578</ele>
        <time>2013-12-15T12:15:58Z</time>
      </trkpt>
      <trkpt lat="42.87461" lon="0.26819">
        <ele>2575</ele>
        <time>2013-12-15T12:16:04Z</time>
      </trkpt>
      <trkpt lat="42.87451" lon="0.2683">
        <ele>2571</ele>
        <time>2013-12-15T12:16:07Z</time>
      </trkpt>
      <trkpt lat="42.87441" lon="0.26841">
        <ele>2569</ele>
        <time>2013-12-15T12:16:10Z</time>
      </trkpt>
      <trkpt lat="42.87426" lon="0.2685">
        <ele>2566</ele>
        <time>2013-12-15T12:16:17Z</time>
      </trkpt>
      <trkpt lat="42.87427" lon="0.26849">
        <ele>2566</ele>
        <time>2013-12-15T12:16:42Z</time>
      </trkpt>
      <trkpt lat="42.87428" lon="0.26854">
        <ele>2566</ele>
        <time>2013-12-15T12:17:09Z</time>
      </trkpt>
      <trkpt lat="42.8742" lon="0.26853">
        <ele>2565</ele>
        <time>2013-12-15T12:17:22Z</time>
      </trkpt>
      <trkpt lat="42.87418" lon="0.26853">
        <ele>2565</ele>
        <time>2013-12-15T12:17:30Z</time>
      </trkpt>
      <trkpt lat="42.8741" lon="0.26846">
        <ele>2561</ele>
        <time>2013-12-15T12:17:35Z</time>
      </trkpt>
      <trkpt lat="42.87409" lon="0.26843">
        <ele>2561</ele>
        <time>2013-12-15T12:17:36Z</time>
      </trkpt>
      <trkpt lat="42.87407" lon="0.26841">
        <ele>2558</ele>
        <time>2013-12-15T12:17:37Z</time>
      </trkpt>
      <trkpt lat="42.87403" lon="0.26832">
        <ele>2554</ele>
        <time>2013-12-15T12:17:40Z</time>
      </trkpt>
      <trkpt lat="42.874" lon="0.26827">
        <ele>2551</ele>
        <time>2013-12-15T12:17:42Z</time>
      </trkpt>
      <trkpt lat="42.87395" lon="0.26821">
        <ele>2546</ele>
        <time>2013-12-15T12:17:44Z</time>
      </trkpt>
      <trkpt lat="42.87394" lon="0.26814">
        <ele>2545</ele>
        <time>2013-12-15T12:17:46Z</time>
      </trkpt>
      <trkpt lat="42.87392" lon="0.26809">
        <ele>2540</ele>
        <time>2013-12-15T12:17:48Z</time>
      </trkpt>
      <trkpt lat="42.87389" lon="0.26804">
        <ele>2537</ele>
        <time>2013-12-15T12:17:50Z</time>
      </trkpt>
      <trkpt lat="42.87388" lon="0.26798">
        <ele>2536</ele>
        <time>2013-12-15T12:17:52Z</time>
      </trkpt>
      <trkpt lat="42.87386" lon="0.26794">
        <ele>2533</ele>
        <time>2013-12-15T12:17:54Z</time>
      </trkpt>
      <trkpt lat="42.87385" lon="0.26789">
        <ele>2530</ele>
        <time>2013-12-15T12:17:56Z</time>
      </trkpt>
      <trkpt lat="42.87382" lon="0.26784">
        <ele>2528</ele>
        <time>2013-12-15T12:17:58Z</time>
      </trkpt>
      <trkpt lat="42.8738" lon="0.26778">
        <ele>2524</ele>
        <time>2013-12-15T12:18:00Z</time>
      </trkpt>
      <trkpt lat="42.87375" lon="0.26771">
        <ele>2521</ele>
        <time>2013-12-15T12:18:03Z</time>
      </trkpt>
      <trkpt lat="42.87375" lon="0.26765">
        <ele>2517</ele>
        <time>2013-12-15T12:18:05Z</time>
      </trkpt>
      <trkpt lat="42.8737" lon="0.26759">
        <ele>2513</ele>
        <time>2013-12-15T12:18:08Z</time>
      </trkpt>
      <trkpt lat="42.87361" lon="0.26756">
        <ele>2509</ele>
        <time>2013-12-15T12:18:13Z</time>
      </trkpt>
      <trkpt lat="42.8736" lon="0.26756">
        <ele>2508</ele>
        <time>2013-12-15T12:18:15Z</time>
      </trkpt>
      <trkpt lat="42.87361" lon="0.26758">
        <ele>2509</ele>
        <time>2013-12-15T12:18:18Z</time>
      </trkpt>
      <trkpt lat="42.87352" lon="0.2675">
        <ele>2505</ele>
        <time>2013-12-15T12:18:24Z</time>
      </trkpt>
      <trkpt lat="42.87351" lon="0.26752">
        <ele>2503</ele>
        <time>2013-12-15T12:18:35Z</time>
      </trkpt>
      <trkpt lat="42.87351" lon="0.26744">
        <ele>2500</ele>
        <time>2013-12-15T12:18:39Z</time>
      </trkpt>
      <trkpt lat="42.87354" lon="0.26741">
        <ele>2499</ele>
        <time>2013-12-15T12:18:41Z</time>
      </trkpt>
      <trkpt lat="42.8736" lon="0.26734">
        <ele>2496</ele>
        <time>2013-12-15T12:18:45Z</time>
      </trkpt>
      <trkpt lat="42.87358" lon="0.26723">
        <ele>2491</ele>
        <time>2013-12-15T12:18:48Z</time>
      </trkpt>
      <trkpt lat="42.87357" lon="0.2672">
        <ele>2491</ele>
        <time>2013-12-15T12:18:49Z</time>
      </trkpt>
      <trkpt lat="42.87358" lon="0.26714">
        <ele>2488</ele>
        <time>2013-12-15T12:18:51Z</time>
      </trkpt>
      <trkpt lat="42.87356" lon="0.2671">
        <ele>2486</ele>
        <time>2013-12-15T12:18:52Z</time>
      </trkpt>
      <trkpt lat="42.87354" lon="0.26699">
        <ele>2479</ele>
        <time>2013-12-15T12:18:56Z</time>
      </trkpt>
      <trkpt lat="42.87351" lon="0.26692">
        <ele>2476</ele>
        <time>2013-12-15T12:18:58Z</time>
      </trkpt>
      <trkpt lat="42.8735" lon="0.26686">
        <ele>2472</ele>
        <time>2013-12-15T12:19:00Z</time>
      </trkpt>
      <trkpt lat="42.87353" lon="0.26679">
        <ele>2469</ele>
        <time>2013-12-15T12:19:03Z</time>
      </trkpt>
      <trkpt lat="42.87349" lon="0.26673">
        <ele>2466</ele>
        <time>2013-12-15T12:19:05Z</time>
      </trkpt>
      <trkpt lat="42.87335" lon="0.26665">
        <ele>2462</ele>
        <time>2013-12-15T12:19:10Z</time>
      </trkpt>
      <trkpt lat="42.87334" lon="0.26659">
        <ele>2458</ele>
        <time>2013-12-15T12:19:13Z</time>
      </trkpt>
      <trkpt lat="42.87337" lon="0.26653">
        <ele>2454</ele>
        <time>2013-12-15T12:19:16Z</time>
      </trkpt>
      <trkpt lat="42.87343" lon="0.26643">
        <ele>2452</ele>
        <time>2013-12-15T12:19:18Z</time>
      </trkpt>
      <trkpt lat="42.87346" lon="0.26638">
        <ele>2451</ele>
        <time>2013-12-15T12:19:19Z</time>
      </trkpt>
      <trkpt lat="42.87354" lon="0.26615">
        <ele>2449</ele>
        <time>2013-12-15T12:19:24Z</time>
      </trkpt>
      <trkpt lat="42.87356" lon="0.26602">
        <ele>2447</ele>
        <time>2013-12-15T12:19:33Z</time>
      </trkpt>
      <trkpt lat="42.87356" lon="0.26591">
        <ele>2446</ele>
        <time>2013-12-15T12:19:43Z</time>
      </trkpt>
      <trkpt lat="42.87357" lon="0.26576">
        <ele>2442</ele>
        <time>2013-12-15T12:19:48Z</time>
      </trkpt>
      <trkpt lat="42.87358" lon="0.26573">
        <ele>2441</ele>
        <time>2013-12-15T12:19:49Z</time>
      </trkpt>
      <trkpt lat="42.8735" lon="0.26561">
        <ele>2436</ele>
        <time>2013-12-15T12:19:53Z</time>
      </trkpt>
      <trkpt lat="42.87349" lon="0.26553">
        <ele>2432</ele>
        <time>2013-12-15T12:19:55Z</time>
      </trkpt>
      <trkpt lat="42.87343" lon="0.26549">
        <ele>2429</ele>
        <time>2013-12-15T12:19:57Z</time>
      </trkpt>
      <trkpt lat="42.87344" lon="0.26536">
        <ele>2425</ele>
        <time>2013-12-15T12:20:00Z</time>
      </trkpt>
      <trkpt lat="42.87339" lon="0.26531">
        <ele>2421</ele>
        <time>2013-12-15T12:20:03Z</time>
      </trkpt>
      <trkpt lat="42.87335" lon="0.26527">
        <ele>2417</ele>
        <time>2013-12-15T12:20:05Z</time>
      </trkpt>
      <trkpt lat="42.87336" lon="0.26518">
        <ele>2414</ele>
        <time>2013-12-15T12:20:08Z</time>
      </trkpt>
      <trkpt lat="42.8734" lon="0.26493">
        <ele>2409</ele>
        <time>2013-12-15T12:20:13Z</time>
      </trkpt>
      <trkpt lat="42.8734" lon="0.26489">
        <ele>2408</ele>
        <time>2013-12-15T12:20:14Z</time>
      </trkpt>
      <trkpt lat="42.87335" lon="0.26487">
        <ele>2407</ele>
        <time>2013-12-15T12:20:16Z</time>
      </trkpt>
      <trkpt lat="42.8733" lon="0.26492">
        <ele>2403</ele>
        <time>2013-12-15T12:20:18Z</time>
      </trkpt>
      <trkpt lat="42.87325" lon="0.26491">
        <ele>2401</ele>
        <time>2013-12-15T12:20:20Z</time>
      </trkpt>
      <trkpt lat="42.87319" lon="0.26491">
        <ele>2397</ele>
        <time>2013-12-15T12:20:22Z</time>
      </trkpt>
      <trkpt lat="42.87316" lon="0.26486">
        <ele>2393</ele>
        <time>2013-12-15T12:20:24Z</time>
      </trkpt>
      <trkpt lat="42.87311" lon="0.26482">
        <ele>2389</ele>
        <time>2013-12-15T12:20:26Z</time>
      </trkpt>
      <trkpt lat="42.87305" lon="0.26486">
        <ele>2383</ele>
        <time>2013-12-15T12:20:29Z</time>
      </trkpt>
      <trkpt lat="42.87296" lon="0.26475">
        <ele>2379</ele>
        <time>2013-12-15T12:20:32Z</time>
      </trkpt>
      <trkpt lat="42.87289" lon="0.26475">
        <ele>2375</ele>
        <time>2013-12-15T12:20:34Z</time>
      </trkpt>
      <trkpt lat="42.87276" lon="0.26469">
        <ele>2368</ele>
        <time>2013-12-15T12:20:38Z</time>
      </trkpt>
      <trkpt lat="42.87273" lon="0.26465">
        <ele>2366</ele>
        <time>2013-12-15T12:20:39Z</time>
      </trkpt>
      <trkpt lat="42.87269" lon="0.26462">
        <ele>2364</ele>
        <time>2013-12-15T12:20:40Z</time>
      </trkpt>
      <trkpt lat="42.87265" lon="0.26464">
        <ele>2362</ele>
        <time>2013-12-15T12:20:41Z</time>
      </trkpt>
      <trkpt lat="42.87262" lon="0.2647">
        <ele>2361</ele>
        <time>2013-12-15T12:20:43Z</time>
      </trkpt>
      <trkpt lat="42.87265" lon="0.26474">
        <ele>2361</ele>
        <time>2013-12-15T12:20:56Z</time>
      </trkpt>
      <trkpt lat="42.87265" lon="0.26474">
        <ele>2360</ele>
        <time>2013-12-15T12:21:00Z</time>
      </trkpt>
      <trkpt lat="42.87261" lon="0.26475">
        <ele>2360</ele>
        <time>2013-12-15T12:21:02Z</time>
      </trkpt>
      <trkpt lat="42.87258" lon="0.26473">
        <ele>2360</ele>
        <time>2013-12-15T12:21:03Z</time>
      </trkpt>
      <trkpt lat="42.87257" lon="0.26469">
        <ele>2357</ele>
        <time>2013-12-15T12:21:04Z</time>
      </trkpt>
      <trkpt lat="42.87254" lon="0.26465">
        <ele>2357</ele>
        <time>2013-12-15T12:21:05Z</time>
      </trkpt>
      <trkpt lat="42.87251" lon="0.26463">
        <ele>2354</ele>
        <time>2013-12-15T12:21:06Z</time>
      </trkpt>
      <trkpt lat="42.87248" lon="0.26459">
        <ele>2352</ele>
        <time>2013-12-15T12:21:07Z</time>
      </trkpt>
      <trkpt lat="42.87247" lon="0.26453">
        <ele>2350</ele>
        <time>2013-12-15T12:21:08Z</time>
      </trkpt>
      <trkpt lat="42.87245" lon="0.2645">
        <ele>2350</ele>
        <time>2013-12-15T12:21:09Z</time>
      </trkpt>
      <trkpt lat="42.87242" lon="0.26447">
        <ele>2347</ele>
        <time>2013-12-15T12:21:10Z</time>
      </trkpt>
      <trkpt lat="42.87239" lon="0.26443">
        <ele>2345</ele>
        <time>2013-12-15T12:21:11Z</time>
      </trkpt>
      <trkpt lat="42.87237" lon="0.26438">
        <ele>2342</ele>
        <time>2013-12-15T12:21:12Z</time>
      </trkpt>
      <trkpt lat="42.87233" lon="0.26435">
        <ele>2342</ele>
        <time>2013-12-15T12:21:13Z</time>
      </trkpt>
      <trkpt lat="42.87229" lon="0.26432">
        <ele>2338</ele>
        <time>2013-12-15T12:21:14Z</time>
      </trkpt>
      <trkpt lat="42.87226" lon="0.26429">
        <ele>2336</ele>
        <time>2013-12-15T12:21:15Z</time>
      </trkpt>
      <trkpt lat="42.87219" lon="0.26424">
        <ele>2331</ele>
        <time>2013-12-15T12:21:17Z</time>
      </trkpt>
      <trkpt lat="42.87216" lon="0.26425">
        <ele>2329</ele>
        <time>2013-12-15T12:21:18Z</time>
      </trkpt>
      <trkpt lat="42.87215" lon="0.26425">
        <ele>2329</ele>
        <time>2013-12-15T12:21:19Z</time>
      </trkpt>
      <trkpt lat="42.87216" lon="0.26428">
        <ele>2329</ele>
        <time>2013-12-15T12:21:33Z</time>
      </trkpt>
      <trkpt lat="42.87219" lon="0.26429">
        <ele>2328</ele>
        <time>2013-12-15T12:21:58Z</time>
      </trkpt>
      <trkpt lat="42.87218" lon="0.26429">
        <ele>2328</ele>
        <time>2013-12-15T12:21:59Z</time>
      </trkpt>
      <trkpt lat="42.87217" lon="0.26429">
        <ele>2328</ele>
        <time>2013-12-15T12:22:00Z</time>
      </trkpt>
      <trkpt lat="42.87214" lon="0.2643">
        <ele>2328</ele>
        <time>2013-12-15T12:22:01Z</time>
      </trkpt>
      <trkpt lat="42.87211" lon="0.26428">
        <ele>2327</ele>
        <time>2013-12-15T12:22:02Z</time>
      </trkpt>
      <trkpt lat="42.87205" lon="0.26423">
        <ele>2324</ele>
        <time>2013-12-15T12:22:04Z</time>
      </trkpt>
      <trkpt lat="42.87201" lon="0.26421">
        <ele>2320</ele>
        <time>2013-12-15T12:22:05Z</time>
      </trkpt>
      <trkpt lat="42.87196" lon="0.26413">
        <ele>2317</ele>
        <time>2013-12-15T12:22:07Z</time>
      </trkpt>
      <trkpt lat="42.87188" lon="0.26412">
        <ele>2314</ele>
        <time>2013-12-15T12:22:09Z</time>
      </trkpt>
      <trkpt lat="42.87186" lon="0.2641">
        <ele>2311</ele>
        <time>2013-12-15T12:22:10Z</time>
      </trkpt>
      <trkpt lat="42.87181" lon="0.26402">
        <ele>2307</ele>
        <time>2013-12-15T12:22:12Z</time>
      </trkpt>
      <trkpt lat="42.87172" lon="0.26403">
        <ele>2304</ele>
        <time>2013-12-15T12:22:14Z</time>
      </trkpt>
      <trkpt lat="42.87166" lon="0.26396">
        <ele>2301</ele>
        <time>2013-12-15T12:22:16Z</time>
      </trkpt>
      <trkpt lat="42.87155" lon="0.26388">
        <ele>2296</ele>
        <time>2013-12-15T12:22:19Z</time>
      </trkpt>
      <trkpt lat="42.87152" lon="0.26385">
        <ele>2292</ele>
        <time>2013-12-15T12:22:20Z</time>
      </trkpt>
      <trkpt lat="42.87146" lon="0.26385">
        <ele>2289</ele>
        <time>2013-12-15T12:22:22Z</time>
      </trkpt>
      <trkpt lat="42.87145" lon="0.26389">
        <ele>2287</ele>
        <time>2013-12-15T12:22:26Z</time>
      </trkpt>
      <trkpt lat="42.87146" lon="0.26389">
        <ele>2288</ele>
        <time>2013-12-15T12:22:45Z</time>
      </trkpt>
      <trkpt lat="42.87144" lon="0.26391">
        <ele>2287</ele>
        <time>2013-12-15T12:22:54Z</time>
      </trkpt>
      <trkpt lat="42.87141" lon="0.2639">
        <ele>2285</ele>
        <time>2013-12-15T12:22:58Z</time>
      </trkpt>
      <trkpt lat="42.8714" lon="0.2639">
        <ele>2285</ele>
        <time>2013-12-15T12:23:12Z</time>
      </trkpt>
      <trkpt lat="42.87141" lon="0.26374">
        <ele>2283</ele>
        <time>2013-12-15T12:23:17Z</time>
      </trkpt>
      <trkpt lat="42.8714" lon="0.26362">
        <ele>2282</ele>
        <time>2013-12-15T12:23:19Z</time>
      </trkpt>
      <trkpt lat="42.8713" lon="0.26355">
        <ele>2279</ele>
        <time>2013-12-15T12:23:23Z</time>
      </trkpt>
      <trkpt lat="42.87125" lon="0.26358">
        <ele>2272</ele>
        <time>2013-12-15T12:23:26Z</time>
      </trkpt>
      <trkpt lat="42.87122" lon="0.26359">
        <ele>2273</ele>
        <time>2013-12-15T12:23:27Z</time>
      </trkpt>
      <trkpt lat="42.87117" lon="0.26364">
        <ele>2268</ele>
        <time>2013-12-15T12:23:30Z</time>
      </trkpt>
      <trkpt lat="42.87112" lon="0.26362">
        <ele>2264</ele>
        <time>2013-12-15T12:23:32Z</time>
      </trkpt>
      <trkpt lat="42.87106" lon="0.26365">
        <ele>2260</ele>
        <time>2013-12-15T12:23:34Z</time>
      </trkpt>
      <trkpt lat="42.87099" lon="0.26368">
        <ele>2255</ele>
        <time>2013-12-15T12:23:36Z</time>
      </trkpt>
      <trkpt lat="42.8709" lon="0.2637">
        <ele>2251</ele>
        <time>2013-12-15T12:23:39Z</time>
      </trkpt>
      <trkpt lat="42.87085" lon="0.26368">
        <ele>2248</ele>
        <time>2013-12-15T12:23:41Z</time>
      </trkpt>
      <trkpt lat="42.87081" lon="0.26364">
        <ele>2247</ele>
        <time>2013-12-15T12:23:43Z</time>
      </trkpt>
      <trkpt lat="42.87076" lon="0.26362">
        <ele>2242</ele>
        <time>2013-12-15T12:23:45Z</time>
      </trkpt>
      <trkpt lat="42.87065" lon="0.2636">
        <ele>2238</ele>
        <time>2013-12-15T12:23:48Z</time>
      </trkpt>
      <trkpt lat="42.87061" lon="0.2636">
        <ele>2235</ele>
        <time>2013-12-15T12:23:49Z</time>
      </trkpt>
      <trkpt lat="42.87059" lon="0.26357">
        <ele>2234</ele>
        <time>2013-12-15T12:23:50Z</time>
      </trkpt>
      <trkpt lat="42.87058" lon="0.26354">
        <ele>2234</ele>
        <time>2013-12-15T12:23:51Z</time>
      </trkpt>
      <trkpt lat="42.87056" lon="0.26353">
        <ele>2231</ele>
        <time>2013-12-15T12:23:52Z</time>
      </trkpt>
      <trkpt lat="42.87052" lon="0.26353">
        <ele>2230</ele>
        <time>2013-12-15T12:23:53Z</time>
      </trkpt>
      <trkpt lat="42.8705" lon="0.2635">
        <ele>2227</ele>
        <time>2013-12-15T12:23:54Z</time>
      </trkpt>
      <trkpt lat="42.87049" lon="0.26349">
        <ele>2227</ele>
        <time>2013-12-15T12:23:55Z</time>
      </trkpt>
      <trkpt lat="42.8705" lon="0.26347">
        <ele>2227</ele>
        <time>2013-12-15T12:24:02Z</time>
      </trkpt>
      <trkpt lat="42.87046" lon="0.26348">
        <ele>2223</ele>
        <time>2013-12-15T12:24:06Z</time>
      </trkpt>
      <trkpt lat="42.87039" lon="0.26345">
        <ele>2219</ele>
        <time>2013-12-15T12:24:09Z</time>
      </trkpt>
      <trkpt lat="42.8703" lon="0.26342">
        <ele>2215</ele>
        <time>2013-12-15T12:24:12Z</time>
      </trkpt>
      <trkpt lat="42.87022" lon="0.26339">
        <ele>2212</ele>
        <time>2013-12-15T12:24:14Z</time>
      </trkpt>
      <trkpt lat="42.87016" lon="0.26337">
        <ele>2209</ele>
        <time>2013-12-15T12:24:16Z</time>
      </trkpt>
      <trkpt lat="42.87012" lon="0.26339">
        <ele>2205</ele>
        <time>2013-12-15T12:24:17Z</time>
      </trkpt>
      <trkpt lat="42.87009" lon="0.26341">
        <ele>2205</ele>
        <time>2013-12-15T12:24:18Z</time>
      </trkpt>
      <trkpt lat="42.87007" lon="0.26339">
        <ele>2201</ele>
        <time>2013-12-15T12:24:20Z</time>
      </trkpt>
      <trkpt lat="42.87008" lon="0.26339">
        <ele>2200</ele>
        <time>2013-12-15T12:24:29Z</time>
      </trkpt>
      <trkpt lat="42.87" lon="0.26345">
        <ele>2196</ele>
        <time>2013-12-15T12:24:34Z</time>
      </trkpt>
      <trkpt lat="42.86994" lon="0.26345">
        <ele>2193</ele>
        <time>2013-12-15T12:24:36Z</time>
      </trkpt>
      <trkpt lat="42.86988" lon="0.26343">
        <ele>2189</ele>
        <time>2013-12-15T12:24:38Z</time>
      </trkpt>
      <trkpt lat="42.86983" lon="0.26335">
        <ele>2186</ele>
        <time>2013-12-15T12:24:40Z</time>
      </trkpt>
      <trkpt lat="42.86981" lon="0.2633">
        <ele>2184</ele>
        <time>2013-12-15T12:24:43Z</time>
      </trkpt>
      <trkpt lat="42.86981" lon="0.26329">
        <ele>2181</ele>
        <time>2013-12-15T12:24:46Z</time>
      </trkpt>
      <trkpt lat="42.86977" lon="0.26337">
        <ele>2179</ele>
        <time>2013-12-15T12:24:53Z</time>
      </trkpt>
      <trkpt lat="42.86971" lon="0.26333">
        <ele>2176</ele>
        <time>2013-12-15T12:24:56Z</time>
      </trkpt>
      <trkpt lat="42.86963" lon="0.2634">
        <ele>2172</ele>
        <time>2013-12-15T12:25:00Z</time>
      </trkpt>
      <trkpt lat="42.8696" lon="0.26336">
        <ele>2169</ele>
        <time>2013-12-15T12:25:02Z</time>
      </trkpt>
      <trkpt lat="42.86949" lon="0.26338">
        <ele>2163</ele>
        <time>2013-12-15T12:25:07Z</time>
      </trkpt>
      <trkpt lat="42.86947" lon="0.26342">
        <ele>2160</ele>
        <time>2013-12-15T12:25:10Z</time>
      </trkpt>
      <trkpt lat="42.86946" lon="0.26344">
        <ele>2160</ele>
        <time>2013-12-15T12:25:11Z</time>
      </trkpt>
      <trkpt lat="42.86943" lon="0.26351">
        <ele>2156</ele>
        <time>2013-12-15T12:25:15Z</time>
      </trkpt>
      <trkpt lat="42.8694" lon="0.26359">
        <ele>2153</ele>
        <time>2013-12-15T12:25:19Z</time>
      </trkpt>
      <trkpt lat="42.86935" lon="0.26372">
        <ele>2149</ele>
        <time>2013-12-15T12:25:23Z</time>
      </trkpt>
      <trkpt lat="42.86934" lon="0.26376">
        <ele>2148</ele>
        <time>2013-12-15T12:25:25Z</time>
      </trkpt>
      <trkpt lat="42.86932" lon="0.26378">
        <ele>2147</ele>
        <time>2013-12-15T12:25:27Z</time>
      </trkpt>
      <trkpt lat="42.86929" lon="0.26383">
        <ele>2146</ele>
        <time>2013-12-15T12:25:30Z</time>
      </trkpt>
      <trkpt lat="42.8693" lon="0.26389">
        <ele>2143</ele>
        <time>2013-12-15T12:25:41Z</time>
      </trkpt>
      <trkpt lat="42.86929" lon="0.26389">
        <ele>2143</ele>
        <time>2013-12-15T12:25:43Z</time>
      </trkpt>
      <trkpt lat="42.86923" lon="0.26394">
        <ele>2140</ele>
        <time>2013-12-15T12:25:57Z</time>
      </trkpt>
      <trkpt lat="42.86924" lon="0.26398">
        <ele>2139</ele>
        <time>2013-12-15T12:26:11Z</time>
      </trkpt>
      <trkpt lat="42.86922" lon="0.264">
        <ele>2140</ele>
        <time>2013-12-15T12:26:28Z</time>
      </trkpt>
      <trkpt lat="42.86915" lon="0.26411">
        <ele>2137</ele>
        <time>2013-12-15T12:26:34Z</time>
      </trkpt>
      <trkpt lat="42.86913" lon="0.26413">
        <ele>2137</ele>
        <time>2013-12-15T12:26:46Z</time>
      </trkpt>
      <trkpt lat="42.86907" lon="0.26421">
        <ele>2135</ele>
        <time>2013-12-15T12:26:54Z</time>
      </trkpt>
      <trkpt lat="42.869" lon="0.26427">
        <ele>2131</ele>
        <time>2013-12-15T12:26:59Z</time>
      </trkpt>
      <trkpt lat="42.86896" lon="0.26434">
        <ele>2128</ele>
        <time>2013-12-15T12:27:04Z</time>
      </trkpt>
      <trkpt lat="42.86896" lon="0.26435">
        <ele>2128</ele>
        <time>2013-12-15T12:27:05Z</time>
      </trkpt>
      <trkpt lat="42.86895" lon="0.26438">
        <ele>2127</ele>
        <time>2013-12-15T12:27:19Z</time>
      </trkpt>
      <trkpt lat="42.86895" lon="0.26444">
        <ele>2126</ele>
        <time>2013-12-15T12:27:32Z</time>
      </trkpt>
      <trkpt lat="42.86888" lon="0.26455">
        <ele>2124</ele>
        <time>2013-12-15T12:27:38Z</time>
      </trkpt>
      <trkpt lat="42.86881" lon="0.26449">
        <ele>2119</ele>
        <time>2013-12-15T12:27:42Z</time>
      </trkpt>
      <trkpt lat="42.8688" lon="0.26445">
        <ele>2116</ele>
        <time>2013-12-15T12:27:46Z</time>
      </trkpt>
      <trkpt lat="42.86873" lon="0.26437">
        <ele>2111</ele>
        <time>2013-12-15T12:27:50Z</time>
      </trkpt>
      <trkpt lat="42.86871" lon="0.26429">
        <ele>2108</ele>
        <time>2013-12-15T12:27:53Z</time>
      </trkpt>
      <trkpt lat="42.86863" lon="0.26426">
        <ele>2104</ele>
        <time>2013-12-15T12:27:56Z</time>
      </trkpt>
      <trkpt lat="42.86859" lon="0.26422">
        <ele>2100</ele>
        <time>2013-12-15T12:27:58Z</time>
      </trkpt>
      <trkpt lat="42.86858" lon="0.26418">
        <ele>2098</ele>
        <time>2013-12-15T12:28:00Z</time>
      </trkpt>
      <trkpt lat="42.86851" lon="0.26413">
        <ele>2092</ele>
        <time>2013-12-15T12:28:05Z</time>
      </trkpt>
      <trkpt lat="42.86853" lon="0.26405">
        <ele>2091</ele>
        <time>2013-12-15T12:28:08Z</time>
      </trkpt>
      <trkpt lat="42.86857" lon="0.2639">
        <ele>2089</ele>
        <time>2013-12-15T12:28:11Z</time>
      </trkpt>
      <trkpt lat="42.86861" lon="0.26378">
        <ele>2087</ele>
        <time>2013-12-15T12:28:13Z</time>
      </trkpt>
      <trkpt lat="42.86869" lon="0.26357">
        <ele>2086</ele>
        <time>2013-12-15T12:28:23Z</time>
      </trkpt>
      <trkpt lat="42.86871" lon="0.26351">
        <ele>2086</ele>
        <time>2013-12-15T12:28:33Z</time>
      </trkpt>
      <trkpt lat="42.86872" lon="0.2634">
        <ele>2084</ele>
        <time>2013-12-15T12:28:41Z</time>
      </trkpt>
      <trkpt lat="42.86872" lon="0.26331">
        <ele>2080</ele>
        <time>2013-12-15T12:28:47Z</time>
      </trkpt>
      <trkpt lat="42.86872" lon="0.2632">
        <ele>2077</ele>
        <time>2013-12-15T12:28:53Z</time>
      </trkpt>
      <trkpt lat="42.86873" lon="0.26314">
        <ele>2075</ele>
        <time>2013-12-15T12:28:55Z</time>
      </trkpt>
      <trkpt lat="42.86874" lon="0.26304">
        <ele>2073</ele>
        <time>2013-12-15T12:28:58Z</time>
      </trkpt>
      <trkpt lat="42.86874" lon="0.26298">
        <ele>2072</ele>
        <time>2013-12-15T12:29:00Z</time>
      </trkpt>
      <trkpt lat="42.86874" lon="0.26286">
        <ele>2070</ele>
        <time>2013-12-15T12:29:03Z</time>
      </trkpt>
      <trkpt lat="42.8687" lon="0.26285">
        <ele>2069</ele>
        <time>2013-12-15T12:29:07Z</time>
      </trkpt>
      <trkpt lat="42.86871" lon="0.26262">
        <ele>2066</ele>
        <time>2013-12-15T12:29:13Z</time>
      </trkpt>
      <trkpt lat="42.86869" lon="0.26249">
        <ele>2064</ele>
        <time>2013-12-15T12:29:22Z</time>
      </trkpt>
      <trkpt lat="42.86868" lon="0.26243">
        <ele>2063</ele>
        <time>2013-12-15T12:29:24Z</time>
      </trkpt>
      <trkpt lat="42.86869" lon="0.26242">
        <ele>2063</ele>
        <time>2013-12-15T12:29:25Z</time>
      </trkpt>
      <trkpt lat="42.86867" lon="0.26237">
        <ele>2061</ele>
        <time>2013-12-15T12:29:38Z</time>
      </trkpt>
      <trkpt lat="42.86859" lon="0.26242">
        <ele>2057</ele>
        <time>2013-12-15T12:29:42Z</time>
      </trkpt>
      <trkpt lat="42.86854" lon="0.26248">
        <ele>2053</ele>
        <time>2013-12-15T12:29:47Z</time>
      </trkpt>
      <trkpt lat="42.86851" lon="0.26248">
        <ele>2052</ele>
        <time>2013-12-15T12:29:49Z</time>
      </trkpt>
      <trkpt lat="42.86848" lon="0.26253">
        <ele>2048</ele>
        <time>2013-12-15T12:29:51Z</time>
      </trkpt>
      <trkpt lat="42.86845" lon="0.26252">
        <ele>2044</ele>
        <time>2013-12-15T12:29:54Z</time>
      </trkpt>
      <trkpt lat="42.86843" lon="0.26256">
        <ele>2043</ele>
        <time>2013-12-15T12:29:56Z</time>
      </trkpt>
      <trkpt lat="42.86843" lon="0.26256">
        <ele>2042</ele>
        <time>2013-12-15T12:29:57Z</time>
      </trkpt>
      <trkpt lat="42.8684" lon="0.26249">
        <ele>2040</ele>
        <time>2013-12-15T12:30:04Z</time>
      </trkpt>
      <trkpt lat="42.86837" lon="0.26247">
        <ele>2039</ele>
        <time>2013-12-15T12:30:10Z</time>
      </trkpt>
      <trkpt lat="42.86833" lon="0.26251">
        <ele>2036</ele>
        <time>2013-12-15T12:30:15Z</time>
      </trkpt>
      <trkpt lat="42.86831" lon="0.26257">
        <ele>2033</ele>
        <time>2013-12-15T12:30:26Z</time>
      </trkpt>
      <trkpt lat="42.86831" lon="0.26262">
        <ele>2032</ele>
        <time>2013-12-15T12:30:44Z</time>
      </trkpt>
      <trkpt lat="42.86831" lon="0.26265">
        <ele>2031</ele>
        <time>2013-12-15T12:30:59Z</time>
      </trkpt>
      <trkpt lat="42.86829" lon="0.26269">
        <ele>2030</ele>
        <time>2013-12-15T12:31:16Z</time>
      </trkpt>
      <trkpt lat="42.86829" lon="0.2627">
        <ele>2029</ele>
        <time>2013-12-15T12:31:27Z</time>
      </trkpt>
      <trkpt lat="42.86824" lon="0.26274">
        <ele>2028</ele>
        <time>2013-12-15T12:31:37Z</time>
      </trkpt>
      <trkpt lat="42.86819" lon="0.26273">
        <ele>2026</ele>
        <time>2013-12-15T12:31:43Z</time>
      </trkpt>
      <trkpt lat="42.86816" lon="0.26269">
        <ele>2023</ele>
        <time>2013-12-15T12:31:45Z</time>
      </trkpt>
      <trkpt lat="42.86808" lon="0.2627">
        <ele>2018</ele>
        <time>2013-12-15T12:31:48Z</time>
      </trkpt>
      <trkpt lat="42.86802" lon="0.26264">
        <ele>2014</ele>
        <time>2013-12-15T12:31:51Z</time>
      </trkpt>
      <trkpt lat="42.86795" lon="0.26262">
        <ele>2010</ele>
        <time>2013-12-15T12:31:53Z</time>
      </trkpt>
      <trkpt lat="42.86788" lon="0.2626">
        <ele>2007</ele>
        <time>2013-12-15T12:31:55Z</time>
      </trkpt>
      <trkpt lat="42.86782" lon="0.26258">
        <ele>2004</ele>
        <time>2013-12-15T12:31:57Z</time>
      </trkpt>
      <trkpt lat="42.86778" lon="0.26258">
        <ele>2003</ele>
        <time>2013-12-15T12:31:58Z</time>
      </trkpt>
      <trkpt lat="42.86775" lon="0.26259">
        <ele>2001</ele>
        <time>2013-12-15T12:31:59Z</time>
      </trkpt>
      <trkpt lat="42.86768" lon="0.26259">
        <ele>1997</ele>
        <time>2013-12-15T12:32:01Z</time>
      </trkpt>
      <trkpt lat="42.86764" lon="0.2626">
        <ele>1996</ele>
        <time>2013-12-15T12:32:02Z</time>
      </trkpt>
      <trkpt lat="42.8676" lon="0.2626">
        <ele>1994</ele>
        <time>2013-12-15T12:32:03Z</time>
      </trkpt>
      <trkpt lat="42.86756" lon="0.2626">
        <ele>1991</ele>
        <time>2013-12-15T12:32:04Z</time>
      </trkpt>
      <trkpt lat="42.86752" lon="0.26262">
        <ele>1991</ele>
        <time>2013-12-15T12:32:05Z</time>
      </trkpt>
      <trkpt lat="42.8675" lon="0.26265">
        <ele>1990</ele>
        <time>2013-12-15T12:32:06Z</time>
      </trkpt>
      <trkpt lat="42.8675" lon="0.26268">
        <ele>1988</ele>
        <time>2013-12-15T12:32:07Z</time>
      </trkpt>
      <trkpt lat="42.86749" lon="0.26271">
        <ele>1988</ele>
        <time>2013-12-15T12:32:08Z</time>
      </trkpt>
      <trkpt lat="42.86747" lon="0.26272">
        <ele>1988</ele>
        <time>2013-12-15T12:32:09Z</time>
      </trkpt>
      <trkpt lat="42.86744" lon="0.26273">
        <ele>1986</ele>
        <time>2013-12-15T12:32:17Z</time>
      </trkpt>
      <trkpt lat="42.86745" lon="0.26277">
        <ele>1986</ele>
        <time>2013-12-15T12:32:33Z</time>
      </trkpt>
      <trkpt lat="42.86745" lon="0.26277">
        <ele>1985</ele>
        <time>2013-12-15T12:32:48Z</time>
      </trkpt>
      <trkpt lat="42.86747" lon="0.26272">
        <ele>1985</ele>
        <time>2013-12-15T12:32:56Z</time>
      </trkpt>
      <trkpt lat="42.86744" lon="0.26271">
        <ele>1984</ele>
        <time>2013-12-15T12:33:20Z</time>
      </trkpt>
      <trkpt lat="42.86743" lon="0.26267">
        <ele>1985</ele>
        <time>2013-12-15T12:33:46Z</time>
      </trkpt>
      <trkpt lat="42.86745" lon="0.26271">
        <ele>1985</ele>
        <time>2013-12-15T12:34:08Z</time>
      </trkpt>
      <trkpt lat="42.86744" lon="0.26274">
        <ele>1986</ele>
        <time>2013-12-15T12:34:29Z</time>
      </trkpt>
      <trkpt lat="42.86744" lon="0.26275">
        <ele>1985</ele>
        <time>2013-12-15T12:35:03Z</time>
      </trkpt>
      <trkpt lat="42.86742" lon="0.26275">
        <ele>1985</ele>
        <time>2013-12-15T12:35:22Z</time>
      </trkpt>
      <trkpt lat="42.86744" lon="0.26271">
        <ele>1986</ele>
        <time>2013-12-15T12:35:42Z</time>
      </trkpt>
      <trkpt lat="42.86747" lon="0.26271">
        <ele>1985</ele>
        <time>2013-12-15T12:36:09Z</time>
      </trkpt>
      <trkpt lat="42.86745" lon="0.26275">
        <ele>1985</ele>
        <time>2013-12-15T12:36:34Z</time>
      </trkpt>
      <trkpt lat="42.86744" lon="0.26271">
        <ele>1985</ele>
        <time>2013-12-15T12:36:45Z</time>
      </trkpt>
      <trkpt lat="42.86734" lon="0.26273">
        <ele>1983</ele>
        <time>2013-12-15T12:36:49Z</time>
      </trkpt>
      <trkpt lat="42.8673" lon="0.26274">
        <ele>1981</ele>
        <time>2013-12-15T12:36:50Z</time>
      </trkpt>
      <trkpt lat="42.86726" lon="0.26276">
        <ele>1981</ele>
        <time>2013-12-15T12:36:51Z</time>
      </trkpt>
      <trkpt lat="42.86724" lon="0.26281">
        <ele>1979</ele>
        <time>2013-12-15T12:36:52Z</time>
      </trkpt>
      <trkpt lat="42.86723" lon="0.26287">
        <ele>1979</ele>
        <time>2013-12-15T12:36:53Z</time>
      </trkpt>
      <trkpt lat="42.86722" lon="0.26294">
        <ele>1978</ele>
        <time>2013-12-15T12:36:54Z</time>
      </trkpt>
      <trkpt lat="42.86722" lon="0.26306">
        <ele>1977</ele>
        <time>2013-12-15T12:36:56Z</time>
      </trkpt>
      <trkpt lat="42.8672" lon="0.2632">
        <ele>1974</ele>
        <time>2013-12-15T12:36:59Z</time>
      </trkpt>
      <trkpt lat="42.86718" lon="0.26324">
        <ele>1974</ele>
        <time>2013-12-15T12:37:00Z</time>
      </trkpt>
      <trkpt lat="42.8671" lon="0.26333">
        <ele>1973</ele>
        <time>2013-12-15T12:37:02Z</time>
      </trkpt>
      <trkpt lat="42.86707" lon="0.26337">
        <ele>1971</ele>
        <time>2013-12-15T12:37:03Z</time>
      </trkpt>
      <trkpt lat="42.86704" lon="0.26341">
        <ele>1970</ele>
        <time>2013-12-15T12:37:04Z</time>
      </trkpt>
      <trkpt lat="42.86701" lon="0.26342">
        <ele>1969</ele>
        <time>2013-12-15T12:37:05Z</time>
      </trkpt>
      <trkpt lat="42.86699" lon="0.26342">
        <ele>1967</ele>
        <time>2013-12-15T12:37:06Z</time>
      </trkpt>
      <trkpt lat="42.86692" lon="0.26335">
        <ele>1964</ele>
        <time>2013-12-15T12:37:08Z</time>
      </trkpt>
      <trkpt lat="42.86688" lon="0.26335">
        <ele>1962</ele>
        <time>2013-12-15T12:37:09Z</time>
      </trkpt>
      <trkpt lat="42.86683" lon="0.26331">
        <ele>1959</ele>
        <time>2013-12-15T12:37:10Z</time>
      </trkpt>
      <trkpt lat="42.86678" lon="0.26329">
        <ele>1957</ele>
        <time>2013-12-15T12:37:11Z</time>
      </trkpt>
      <trkpt lat="42.86673" lon="0.26329">
        <ele>1954</ele>
        <time>2013-12-15T12:37:12Z</time>
      </trkpt>
      <trkpt lat="42.86669" lon="0.26333">
        <ele>1954</ele>
        <time>2013-12-15T12:37:13Z</time>
      </trkpt>
      <trkpt lat="42.86666" lon="0.26337">
        <ele>1953</ele>
        <time>2013-12-15T12:37:14Z</time>
      </trkpt>
      <trkpt lat="42.86662" lon="0.26339">
        <ele>1953</ele>
        <time>2013-12-15T12:37:15Z</time>
      </trkpt>
      <trkpt lat="42.86658" lon="0.2634">
        <ele>1949</ele>
        <time>2013-12-15T12:37:16Z</time>
      </trkpt>
      <trkpt lat="42.86654" lon="0.2634">
        <ele>1948</ele>
        <time>2013-12-15T12:37:17Z</time>
      </trkpt>
      <trkpt lat="42.8665" lon="0.26343">
        <ele>1946</ele>
        <time>2013-12-15T12:37:18Z</time>
      </trkpt>
      <trkpt lat="42.86647" lon="0.26348">
        <ele>1945</ele>
        <time>2013-12-15T12:37:19Z</time>
      </trkpt>
      <trkpt lat="42.86644" lon="0.26349">
        <ele>1942</ele>
        <time>2013-12-15T12:37:20Z</time>
      </trkpt>
      <trkpt lat="42.86639" lon="0.26349">
        <ele>1941</ele>
        <time>2013-12-15T12:37:21Z</time>
      </trkpt>
      <trkpt lat="42.86634" lon="0.26352">
        <ele>1939</ele>
        <time>2013-12-15T12:37:22Z</time>
      </trkpt>
      <trkpt lat="42.86631" lon="0.26354">
        <ele>1937</ele>
        <time>2013-12-15T12:37:23Z</time>
      </trkpt>
      <trkpt lat="42.86627" lon="0.26353">
        <ele>1934</ele>
        <time>2013-12-15T12:37:24Z</time>
      </trkpt>
      <trkpt lat="42.86622" lon="0.26355">
        <ele>1933</ele>
        <time>2013-12-15T12:37:25Z</time>
      </trkpt>
      <trkpt lat="42.86618" lon="0.26359">
        <ele>1930</ele>
        <time>2013-12-15T12:37:26Z</time>
      </trkpt>
      <trkpt lat="42.86616" lon="0.26365">
        <ele>1929</ele>
        <time>2013-12-15T12:37:27Z</time>
      </trkpt>
      <trkpt lat="42.86615" lon="0.26382">
        <ele>1927</ele>
        <time>2013-12-15T12:37:29Z</time>
      </trkpt>
      <trkpt lat="42.86605" lon="0.26393">
        <ele>1924</ele>
        <time>2013-12-15T12:37:33Z</time>
      </trkpt>
      <trkpt lat="42.86599" lon="0.26393">
        <ele>1922</ele>
        <time>2013-12-15T12:37:34Z</time>
      </trkpt>
      <trkpt lat="42.86594" lon="0.26394">
        <ele>1918</ele>
        <time>2013-12-15T12:37:35Z</time>
      </trkpt>
      <trkpt lat="42.8659" lon="0.26393">
        <ele>1917</ele>
        <time>2013-12-15T12:37:36Z</time>
      </trkpt>
      <trkpt lat="42.86584" lon="0.26392">
        <ele>1916</ele>
        <time>2013-12-15T12:37:37Z</time>
      </trkpt>
      <trkpt lat="42.8658" lon="0.26396">
        <ele>1914</ele>
        <time>2013-12-15T12:37:38Z</time>
      </trkpt>
      <trkpt lat="42.86577" lon="0.26401">
        <ele>1913</ele>
        <time>2013-12-15T12:37:39Z</time>
      </trkpt>
      <trkpt lat="42.86572" lon="0.26418">
        <ele>1911</ele>
        <time>2013-12-15T12:37:42Z</time>
      </trkpt>
      <trkpt lat="42.86562" lon="0.26431">
        <ele>1910</ele>
        <time>2013-12-15T12:37:45Z</time>
      </trkpt>
      <trkpt lat="42.86547" lon="0.26442">
        <ele>1906</ele>
        <time>2013-12-15T12:37:48Z</time>
      </trkpt>
      <trkpt lat="42.86509" lon="0.26451">
        <ele>1902</ele>
        <time>2013-12-15T12:37:57Z</time>
      </trkpt>
      <trkpt lat="42.86505" lon="0.26442">
        <ele>1900</ele>
        <time>2013-12-15T12:38:00Z</time>
      </trkpt>
      <trkpt lat="42.86501" lon="0.26438">
        <ele>1896</ele>
        <time>2013-12-15T12:38:01Z</time>
      </trkpt>
      <trkpt lat="42.86491" lon="0.26435">
        <ele>1892</ele>
        <time>2013-12-15T12:38:03Z</time>
      </trkpt>
      <trkpt lat="42.86488" lon="0.26431">
        <ele>1889</ele>
        <time>2013-12-15T12:38:04Z</time>
      </trkpt>
      <trkpt lat="42.86482" lon="0.26424">
        <ele>1885</ele>
        <time>2013-12-15T12:38:06Z</time>
      </trkpt>
      <trkpt lat="42.86477" lon="0.26425">
        <ele>1884</ele>
        <time>2013-12-15T12:38:07Z</time>
      </trkpt>
      <trkpt lat="42.86474" lon="0.26424">
        <ele>1883</ele>
        <time>2013-12-15T12:38:08Z</time>
      </trkpt>
      <trkpt lat="42.86472" lon="0.26418">
        <ele>1880</ele>
        <time>2013-12-15T12:38:10Z</time>
      </trkpt>
      <trkpt lat="42.86477" lon="0.26413">
        <ele>1878</ele>
        <time>2013-12-15T12:38:14Z</time>
      </trkpt>
      <trkpt lat="42.86476" lon="0.26412">
        <ele>1878</ele>
        <time>2013-12-15T12:38:16Z</time>
      </trkpt>
      <trkpt lat="42.86473" lon="0.26407">
        <ele>1878</ele>
        <time>2013-12-15T12:38:18Z</time>
      </trkpt>
      <trkpt lat="42.86469" lon="0.26406">
        <ele>1877</ele>
        <time>2013-12-15T12:38:19Z</time>
      </trkpt>
      <trkpt lat="42.86464" lon="0.26407">
        <ele>1875</ele>
        <time>2013-12-15T12:38:20Z</time>
      </trkpt>
      <trkpt lat="42.86459" lon="0.26409">
        <ele>1874</ele>
        <time>2013-12-15T12:38:21Z</time>
      </trkpt>
      <trkpt lat="42.86455" lon="0.26411">
        <ele>1873</ele>
        <time>2013-12-15T12:38:22Z</time>
      </trkpt>
      <trkpt lat="42.86437" lon="0.26414">
        <ele>1870</ele>
        <time>2013-12-15T12:38:27Z</time>
      </trkpt>
      <trkpt lat="42.86427" lon="0.26412">
        <ele>1867</ele>
        <time>2013-12-15T12:38:31Z</time>
      </trkpt>
      <trkpt lat="42.86426" lon="0.2641">
        <ele>1867</ele>
        <time>2013-12-15T12:38:32Z</time>
      </trkpt>
      <trkpt lat="42.86425" lon="0.26403">
        <ele>1863</ele>
        <time>2013-12-15T12:38:34Z</time>
      </trkpt>
      <trkpt lat="42.86422" lon="0.26397">
        <ele>1860</ele>
        <time>2013-12-15T12:38:36Z</time>
      </trkpt>
      <trkpt lat="42.8642" lon="0.26389">
        <ele>1856</ele>
        <time>2013-12-15T12:38:38Z</time>
      </trkpt>
      <trkpt lat="42.86419" lon="0.26386">
        <ele>1855</ele>
        <time>2013-12-15T12:38:39Z</time>
      </trkpt>
      <trkpt lat="42.86415" lon="0.26384">
        <ele>1854</ele>
        <time>2013-12-15T12:38:40Z</time>
      </trkpt>
      <trkpt lat="42.8641" lon="0.26384">
        <ele>1852</ele>
        <time>2013-12-15T12:38:41Z</time>
      </trkpt>
      <trkpt lat="42.86406" lon="0.26385">
        <ele>1851</ele>
        <time>2013-12-15T12:38:42Z</time>
      </trkpt>
      <trkpt lat="42.86404" lon="0.26383">
        <ele>1849</ele>
        <time>2013-12-15T12:38:43Z</time>
      </trkpt>
      <trkpt lat="42.86404" lon="0.2638">
        <ele>1846</ele>
        <time>2013-12-15T12:38:44Z</time>
      </trkpt>
      <trkpt lat="42.86405" lon="0.26376">
        <ele>1846</ele>
        <time>2013-12-15T12:38:45Z</time>
      </trkpt>
      <trkpt lat="42.86404" lon="0.26372">
        <ele>1846</ele>
        <time>2013-12-15T12:38:46Z</time>
      </trkpt>
      <trkpt lat="42.86402" lon="0.26369">
        <ele>1844</ele>
        <time>2013-12-15T12:38:47Z</time>
      </trkpt>
      <trkpt lat="42.86399" lon="0.26369">
        <ele>1842</ele>
        <time>2013-12-15T12:38:48Z</time>
      </trkpt>
      <trkpt lat="42.86395" lon="0.26369">
        <ele>1842</ele>
        <time>2013-12-15T12:38:49Z</time>
      </trkpt>
      <trkpt lat="42.86393" lon="0.26367">
        <ele>1841</ele>
        <time>2013-12-15T12:38:50Z</time>
      </trkpt>
      <trkpt lat="42.86392" lon="0.26364">
        <ele>1839</ele>
        <time>2013-12-15T12:38:51Z</time>
      </trkpt>
      <trkpt lat="42.86394" lon="0.26362">
        <ele>1837</ele>
        <time>2013-12-15T12:38:53Z</time>
      </trkpt>
      <trkpt lat="42.86395" lon="0.26365">
        <ele>1837</ele>
        <time>2013-12-15T12:39:05Z</time>
      </trkpt>
      <trkpt lat="42.86396" lon="0.26355">
        <ele>1835</ele>
        <time>2013-12-15T12:39:09Z</time>
      </trkpt>
      <trkpt lat="42.86399" lon="0.26347">
        <ele>1835</ele>
        <time>2013-12-15T12:39:11Z</time>
      </trkpt>
      <trkpt lat="42.86389" lon="0.26326">
        <ele>1830</ele>
        <time>2013-12-15T12:39:16Z</time>
      </trkpt>
      <trkpt lat="42.86379" lon="0.26321">
        <ele>1826</ele>
        <time>2013-12-15T12:39:18Z</time>
      </trkpt>
      <trkpt lat="42.86372" lon="0.2631">
        <ele>1823</ele>
        <time>2013-12-15T12:39:20Z</time>
      </trkpt>
      <trkpt lat="42.86365" lon="0.26304">
        <ele>1818</ele>
        <time>2013-12-15T12:39:22Z</time>
      </trkpt>
      <trkpt lat="42.86356" lon="0.26298">
        <ele>1815</ele>
        <time>2013-12-15T12:39:24Z</time>
      </trkpt>
      <trkpt lat="42.86343" lon="0.26289">
        <ele>1812</ele>
        <time>2013-12-15T12:39:27Z</time>
      </trkpt>
      <trkpt lat="42.86329" lon="0.26288">
        <ele>1808</ele>
        <time>2013-12-15T12:39:30Z</time>
      </trkpt>
      <trkpt lat="42.86328" lon="0.26286">
        <ele>1807</ele>
        <time>2013-12-15T12:39:32Z</time>
      </trkpt>
      <trkpt lat="42.86327" lon="0.26284">
        <ele>1808</ele>
        <time>2013-12-15T12:39:42Z</time>
      </trkpt>
      <trkpt lat="42.86324" lon="0.26284">
        <ele>1807</ele>
        <time>2013-12-15T12:39:44Z</time>
      </trkpt>
      <trkpt lat="42.86316" lon="0.26274">
        <ele>1803</ele>
        <time>2013-12-15T12:39:48Z</time>
      </trkpt>
      <trkpt lat="42.86311" lon="0.26262">
        <ele>1800</ele>
        <time>2013-12-15T12:39:51Z</time>
      </trkpt>
      <trkpt lat="42.86311" lon="0.26252">
        <ele>1796</ele>
        <time>2013-12-15T12:39:53Z</time>
      </trkpt>
      <trkpt lat="42.86303" lon="0.26244">
        <ele>1793</ele>
        <time>2013-12-15T12:39:56Z</time>
      </trkpt>
      <trkpt lat="42.863" lon="0.26236">
        <ele>1790</ele>
        <time>2013-12-15T12:39:58Z</time>
      </trkpt>
      <trkpt lat="42.86291" lon="0.26233">
        <ele>1786</ele>
        <time>2013-12-15T12:40:00Z</time>
      </trkpt>
      <trkpt lat="42.86287" lon="0.26234">
        <ele>1785</ele>
        <time>2013-12-15T12:40:01Z</time>
      </trkpt>
      <trkpt lat="42.86268" lon="0.26224">
        <ele>1779</ele>
        <time>2013-12-15T12:40:06Z</time>
      </trkpt>
      <trkpt lat="42.86257" lon="0.26214">
        <ele>1773</ele>
        <time>2013-12-15T12:40:09Z</time>
      </trkpt>
      <trkpt lat="42.86248" lon="0.26205">
        <ele>1769</ele>
        <time>2013-12-15T12:40:12Z</time>
      </trkpt>
      <trkpt lat="42.86238" lon="0.26205">
        <ele>1766</ele>
        <time>2013-12-15T12:40:15Z</time>
      </trkpt>
      <trkpt lat="42.86234" lon="0.26203">
        <ele>1766</ele>
        <time>2013-12-15T12:40:16Z</time>
      </trkpt>
      <trkpt lat="42.86231" lon="0.26189">
        <ele>1763</ele>
        <time>2013-12-15T12:40:19Z</time>
      </trkpt>
      <trkpt lat="42.86224" lon="0.26186">
        <ele>1759</ele>
        <time>2013-12-15T12:40:21Z</time>
      </trkpt>
      <trkpt lat="42.86216" lon="0.26178">
        <ele>1756</ele>
        <time>2013-12-15T12:40:24Z</time>
      </trkpt>
      <trkpt lat="42.86202" lon="0.26183">
        <ele>1752</ele>
        <time>2013-12-15T12:40:27Z</time>
      </trkpt>
      <trkpt lat="42.86177" lon="0.26198">
        <ele>1748</ele>
        <time>2013-12-15T12:40:32Z</time>
      </trkpt>
      <trkpt lat="42.86161" lon="0.26205">
        <ele>1747</ele>
        <time>2013-12-15T12:40:35Z</time>
      </trkpt>
      <trkpt lat="42.86141" lon="0.26217">
        <ele>1744</ele>
        <time>2013-12-15T12:40:39Z</time>
      </trkpt>
      <trkpt lat="42.86136" lon="0.26221">
        <ele>1743</ele>
        <time>2013-12-15T12:40:40Z</time>
      </trkpt>
      <trkpt lat="42.86121" lon="0.26234">
        <ele>1741</ele>
        <time>2013-12-15T12:40:43Z</time>
      </trkpt>
      <trkpt lat="42.86104" lon="0.26254">
        <ele>1737</ele>
        <time>2013-12-15T12:40:47Z</time>
      </trkpt>
      <trkpt lat="42.86092" lon="0.2627">
        <ele>1734</ele>
        <time>2013-12-15T12:40:51Z</time>
      </trkpt>
      <trkpt lat="42.86092" lon="0.26271">
        <ele>1735</ele>
        <time>2013-12-15T12:41:07Z</time>
      </trkpt>
      <trkpt lat="42.86084" lon="0.26281">
        <ele>1732</ele>
        <time>2013-12-15T12:41:13Z</time>
      </trkpt>
      <trkpt lat="42.86078" lon="0.2627">
        <ele>1729</ele>
        <time>2013-12-15T12:41:17Z</time>
      </trkpt>
      <trkpt lat="42.86078" lon="0.26264">
        <ele>1726</ele>
        <time>2013-12-15T12:41:20Z</time>
      </trkpt>
      <trkpt lat="42.86069" lon="0.26261">
        <ele>1721</ele>
        <time>2013-12-15T12:41:24Z</time>
      </trkpt>
      <trkpt lat="42.86066" lon="0.26263">
        <ele>1719</ele>
        <time>2013-12-15T12:41:25Z</time>
      </trkpt>
      <trkpt lat="42.8606" lon="0.26268">
        <ele>1718</ele>
        <time>2013-12-15T12:41:28Z</time>
      </trkpt>
      <trkpt lat="42.86053" lon="0.26256">
        <ele>1715</ele>
        <time>2013-12-15T12:41:32Z</time>
      </trkpt>
      <trkpt lat="42.86047" lon="0.26254">
        <ele>1711</ele>
        <time>2013-12-15T12:41:34Z</time>
      </trkpt>
      <trkpt lat="42.86033" lon="0.26267">
        <ele>1707</ele>
        <time>2013-12-15T12:41:38Z</time>
      </trkpt>
      <trkpt lat="42.86027" lon="0.26274">
        <ele>1706</ele>
        <time>2013-12-15T12:41:40Z</time>
      </trkpt>
      <trkpt lat="42.86023" lon="0.26259">
        <ele>1701</ele>
        <time>2013-12-15T12:41:45Z</time>
      </trkpt>
      <trkpt lat="42.86015" lon="0.2626">
        <ele>1697</ele>
        <time>2013-12-15T12:41:48Z</time>
      </trkpt>
      <trkpt lat="42.86009" lon="0.26265">
        <ele>1696</ele>
        <time>2013-12-15T12:41:50Z</time>
      </trkpt>
      <trkpt lat="42.86002" lon="0.26262">
        <ele>1694</ele>
        <time>2013-12-15T12:41:52Z</time>
      </trkpt>
      <trkpt lat="42.85998" lon="0.26263">
        <ele>1692</ele>
        <time>2013-12-15T12:41:53Z</time>
      </trkpt>
      <trkpt lat="42.85994" lon="0.26266">
        <ele>1691</ele>
        <time>2013-12-15T12:41:54Z</time>
      </trkpt>
      <trkpt lat="42.8599" lon="0.26267">
        <ele>1691</ele>
        <time>2013-12-15T12:41:55Z</time>
      </trkpt>
      <trkpt lat="42.85986" lon="0.26267">
        <ele>1690</ele>
        <time>2013-12-15T12:41:56Z</time>
      </trkpt>
      <trkpt lat="42.85981" lon="0.26266">
        <ele>1688</ele>
        <time>2013-12-15T12:41:57Z</time>
      </trkpt>
      <trkpt lat="42.85977" lon="0.26268">
        <ele>1687</ele>
        <time>2013-12-15T12:41:58Z</time>
      </trkpt>
      <trkpt lat="42.85972" lon="0.26271">
        <ele>1685</ele>
        <time>2013-12-15T12:41:59Z</time>
      </trkpt>
      <trkpt lat="42.85969" lon="0.26273">
        <ele>1685</ele>
        <time>2013-12-15T12:42:00Z</time>
      </trkpt>
      <trkpt lat="42.85959" lon="0.26269">
        <ele>1682</ele>
        <time>2013-12-15T12:42:03Z</time>
      </trkpt>
      <trkpt lat="42.85955" lon="0.2627">
        <ele>1681</ele>
        <time>2013-12-15T12:42:04Z</time>
      </trkpt>
      <trkpt lat="42.8595" lon="0.26273">
        <ele>1681</ele>
        <time>2013-12-15T12:42:05Z</time>
      </trkpt>
      <trkpt lat="42.85946" lon="0.26276">
        <ele>1680</ele>
        <time>2013-12-15T12:42:06Z</time>
      </trkpt>
      <trkpt lat="42.85941" lon="0.2628">
        <ele>1679</ele>
        <time>2013-12-15T12:42:07Z</time>
      </trkpt>
      <trkpt lat="42.85937" lon="0.26284">
        <ele>1678</ele>
        <time>2013-12-15T12:42:08Z</time>
      </trkpt>
      <trkpt lat="42.85918" lon="0.26304">
        <ele>1677</ele>
        <time>2013-12-15T12:42:14Z</time>
      </trkpt>
      <trkpt lat="42.85918" lon="0.26311">
        <ele>1676</ele>
        <time>2013-12-15T12:42:23Z</time>
      </trkpt>
      <trkpt lat="42.85917" lon="0.26312">
        <ele>1676</ele>
        <time>2013-12-15T12:42:26Z</time>
      </trkpt>
      <trkpt lat="42.85915" lon="0.26314">
        <ele>1676</ele>
        <time>2013-12-15T12:42:27Z</time>
      </trkpt>
      <trkpt lat="42.85914" lon="0.26309">
        <ele>1675</ele>
        <time>2013-12-15T12:42:30Z</time>
      </trkpt>
      <trkpt lat="42.85912" lon="0.26304">
        <ele>1674</ele>
        <time>2013-12-15T12:42:32Z</time>
      </trkpt>
      <trkpt lat="42.8591" lon="0.26297">
        <ele>1674</ele>
        <time>2013-12-15T12:42:34Z</time>
      </trkpt>
      <trkpt lat="42.85897" lon="0.26295">
        <ele>1669</ele>
        <time>2013-12-15T12:42:38Z</time>
      </trkpt>
      <trkpt lat="42.85884" lon="0.26313">
        <ele>1665</ele>
        <time>2013-12-15T12:42:43Z</time>
      </trkpt>
      <trkpt lat="42.85883" lon="0.26316">
        <ele>1665</ele>
        <time>2013-12-15T12:42:44Z</time>
      </trkpt>
      <trkpt lat="42.8588" lon="0.26324">
        <ele>1663</ele>
        <time>2013-12-15T12:42:46Z</time>
      </trkpt>
      <trkpt lat="42.85877" lon="0.26328">
        <ele>1662</ele>
        <time>2013-12-15T12:42:47Z</time>
      </trkpt>
      <trkpt lat="42.85875" lon="0.26335">
        <ele>1662</ele>
        <time>2013-12-15T12:42:55Z</time>
      </trkpt>
      <trkpt lat="42.85874" lon="0.26338">
        <ele>1661</ele>
        <time>2013-12-15T12:42:56Z</time>
      </trkpt>
      <trkpt lat="42.85872" lon="0.26341">
        <ele>1660</ele>
        <time>2013-12-15T12:42:57Z</time>
      </trkpt>
      <trkpt lat="42.85872" lon="0.26343">
        <ele>1660</ele>
        <time>2013-12-15T12:42:58Z</time>
      </trkpt>
      <trkpt lat="42.85871" lon="0.26346">
        <ele>1661</ele>
        <time>2013-12-15T12:43:13Z</time>
      </trkpt>
      <trkpt lat="42.85872" lon="0.26349">
        <ele>1660</ele>
        <time>2013-12-15T12:43:34Z</time>
      </trkpt>
      <trkpt lat="42.85874" lon="0.26352">
        <ele>1661</ele>
        <time>2013-12-15T12:43:53Z</time>
      </trkpt>
      <trkpt lat="42.85875" lon="0.2635">
        <ele>1660</ele>
        <time>2013-12-15T12:44:10Z</time>
      </trkpt>
      <trkpt lat="42.8587" lon="0.26346">
        <ele>1658</ele>
        <time>2013-12-15T12:44:21Z</time>
      </trkpt>
      <trkpt lat="42.85866" lon="0.26348">
        <ele>1655</ele>
        <time>2013-12-15T12:44:32Z</time>
      </trkpt>
      <trkpt lat="42.85866" lon="0.26348">
        <ele>1655</ele>
        <time>2013-12-15T12:44:33Z</time>
      </trkpt>
      <trkpt lat="42.85861" lon="0.2635">
        <ele>1652</ele>
        <time>2013-12-15T12:44:45Z</time>
      </trkpt>
      <trkpt lat="42.85857" lon="0.26353">
        <ele>1649</ele>
        <time>2013-12-15T12:44:54Z</time>
      </trkpt>
      <trkpt lat="42.8585" lon="0.26357">
        <ele>1645</ele>
        <time>2013-12-15T12:45:09Z</time>
      </trkpt>
      <trkpt lat="42.85842" lon="0.26362">
        <ele>1643</ele>
        <time>2013-12-15T12:45:19Z</time>
      </trkpt>
      <trkpt lat="42.85836" lon="0.26371">
        <ele>1640</ele>
        <time>2013-12-15T12:45:33Z</time>
      </trkpt>
      <trkpt lat="42.85835" lon="0.26377">
        <ele>1638</ele>
        <time>2013-12-15T12:45:44Z</time>
      </trkpt>
      <trkpt lat="42.85829" lon="0.26385">
        <ele>1635</ele>
        <time>2013-12-15T12:45:55Z</time>
      </trkpt>
      <trkpt lat="42.85825" lon="0.26391">
        <ele>1634</ele>
        <time>2013-12-15T12:46:11Z</time>
      </trkpt>
      <trkpt lat="42.85823" lon="0.26401">
        <ele>1631</ele>
        <time>2013-12-15T12:46:25Z</time>
      </trkpt>
      <trkpt lat="42.85818" lon="0.26407">
        <ele>1628</ele>
        <time>2013-12-15T12:46:39Z</time>
      </trkpt>
      <trkpt lat="42.85814" lon="0.26415">
        <ele>1625</ele>
        <time>2013-12-15T12:46:52Z</time>
      </trkpt>
      <trkpt lat="42.85812" lon="0.26432">
        <ele>1622</ele>
        <time>2013-12-15T12:47:05Z</time>
      </trkpt>
      <trkpt lat="42.85806" lon="0.26442">
        <ele>1621</ele>
        <time>2013-12-15T12:47:18Z</time>
      </trkpt>
      <trkpt lat="42.85801" lon="0.26451">
        <ele>1618</ele>
        <time>2013-12-15T12:47:32Z</time>
      </trkpt>
      <trkpt lat="42.85799" lon="0.26466">
        <ele>1615</ele>
        <time>2013-12-15T12:47:47Z</time>
      </trkpt>
      <trkpt lat="42.85797" lon="0.26467">
        <ele>1613</ele>
        <time>2013-12-15T12:47:53Z</time>
      </trkpt>
      <trkpt lat="42.85794" lon="0.26476">
        <ele>1611</ele>
        <time>2013-12-15T12:48:04Z</time>
      </trkpt>
      <trkpt lat="42.8579" lon="0.26492">
        <ele>1608</ele>
        <time>2013-12-15T12:48:16Z</time>
      </trkpt>
      <trkpt lat="42.85786" lon="0.26502">
        <ele>1606</ele>
        <time>2013-12-15T12:48:30Z</time>
      </trkpt>
      <trkpt lat="42.85781" lon="0.26509">
        <ele>1604</ele>
        <time>2013-12-15T12:48:42Z</time>
      </trkpt>
      <trkpt lat="42.85775" lon="0.26521">
        <ele>1601</ele>
        <time>2013-12-15T12:48:55Z</time>
      </trkpt>
      <trkpt lat="42.85774" lon="0.26532">
        <ele>1598</ele>
        <time>2013-12-15T12:49:08Z</time>
      </trkpt>
      <trkpt lat="42.85771" lon="0.26544">
        <ele>1595</ele>
        <time>2013-12-15T12:49:21Z</time>
      </trkpt>
      <trkpt lat="42.85764" lon="0.26552">
        <ele>1593</ele>
        <time>2013-12-15T12:49:35Z</time>
      </trkpt>
      <trkpt lat="42.85762" lon="0.26555">
        <ele>1591</ele>
        <time>2013-12-15T12:49:39Z</time>
      </trkpt>
      <trkpt lat="42.85762" lon="0.26565">
        <ele>1588</ele>
        <time>2013-12-15T12:49:51Z</time>
      </trkpt>
      <trkpt lat="42.85756" lon="0.26578">
        <ele>1586</ele>
        <time>2013-12-15T12:50:06Z</time>
      </trkpt>
      <trkpt lat="42.85756" lon="0.26588">
        <ele>1583</ele>
        <time>2013-12-15T12:50:14Z</time>
      </trkpt>
      <trkpt lat="42.85749" lon="0.26602">
        <ele>1581</ele>
        <time>2013-12-15T12:50:28Z</time>
      </trkpt>
      <trkpt lat="42.85746" lon="0.26617">
        <ele>1579</ele>
        <time>2013-12-15T12:50:41Z</time>
      </trkpt>
      <trkpt lat="42.85743" lon="0.26625">
        <ele>1579</ele>
        <time>2013-12-15T12:50:59Z</time>
      </trkpt>
      <trkpt lat="42.85744" lon="0.26629">
        <ele>1579</ele>
        <time>2013-12-15T12:51:18Z</time>
      </trkpt>
      <trkpt lat="42.85743" lon="0.26631">
        <ele>1579</ele>
        <time>2013-12-15T12:51:41Z</time>
      </trkpt>
      <trkpt lat="42.85746" lon="0.26629">
        <ele>1579</ele>
        <time>2013-12-15T12:52:01Z</time>
      </trkpt>
      <trkpt lat="42.85739" lon="0.26644">
        <ele>1577</ele>
        <time>2013-12-15T12:52:08Z</time>
      </trkpt>
      <trkpt lat="42.85717" lon="0.2665">
        <ele>1573</ele>
        <time>2013-12-15T12:52:13Z</time>
      </trkpt>
      <trkpt lat="42.85708" lon="0.26659">
        <ele>1570</ele>
        <time>2013-12-15T12:52:15Z</time>
      </trkpt>
      <trkpt lat="42.85705" lon="0.26667">
        <ele>1569</ele>
        <time>2013-12-15T12:52:22Z</time>
      </trkpt>
      <trkpt lat="42.85701" lon="0.26676">
        <ele>1567</ele>
        <time>2013-12-15T12:52:27Z</time>
      </trkpt>
      <trkpt lat="42.85685" lon="0.2666">
        <ele>1563</ele>
        <time>2013-12-15T12:52:33Z</time>
      </trkpt>
      <trkpt lat="42.85675" lon="0.26666">
        <ele>1559</ele>
        <time>2013-12-15T12:52:35Z</time>
      </trkpt>
      <trkpt lat="42.85671" lon="0.26671">
        <ele>1558</ele>
        <time>2013-12-15T12:52:36Z</time>
      </trkpt>
      <trkpt lat="42.85657" lon="0.26678">
        <ele>1556</ele>
        <time>2013-12-15T12:52:40Z</time>
      </trkpt>
      <trkpt lat="42.85641" lon="0.26683">
        <ele>1549</ele>
        <time>2013-12-15T12:52:44Z</time>
      </trkpt>
      <trkpt lat="42.8564" lon="0.26691">
        <ele>1548</ele>
        <time>2013-12-15T12:52:46Z</time>
      </trkpt>
      <trkpt lat="42.85639" lon="0.26702">
        <ele>1547</ele>
        <time>2013-12-15T12:52:51Z</time>
      </trkpt>
      <trkpt lat="42.85642" lon="0.26713">
        <ele>1546</ele>
        <time>2013-12-15T12:52:55Z</time>
      </trkpt>
      <trkpt lat="42.85644" lon="0.26713">
        <ele>1546</ele>
        <time>2013-12-15T12:53:00Z</time>
      </trkpt>
      <trkpt lat="42.85639" lon="0.26717">
        <ele>1544</ele>
        <time>2013-12-15T12:53:05Z</time>
      </trkpt>
      <trkpt lat="42.85633" lon="0.2673">
        <ele>1543</ele>
        <time>2013-12-15T12:53:10Z</time>
      </trkpt>
      <trkpt lat="42.85634" lon="0.26733">
        <ele>1544</ele>
        <time>2013-12-15T12:53:20Z</time>
      </trkpt>
      <trkpt lat="42.85632" lon="0.26742">
        <ele>1543</ele>
        <time>2013-12-15T12:53:24Z</time>
      </trkpt>
      <trkpt lat="42.85625" lon="0.26764">
        <ele>1538</ele>
        <time>2013-12-15T12:53:28Z</time>
      </trkpt>
      <trkpt lat="42.85612" lon="0.26774">
        <ele>1535</ele>
        <time>2013-12-15T12:53:31Z</time>
      </trkpt>
      <trkpt lat="42.85604" lon="0.26786">
        <ele>1531</ele>
        <time>2013-12-15T12:53:34Z</time>
      </trkpt>
      <trkpt lat="42.85588" lon="0.26794">
        <ele>1526</ele>
        <time>2013-12-15T12:53:38Z</time>
      </trkpt>
      <trkpt lat="42.85582" lon="0.26802">
        <ele>1522</ele>
        <time>2013-12-15T12:53:41Z</time>
      </trkpt>
      <trkpt lat="42.85575" lon="0.26813">
        <ele>1519</ele>
        <time>2013-12-15T12:53:44Z</time>
      </trkpt>
      <trkpt lat="42.85561" lon="0.26824">
        <ele>1515</ele>
        <time>2013-12-15T12:53:48Z</time>
      </trkpt>
      <trkpt lat="42.8555" lon="0.26837">
        <ele>1512</ele>
        <time>2013-12-15T12:53:52Z</time>
      </trkpt>
      <trkpt lat="42.8554" lon="0.26851">
        <ele>1507</ele>
        <time>2013-12-15T12:53:56Z</time>
      </trkpt>
      <trkpt lat="42.85538" lon="0.26855">
        <ele>1507</ele>
        <time>2013-12-15T12:53:57Z</time>
      </trkpt>
      <trkpt lat="42.85528" lon="0.26864">
        <ele>1502</ele>
        <time>2013-12-15T12:54:05Z</time>
      </trkpt>
      <trkpt lat="42.85527" lon="0.26869">
        <ele>1503</ele>
        <time>2013-12-15T12:54:15Z</time>
      </trkpt>
      <trkpt lat="42.85527" lon="0.26878">
        <ele>1502</ele>
        <time>2013-12-15T12:54:19Z</time>
      </trkpt>
      <trkpt lat="42.85526" lon="0.26887">
        <ele>1500</ele>
        <time>2013-12-15T12:54:22Z</time>
      </trkpt>
      <trkpt lat="42.85527" lon="0.26901">
        <ele>1498</ele>
        <time>2013-12-15T12:54:25Z</time>
      </trkpt>
      <trkpt lat="42.85527" lon="0.26904">
        <ele>1498</ele>
        <time>2013-12-15T12:54:30Z</time>
      </trkpt>
      <trkpt lat="42.85527" lon="0.26928">
        <ele>1494</ele>
        <time>2013-12-15T12:54:39Z</time>
      </trkpt>
      <trkpt lat="42.85513" lon="0.26931">
        <ele>1492</ele>
        <time>2013-12-15T12:54:45Z</time>
      </trkpt>
      <trkpt lat="42.85511" lon="0.26934">
        <ele>1491</ele>
        <time>2013-12-15T12:54:46Z</time>
      </trkpt>
      <trkpt lat="42.85498" lon="0.26945">
        <ele>1486</ele>
        <time>2013-12-15T12:54:50Z</time>
      </trkpt>
      <trkpt lat="42.85494" lon="0.26946">
        <ele>1486</ele>
        <time>2013-12-15T12:54:51Z</time>
      </trkpt>
      <trkpt lat="42.85488" lon="0.26947">
        <ele>1484</ele>
        <time>2013-12-15T12:54:53Z</time>
      </trkpt>
      <trkpt lat="42.85474" lon="0.26946">
        <ele>1481</ele>
        <time>2013-12-15T12:55:00Z</time>
      </trkpt>
      <trkpt lat="42.85462" lon="0.26946">
        <ele>1477</ele>
        <time>2013-12-15T12:55:04Z</time>
      </trkpt>
      <trkpt lat="42.85451" lon="0.2695">
        <ele>1474</ele>
        <time>2013-12-15T12:55:07Z</time>
      </trkpt>
      <trkpt lat="42.85437" lon="0.26965">
        <ele>1470</ele>
        <time>2013-12-15T12:55:11Z</time>
      </trkpt>
      <trkpt lat="42.85429" lon="0.26967">
        <ele>1469</ele>
        <time>2013-12-15T12:55:13Z</time>
      </trkpt>
      <trkpt lat="42.85416" lon="0.26993">
        <ele>1463</ele>
        <time>2013-12-15T12:55:20Z</time>
      </trkpt>
      <trkpt lat="42.85411" lon="0.26995">
        <ele>1461</ele>
        <time>2013-12-15T12:55:22Z</time>
      </trkpt>
      <trkpt lat="42.85403" lon="0.27003">
        <ele>1459</ele>
        <time>2013-12-15T12:55:26Z</time>
      </trkpt>
      <trkpt lat="42.85407" lon="0.27009">
        <ele>1458</ele>
        <time>2013-12-15T12:55:33Z</time>
      </trkpt>
      <trkpt lat="42.8541" lon="0.27012">
        <ele>1457</ele>
        <time>2013-12-15T12:55:42Z</time>
      </trkpt>
      <trkpt lat="42.85394" lon="0.27028">
        <ele>1454</ele>
        <time>2013-12-15T12:55:48Z</time>
      </trkpt>
      <trkpt lat="42.85382" lon="0.27035">
        <ele>1452</ele>
        <time>2013-12-15T12:55:51Z</time>
      </trkpt>
      <trkpt lat="42.85363" lon="0.27041">
        <ele>1449</ele>
        <time>2013-12-15T12:55:55Z</time>
      </trkpt>
      <trkpt lat="42.85345" lon="0.27054">
        <ele>1445</ele>
        <time>2013-12-15T12:55:59Z</time>
      </trkpt>
      <trkpt lat="42.8533" lon="0.27066">
        <ele>1443</ele>
        <time>2013-12-15T12:56:03Z</time>
      </trkpt>
      <trkpt lat="42.8532" lon="0.27073">
        <ele>1441</ele>
        <time>2013-12-15T12:56:06Z</time>
      </trkpt>
      <trkpt lat="42.85318" lon="0.27078">
        <ele>1440</ele>
        <time>2013-12-15T12:56:07Z</time>
      </trkpt>
      <trkpt lat="42.85306" lon="0.27104">
        <ele>1437</ele>
        <time>2013-12-15T12:56:12Z</time>
      </trkpt>
      <trkpt lat="42.85301" lon="0.27108">
        <ele>1436</ele>
        <time>2013-12-15T12:56:14Z</time>
      </trkpt>
      <trkpt lat="42.85297" lon="0.27108">
        <ele>1434</ele>
        <time>2013-12-15T12:56:16Z</time>
      </trkpt>
      <trkpt lat="42.85281" lon="0.27111">
        <ele>1430</ele>
        <time>2013-12-15T12:56:20Z</time>
      </trkpt>
      <trkpt lat="42.85273" lon="0.27119">
        <ele>1428</ele>
        <time>2013-12-15T12:56:23Z</time>
      </trkpt>
      <trkpt lat="42.85268" lon="0.2712">
        <ele>1426</ele>
        <time>2013-12-15T12:56:25Z</time>
      </trkpt>
      <trkpt lat="42.85263" lon="0.27115">
        <ele>1425</ele>
        <time>2013-12-15T12:56:27Z</time>
      </trkpt>
      <trkpt lat="42.85245" lon="0.27126">
        <ele>1420</ele>
        <time>2013-12-15T12:56:33Z</time>
      </trkpt>
      <trkpt lat="42.85234" lon="0.27129">
        <ele>1418</ele>
        <time>2013-12-15T12:56:36Z</time>
      </trkpt>
      <trkpt lat="42.85226" lon="0.27133">
        <ele>1417</ele>
        <time>2013-12-15T12:56:38Z</time>
      </trkpt>
      <trkpt lat="42.85219" lon="0.27138">
        <ele>1416</ele>
        <time>2013-12-15T12:56:40Z</time>
      </trkpt>
      <trkpt lat="42.85212" lon="0.27145">
        <ele>1415</ele>
        <time>2013-12-15T12:56:42Z</time>
      </trkpt>
      <trkpt lat="42.85199" lon="0.27165">
        <ele>1411</ele>
        <time>2013-12-15T12:56:47Z</time>
      </trkpt>
      <trkpt lat="42.85185" lon="0.27189">
        <ele>1408</ele>
        <time>2013-12-15T12:56:53Z</time>
      </trkpt>
      <trkpt lat="42.85178" lon="0.27208">
        <ele>1407</ele>
        <time>2013-12-15T12:56:57Z</time>
      </trkpt>
      <trkpt lat="42.85176" lon="0.27223">
        <ele>1406</ele>
        <time>2013-12-15T12:56:59Z</time>
      </trkpt>
      <trkpt lat="42.85172" lon="0.27248">
        <ele>1402</ele>
        <time>2013-12-15T12:57:03Z</time>
      </trkpt>
      <trkpt lat="42.85165" lon="0.27254">
        <ele>1401</ele>
        <time>2013-12-15T12:57:05Z</time>
      </trkpt>
      <trkpt lat="42.85162" lon="0.27256">
        <ele>1401</ele>
        <time>2013-12-15T12:57:06Z</time>
      </trkpt>
      <trkpt lat="42.85153" lon="0.27268">
        <ele>1399</ele>
        <time>2013-12-15T12:57:10Z</time>
      </trkpt>
      <trkpt lat="42.85146" lon="0.27285">
        <ele>1396</ele>
        <time>2013-12-15T12:57:20Z</time>
      </trkpt>
      <trkpt lat="42.85148" lon="0.27297">
        <ele>1396</ele>
        <time>2013-12-15T12:57:29Z</time>
      </trkpt>
      <trkpt lat="42.85149" lon="0.27299">
        <ele>1396</ele>
        <time>2013-12-15T12:57:36Z</time>
      </trkpt>
      <trkpt lat="42.85145" lon="0.27305">
        <ele>1395</ele>
        <time>2013-12-15T12:57:40Z</time>
      </trkpt>
      <trkpt lat="42.85144" lon="0.27307">
        <ele>1395</ele>
        <time>2013-12-15T12:57:41Z</time>
      </trkpt>
      <trkpt lat="42.85136" lon="0.27315">
        <ele>1393</ele>
        <time>2013-12-15T12:57:45Z</time>
      </trkpt>
      <trkpt lat="42.85133" lon="0.27319">
        <ele>1392</ele>
        <time>2013-12-15T12:57:56Z</time>
      </trkpt>
      <trkpt lat="42.85134" lon="0.2733">
        <ele>1392</ele>
        <time>2013-12-15T12:58:13Z</time>
      </trkpt>
      <trkpt lat="42.85136" lon="0.2733">
        <ele>1392</ele>
        <time>2013-12-15T12:58:29Z</time>
      </trkpt>
      <trkpt lat="42.85133" lon="0.2733">
        <ele>1392</ele>
        <time>2013-12-15T12:58:43Z</time>
      </trkpt>
      <trkpt lat="42.85135" lon="0.27332">
        <ele>1391</ele>
        <time>2013-12-15T12:58:55Z</time>
      </trkpt>
      <trkpt lat="42.85134" lon="0.27333">
        <ele>1391</ele>
        <time>2013-12-15T12:59:17Z</time>
      </trkpt>
      <trkpt lat="42.85135" lon="0.27334">
        <ele>1391</ele>
        <time>2013-12-15T12:59:41Z</time>
      </trkpt>
      <trkpt lat="42.85138" lon="0.2733">
        <ele>1391</ele>
        <time>2013-12-15T12:59:58Z</time>
      </trkpt>
      <trkpt lat="42.85135" lon="0.27329">
        <ele>1390</ele>
        <time>2013-12-15T13:00:13Z</time>
      </trkpt>
      <trkpt lat="42.85135" lon="0.2733">
        <ele>1390</ele>
        <time>2013-12-15T13:00:28Z</time>
      </trkpt>
      <trkpt lat="42.85137" lon="0.27329">
        <ele>1389</ele>
        <time>2013-12-15T13:00:47Z</time>
      </trkpt>
      <trkpt lat="42.85136" lon="0.27333">
        <ele>1389</ele>
        <time>2013-12-15T13:01:22Z</time>
      </trkpt>
      <trkpt lat="42.85135" lon="0.27328">
        <ele>1388</ele>
        <time>2013-12-15T13:02:01Z</time>
      </trkpt>
      <trkpt lat="42.85134" lon="0.27329">
        <ele>1388</ele>
        <time>2013-12-15T13:02:30Z</time>
      </trkpt>
      <trkpt lat="42.85136" lon="0.2733">
        <ele>1387</ele>
        <time>2013-12-15T13:03:00Z</time>
      </trkpt>
      <trkpt lat="42.85135" lon="0.27331">
        <ele>1386</ele>
        <time>2013-12-15T13:03:35Z</time>
      </trkpt>
      <trkpt lat="42.85136" lon="0.2733">
        <ele>1386</ele>
        <time>2013-12-15T13:04:16Z</time>
      </trkpt>
      <trkpt lat="42.85136" lon="0.27328">
        <ele>1385</ele>
        <time>2013-12-15T13:04:54Z</time>
      </trkpt>
      <trkpt lat="42.85136" lon="0.27331">
        <ele>1384</ele>
        <time>2013-12-15T13:05:21Z</time>
      </trkpt>
      <trkpt lat="42.85136" lon="0.2733">
        <ele>1384</ele>
        <time>2013-12-15T13:05:55Z</time>
      </trkpt>
      <trkpt lat="42.85136" lon="0.27329">
        <ele>1384</ele>
        <time>2013-12-15T13:06:32Z</time>
      </trkpt>
      <trkpt lat="42.85135" lon="0.27331">
        <ele>1384</ele>
        <time>2013-12-15T13:07:00Z</time>
      </trkpt>
      <trkpt lat="42.85136" lon="0.27331">
        <ele>1383</ele>
        <time>2013-12-15T13:07:28Z</time>
      </trkpt>
      <trkpt lat="42.85134" lon="0.27331">
        <ele>1383</ele>
        <time>2013-12-15T13:08:03Z</time>
      </trkpt>
      <trkpt lat="42.85134" lon="0.2733">
        <ele>1382</ele>
        <time>2013-12-15T13:08:38Z</time>
      </trkpt>
      <trkpt lat="42.85136" lon="0.27329">
        <ele>1383</ele>
        <time>2013-12-15T13:08:59Z</time>
      </trkpt>
    </trkseg>
  </trk>
</gpx>